<?xml version="1.0" encoding="UTF-8" standalone="no" ?>
<gpx xmlns="http://www.topografix.com/GPX/1/1" xmlns:xsi="http://www.w3.org/2001/XMLSchema-instance" xsi:schemaLocation="http://www.topografix.com/GPX/1/1 http://www.topografix.com/GPX/1/1/gpx.xsd" version="1.1" creator="VisuGPX - https://www.visugpx.com">
  <metadata>
    <name>Boucle autour de Crecy la Chapelle</name>
    <desc><![CDATA[Départ et arrivée à la gare SNCF de Crecy la Chapelle.  Nous passerons par Ferolle, Montbarbin, Villiers sur Morin, Serbonne (nous ferons un détour pour voir un lavoir), Crecy. Daniel BAIJOT]]></desc>
  </metadata>
  <trk>
    <name><![CDATA[Tracé]]></name>
    <trkseg>
      <trkpt lat="48.85965" lon="2.90356">
        <ele>52.05</ele>
        <time>2013-12-18T08:21:50Z</time>
      </trkpt>
      <trkpt lat="48.85955" lon="2.90504">
        <ele>54.45</ele>
        <time>2013-12-18T08:22:05Z</time>
      </trkpt>
      <trkpt lat="48.85952" lon="2.90581">
        <ele>53.49</ele>
        <time>2013-12-18T08:22:18Z</time>
      </trkpt>
      <trkpt lat="48.85953" lon="2.90583">
        <ele>50.61</ele>
        <time>2013-12-18T08:22:33Z</time>
      </trkpt>
      <trkpt lat="48.85952" lon="2.90585">
        <ele>52.53</ele>
        <time>2013-12-18T08:22:47Z</time>
      </trkpt>
      <trkpt lat="48.85953" lon="2.90586">
        <ele>53.49</ele>
        <time>2013-12-18T08:23:09Z</time>
      </trkpt>
      <trkpt lat="48.85947" lon="2.90585">
        <ele>53.49</ele>
        <time>2013-12-18T08:23:30Z</time>
      </trkpt>
      <trkpt lat="48.85943" lon="2.90584">
        <ele>53.01</ele>
        <time>2013-12-18T08:23:49Z</time>
      </trkpt>
      <trkpt lat="48.85938" lon="2.90585">
        <ele>52.05</ele>
        <time>2013-12-18T08:24:05Z</time>
      </trkpt>
      <trkpt lat="48.85935" lon="2.90585">
        <ele>52.05</ele>
        <time>2013-12-18T08:24:27Z</time>
      </trkpt>
      <trkpt lat="48.85933" lon="2.90585">
        <ele>53.97</ele>
        <time>2013-12-18T08:24:53Z</time>
      </trkpt>
      <trkpt lat="48.85932" lon="2.90584">
        <ele>54.93</ele>
        <time>2013-12-18T08:25:14Z</time>
      </trkpt>
      <trkpt lat="48.85933" lon="2.90583">
        <ele>55.41</ele>
        <time>2013-12-18T08:25:31Z</time>
      </trkpt>
      <trkpt lat="48.85933" lon="2.90581">
        <ele>54.45</ele>
        <time>2013-12-18T08:25:47Z</time>
      </trkpt>
      <trkpt lat="48.85932" lon="2.9058">
        <ele>54.45</ele>
        <time>2013-12-18T08:26:01Z</time>
      </trkpt>
      <trkpt lat="48.85933" lon="2.90582">
        <ele>54.45</ele>
        <time>2013-12-18T08:26:14Z</time>
      </trkpt>
      <trkpt lat="48.85932" lon="2.90577">
        <ele>55.41</ele>
        <time>2013-12-18T08:26:30Z</time>
      </trkpt>
      <trkpt lat="48.8593" lon="2.90575">
        <ele>56.37</ele>
        <time>2013-12-18T08:26:55Z</time>
      </trkpt>
      <trkpt lat="48.8593" lon="2.90577">
        <ele>56.86</ele>
        <time>2013-12-18T08:27:17Z</time>
      </trkpt>
      <trkpt lat="48.8593" lon="2.90577">
        <ele>56.86</ele>
        <time>2013-12-18T08:27:26Z</time>
      </trkpt>
      <trkpt lat="48.8593" lon="2.90577">
        <ele>56.86</ele>
        <time>2013-12-18T08:27:40Z</time>
      </trkpt>
      <trkpt lat="48.8593" lon="2.90575">
        <ele>57.82</ele>
        <time>2013-12-18T08:27:51Z</time>
      </trkpt>
      <trkpt lat="48.85931" lon="2.90577">
        <ele>58.78</ele>
        <time>2013-12-18T08:28:10Z</time>
      </trkpt>
      <trkpt lat="48.85931" lon="2.90577">
        <ele>58.78</ele>
        <time>2013-12-18T08:28:28Z</time>
      </trkpt>
      <trkpt lat="48.8593" lon="2.9058">
        <ele>58.78</ele>
        <time>2013-12-18T08:28:37Z</time>
      </trkpt>
      <trkpt lat="48.85931" lon="2.90593">
        <ele>54.93</ele>
        <time>2013-12-18T08:28:42Z</time>
      </trkpt>
      <trkpt lat="48.85925" lon="2.90624">
        <ele>50.13</ele>
        <time>2013-12-18T08:29:00Z</time>
      </trkpt>
      <trkpt lat="48.85918" lon="2.90654">
        <ele>47.24</ele>
        <time>2013-12-18T08:29:16Z</time>
      </trkpt>
      <trkpt lat="48.85914" lon="2.90683">
        <ele>48.68</ele>
        <time>2013-12-18T08:29:33Z</time>
      </trkpt>
      <trkpt lat="48.8591" lon="2.90696">
        <ele>50.13</ele>
        <time>2013-12-18T08:29:42Z</time>
      </trkpt>
      <trkpt lat="48.85899" lon="2.9071">
        <ele>50.13</ele>
        <time>2013-12-18T08:29:56Z</time>
      </trkpt>
      <trkpt lat="48.85896" lon="2.90716">
        <ele>50.13</ele>
        <time>2013-12-18T08:30:09Z</time>
      </trkpt>
      <trkpt lat="48.85891" lon="2.90742">
        <ele>46.28</ele>
        <time>2013-12-18T08:30:25Z</time>
      </trkpt>
      <trkpt lat="48.85894" lon="2.90772">
        <ele>45.32</ele>
        <time>2013-12-18T08:30:35Z</time>
      </trkpt>
      <trkpt lat="48.85893" lon="2.9081">
        <ele>44.84</ele>
        <time>2013-12-18T08:30:56Z</time>
      </trkpt>
      <trkpt lat="48.8589" lon="2.90842">
        <ele>47.24</ele>
        <time>2013-12-18T08:31:14Z</time>
      </trkpt>
      <trkpt lat="48.85889" lon="2.90857">
        <ele>46.28</ele>
        <time>2013-12-18T08:31:23Z</time>
      </trkpt>
      <trkpt lat="48.85888" lon="2.90866">
        <ele>45.8</ele>
        <time>2013-12-18T08:31:27Z</time>
      </trkpt>
      <trkpt lat="48.85892" lon="2.90904">
        <ele>46.28</ele>
        <time>2013-12-18T08:31:49Z</time>
      </trkpt>
      <trkpt lat="48.85887" lon="2.90909">
        <ele>46.28</ele>
        <time>2013-12-18T08:31:55Z</time>
      </trkpt>
      <trkpt lat="48.85878" lon="2.90911">
        <ele>44.84</ele>
        <time>2013-12-18T08:32:04Z</time>
      </trkpt>
      <trkpt lat="48.85854" lon="2.90913">
        <ele>44.84</ele>
        <time>2013-12-18T08:32:24Z</time>
      </trkpt>
      <trkpt lat="48.85854" lon="2.90936">
        <ele>45.32</ele>
        <time>2013-12-18T08:32:39Z</time>
      </trkpt>
      <trkpt lat="48.85858" lon="2.90961">
        <ele>44.36</ele>
        <time>2013-12-18T08:32:55Z</time>
      </trkpt>
      <trkpt lat="48.8586" lon="2.90987">
        <ele>42.44</ele>
        <time>2013-12-18T08:33:10Z</time>
      </trkpt>
      <trkpt lat="48.85861" lon="2.91007">
        <ele>40.99</ele>
        <time>2013-12-18T08:33:22Z</time>
      </trkpt>
      <trkpt lat="48.85864" lon="2.91029">
        <ele>39.55</ele>
        <time>2013-12-18T08:33:35Z</time>
      </trkpt>
      <trkpt lat="48.85861" lon="2.91062">
        <ele>38.59</ele>
        <time>2013-12-18T08:33:53Z</time>
      </trkpt>
      <trkpt lat="48.85856" lon="2.91076">
        <ele>39.07</ele>
        <time>2013-12-18T08:34:02Z</time>
      </trkpt>
      <trkpt lat="48.85854" lon="2.91087">
        <ele>39.55</ele>
        <time>2013-12-18T08:34:07Z</time>
      </trkpt>
      <trkpt lat="48.85855" lon="2.91115">
        <ele>40.03</ele>
        <time>2013-12-18T08:34:24Z</time>
      </trkpt>
      <trkpt lat="48.85857" lon="2.91145">
        <ele>40.99</ele>
        <time>2013-12-18T08:34:40Z</time>
      </trkpt>
      <trkpt lat="48.85859" lon="2.91152">
        <ele>40.03</ele>
        <time>2013-12-18T08:34:44Z</time>
      </trkpt>
      <trkpt lat="48.8586" lon="2.91159">
        <ele>40.51</ele>
        <time>2013-12-18T08:34:47Z</time>
      </trkpt>
      <trkpt lat="48.85861" lon="2.91167">
        <ele>40.51</ele>
        <time>2013-12-18T08:34:51Z</time>
      </trkpt>
      <trkpt lat="48.85861" lon="2.91173">
        <ele>40.03</ele>
        <time>2013-12-18T08:34:54Z</time>
      </trkpt>
      <trkpt lat="48.85865" lon="2.91202">
        <ele>38.11</ele>
        <time>2013-12-18T08:35:11Z</time>
      </trkpt>
      <trkpt lat="48.85866" lon="2.91228">
        <ele>34.26</ele>
        <time>2013-12-18T08:35:27Z</time>
      </trkpt>
      <trkpt lat="48.85862" lon="2.91257">
        <ele>34.74</ele>
        <time>2013-12-18T08:35:41Z</time>
      </trkpt>
      <trkpt lat="48.85863" lon="2.91291">
        <ele>40.51</ele>
        <time>2013-12-18T08:35:59Z</time>
      </trkpt>
      <trkpt lat="48.85859" lon="2.9132">
        <ele>43.4</ele>
        <time>2013-12-18T08:36:15Z</time>
      </trkpt>
      <trkpt lat="48.85851" lon="2.91342">
        <ele>43.4</ele>
        <time>2013-12-18T08:36:29Z</time>
      </trkpt>
      <trkpt lat="48.85842" lon="2.91363">
        <ele>44.36</ele>
        <time>2013-12-18T08:36:42Z</time>
      </trkpt>
      <trkpt lat="48.85836" lon="2.91375">
        <ele>45.8</ele>
        <time>2013-12-18T08:36:52Z</time>
      </trkpt>
      <trkpt lat="48.85835" lon="2.91382">
        <ele>46.28</ele>
        <time>2013-12-18T08:37:05Z</time>
      </trkpt>
      <trkpt lat="48.85836" lon="2.91402">
        <ele>46.28</ele>
        <time>2013-12-18T08:37:20Z</time>
      </trkpt>
      <trkpt lat="48.85837" lon="2.91406">
        <ele>46.76</ele>
        <time>2013-12-18T08:37:23Z</time>
      </trkpt>
      <trkpt lat="48.8585" lon="2.9142">
        <ele>47.24</ele>
        <time>2013-12-18T08:37:39Z</time>
      </trkpt>
      <trkpt lat="48.85873" lon="2.91442">
        <ele>46.76</ele>
        <time>2013-12-18T08:37:57Z</time>
      </trkpt>
      <trkpt lat="48.8589" lon="2.91462">
        <ele>46.28</ele>
        <time>2013-12-18T08:38:16Z</time>
      </trkpt>
      <trkpt lat="48.85906" lon="2.91475">
        <ele>48.68</ele>
        <time>2013-12-18T08:38:32Z</time>
      </trkpt>
      <trkpt lat="48.85917" lon="2.91488">
        <ele>49.65</ele>
        <time>2013-12-18T08:38:47Z</time>
      </trkpt>
      <trkpt lat="48.8593" lon="2.9151">
        <ele>49.16</ele>
        <time>2013-12-18T08:39:03Z</time>
      </trkpt>
      <trkpt lat="48.85939" lon="2.91517">
        <ele>50.13</ele>
        <time>2013-12-18T08:39:18Z</time>
      </trkpt>
      <trkpt lat="48.8594" lon="2.91509">
        <ele>51.57</ele>
        <time>2013-12-18T08:39:23Z</time>
      </trkpt>
      <trkpt lat="48.85944" lon="2.91495">
        <ele>54.93</ele>
        <time>2013-12-18T08:39:40Z</time>
      </trkpt>
      <trkpt lat="48.85943" lon="2.91495">
        <ele>55.41</ele>
        <time>2013-12-18T08:40:03Z</time>
      </trkpt>
      <trkpt lat="48.85945" lon="2.91496">
        <ele>55.41</ele>
        <time>2013-12-18T08:40:10Z</time>
      </trkpt>
      <trkpt lat="48.85962" lon="2.91505">
        <ele>55.41</ele>
        <time>2013-12-18T08:40:28Z</time>
      </trkpt>
      <trkpt lat="48.85962" lon="2.91505">
        <ele>55.41</ele>
        <time>2013-12-18T08:40:34Z</time>
      </trkpt>
      <trkpt lat="48.85967" lon="2.91515">
        <ele>55.89</ele>
        <time>2013-12-18T08:40:50Z</time>
      </trkpt>
      <trkpt lat="48.85967" lon="2.91516">
        <ele>55.89</ele>
        <time>2013-12-18T08:40:51Z</time>
      </trkpt>
      <trkpt lat="48.85978" lon="2.91531">
        <ele>55.41</ele>
        <time>2013-12-18T08:41:06Z</time>
      </trkpt>
      <trkpt lat="48.85982" lon="2.91565">
        <ele>57.82</ele>
        <time>2013-12-18T08:41:26Z</time>
      </trkpt>
      <trkpt lat="48.85982" lon="2.91568">
        <ele>58.78</ele>
        <time>2013-12-18T08:41:44Z</time>
      </trkpt>
      <trkpt lat="48.85982" lon="2.91566">
        <ele>59.74</ele>
        <time>2013-12-18T08:42:04Z</time>
      </trkpt>
      <trkpt lat="48.85982" lon="2.91565">
        <ele>62.14</ele>
        <time>2013-12-18T08:42:36Z</time>
      </trkpt>
      <trkpt lat="48.85983" lon="2.91565">
        <ele>63.1</ele>
        <time>2013-12-18T08:42:56Z</time>
      </trkpt>
      <trkpt lat="48.85983" lon="2.91564">
        <ele>63.58</ele>
        <time>2013-12-18T08:43:22Z</time>
      </trkpt>
      <trkpt lat="48.85983" lon="2.91566">
        <ele>65.03</ele>
        <time>2013-12-18T08:43:47Z</time>
      </trkpt>
      <trkpt lat="48.85984" lon="2.91579">
        <ele>71.27</ele>
        <time>2013-12-18T08:44:01Z</time>
      </trkpt>
      <trkpt lat="48.85985" lon="2.91591">
        <ele>76.08</ele>
        <time>2013-12-18T08:44:13Z</time>
      </trkpt>
      <trkpt lat="48.85989" lon="2.91601">
        <ele>78</ele>
        <time>2013-12-18T08:44:24Z</time>
      </trkpt>
      <trkpt lat="48.85993" lon="2.91621">
        <ele>81.85</ele>
        <time>2013-12-18T08:44:36Z</time>
      </trkpt>
      <trkpt lat="48.86" lon="2.91663">
        <ele>78.48</ele>
        <time>2013-12-18T08:45:15Z</time>
      </trkpt>
      <trkpt lat="48.86001" lon="2.91676">
        <ele>77.04</ele>
        <time>2013-12-18T08:45:29Z</time>
      </trkpt>
      <trkpt lat="48.86001" lon="2.91681">
        <ele>77.04</ele>
        <time>2013-12-18T08:45:41Z</time>
      </trkpt>
      <trkpt lat="48.86004" lon="2.91697">
        <ele>78</ele>
        <time>2013-12-18T08:45:58Z</time>
      </trkpt>
      <trkpt lat="48.86009" lon="2.91716">
        <ele>79.93</ele>
        <time>2013-12-18T08:46:14Z</time>
      </trkpt>
      <trkpt lat="48.86011" lon="2.91724">
        <ele>79.93</ele>
        <time>2013-12-18T08:46:21Z</time>
      </trkpt>
      <trkpt lat="48.86014" lon="2.91742">
        <ele>81.37</ele>
        <time>2013-12-18T08:46:36Z</time>
      </trkpt>
      <trkpt lat="48.86018" lon="2.91758">
        <ele>84.25</ele>
        <time>2013-12-18T08:46:51Z</time>
      </trkpt>
      <trkpt lat="48.86021" lon="2.91774">
        <ele>84.73</ele>
        <time>2013-12-18T08:47:05Z</time>
      </trkpt>
      <trkpt lat="48.86026" lon="2.91791">
        <ele>85.69</ele>
        <time>2013-12-18T08:47:19Z</time>
      </trkpt>
      <trkpt lat="48.8603" lon="2.91814">
        <ele>86.18</ele>
        <time>2013-12-18T08:47:36Z</time>
      </trkpt>
      <trkpt lat="48.86036" lon="2.9183">
        <ele>86.66</ele>
        <time>2013-12-18T08:47:52Z</time>
      </trkpt>
      <trkpt lat="48.86045" lon="2.91845">
        <ele>87.14</ele>
        <time>2013-12-18T08:48:07Z</time>
      </trkpt>
      <trkpt lat="48.86051" lon="2.91857">
        <ele>87.62</ele>
        <time>2013-12-18T08:48:21Z</time>
      </trkpt>
      <trkpt lat="48.86062" lon="2.91867">
        <ele>90.02</ele>
        <time>2013-12-18T08:48:37Z</time>
      </trkpt>
      <trkpt lat="48.86074" lon="2.91878">
        <ele>93.87</ele>
        <time>2013-12-18T08:48:52Z</time>
      </trkpt>
      <trkpt lat="48.8609" lon="2.91888">
        <ele>96.75</ele>
        <time>2013-12-18T08:49:08Z</time>
      </trkpt>
      <trkpt lat="48.86104" lon="2.91902">
        <ele>98.67</ele>
        <time>2013-12-18T08:49:25Z</time>
      </trkpt>
      <trkpt lat="48.86115" lon="2.91913">
        <ele>99.63</ele>
        <time>2013-12-18T08:49:38Z</time>
      </trkpt>
      <trkpt lat="48.86128" lon="2.91928">
        <ele>99.63</ele>
        <time>2013-12-18T08:49:54Z</time>
      </trkpt>
      <trkpt lat="48.86139" lon="2.91943">
        <ele>98.67</ele>
        <time>2013-12-18T08:50:09Z</time>
      </trkpt>
      <trkpt lat="48.86141" lon="2.91946">
        <ele>98.19</ele>
        <time>2013-12-18T08:50:13Z</time>
      </trkpt>
      <trkpt lat="48.86152" lon="2.91959">
        <ele>98.67</ele>
        <time>2013-12-18T08:50:27Z</time>
      </trkpt>
      <trkpt lat="48.86162" lon="2.91971">
        <ele>100.6</ele>
        <time>2013-12-18T08:50:37Z</time>
      </trkpt>
      <trkpt lat="48.86173" lon="2.91988">
        <ele>99.15</ele>
        <time>2013-12-18T08:50:53Z</time>
      </trkpt>
      <trkpt lat="48.86179" lon="2.91993">
        <ele>99.63</ele>
        <time>2013-12-18T08:50:59Z</time>
      </trkpt>
      <trkpt lat="48.86189" lon="2.92007">
        <ele>100.11</ele>
        <time>2013-12-18T08:51:13Z</time>
      </trkpt>
      <trkpt lat="48.8619" lon="2.92008">
        <ele>100.11</ele>
        <time>2013-12-18T08:51:14Z</time>
      </trkpt>
      <trkpt lat="48.86203" lon="2.92021">
        <ele>99.63</ele>
        <time>2013-12-18T08:51:30Z</time>
      </trkpt>
      <trkpt lat="48.86216" lon="2.92039">
        <ele>98.67</ele>
        <time>2013-12-18T08:51:45Z</time>
      </trkpt>
      <trkpt lat="48.86227" lon="2.92055">
        <ele>98.67</ele>
        <time>2013-12-18T08:51:59Z</time>
      </trkpt>
      <trkpt lat="48.86237" lon="2.9207">
        <ele>95.79</ele>
        <time>2013-12-18T08:52:15Z</time>
      </trkpt>
      <trkpt lat="48.86245" lon="2.92082">
        <ele>95.79</ele>
        <time>2013-12-18T08:52:28Z</time>
      </trkpt>
      <trkpt lat="48.86246" lon="2.92086">
        <ele>95.31</ele>
        <time>2013-12-18T08:52:32Z</time>
      </trkpt>
      <trkpt lat="48.86254" lon="2.921">
        <ele>94.35</ele>
        <time>2013-12-18T08:52:44Z</time>
      </trkpt>
      <trkpt lat="48.86266" lon="2.92115">
        <ele>98.67</ele>
        <time>2013-12-18T08:53:00Z</time>
      </trkpt>
      <trkpt lat="48.8627" lon="2.92119">
        <ele>100.6</ele>
        <time>2013-12-18T08:53:04Z</time>
      </trkpt>
      <trkpt lat="48.86273" lon="2.92122">
        <ele>100.6</ele>
        <time>2013-12-18T08:53:06Z</time>
      </trkpt>
      <trkpt lat="48.86293" lon="2.92143">
        <ele>100.6</ele>
        <time>2013-12-18T08:53:24Z</time>
      </trkpt>
      <trkpt lat="48.86303" lon="2.92164">
        <ele>100.6</ele>
        <time>2013-12-18T08:53:38Z</time>
      </trkpt>
      <trkpt lat="48.86318" lon="2.92182">
        <ele>103.96</ele>
        <time>2013-12-18T08:53:54Z</time>
      </trkpt>
      <trkpt lat="48.86332" lon="2.92206">
        <ele>103.48</ele>
        <time>2013-12-18T08:54:12Z</time>
      </trkpt>
      <trkpt lat="48.86344" lon="2.92226">
        <ele>102.04</ele>
        <time>2013-12-18T08:54:27Z</time>
      </trkpt>
      <trkpt lat="48.86347" lon="2.92233">
        <ele>102.04</ele>
        <time>2013-12-18T08:54:38Z</time>
      </trkpt>
      <trkpt lat="48.8635" lon="2.9224">
        <ele>102.04</ele>
        <time>2013-12-18T08:54:42Z</time>
      </trkpt>
      <trkpt lat="48.86358" lon="2.92253">
        <ele>102.52</ele>
        <time>2013-12-18T08:54:56Z</time>
      </trkpt>
      <trkpt lat="48.86361" lon="2.92257">
        <ele>102.52</ele>
        <time>2013-12-18T08:55:03Z</time>
      </trkpt>
      <trkpt lat="48.86362" lon="2.92256">
        <ele>102.52</ele>
        <time>2013-12-18T08:55:06Z</time>
      </trkpt>
      <trkpt lat="48.86371" lon="2.92246">
        <ele>103.96</ele>
        <time>2013-12-18T08:55:17Z</time>
      </trkpt>
      <trkpt lat="48.8638" lon="2.92234">
        <ele>106.36</ele>
        <time>2013-12-18T08:55:30Z</time>
      </trkpt>
      <trkpt lat="48.86389" lon="2.9222">
        <ele>107.81</ele>
        <time>2013-12-18T08:55:42Z</time>
      </trkpt>
      <trkpt lat="48.864" lon="2.92205">
        <ele>108.77</ele>
        <time>2013-12-18T08:55:56Z</time>
      </trkpt>
      <trkpt lat="48.86411" lon="2.92188">
        <ele>110.21</ele>
        <time>2013-12-18T08:56:11Z</time>
      </trkpt>
      <trkpt lat="48.86424" lon="2.92169">
        <ele>111.65</ele>
        <time>2013-12-18T08:56:26Z</time>
      </trkpt>
      <trkpt lat="48.86433" lon="2.92155">
        <ele>112.13</ele>
        <time>2013-12-18T08:56:37Z</time>
      </trkpt>
      <trkpt lat="48.86442" lon="2.9214">
        <ele>113.57</ele>
        <time>2013-12-18T08:56:51Z</time>
      </trkpt>
      <trkpt lat="48.8645" lon="2.92126">
        <ele>113.57</ele>
        <time>2013-12-18T08:57:04Z</time>
      </trkpt>
      <trkpt lat="48.86458" lon="2.92112">
        <ele>113.57</ele>
        <time>2013-12-18T08:57:17Z</time>
      </trkpt>
      <trkpt lat="48.86469" lon="2.92097">
        <ele>115.98</ele>
        <time>2013-12-18T08:57:30Z</time>
      </trkpt>
      <trkpt lat="48.86476" lon="2.92084">
        <ele>117.42</ele>
        <time>2013-12-18T08:57:41Z</time>
      </trkpt>
      <trkpt lat="48.86485" lon="2.92069">
        <ele>118.86</ele>
        <time>2013-12-18T08:57:54Z</time>
      </trkpt>
      <trkpt lat="48.86495" lon="2.92052">
        <ele>120.3</ele>
        <time>2013-12-18T08:58:10Z</time>
      </trkpt>
      <trkpt lat="48.86498" lon="2.92051">
        <ele>120.78</ele>
        <time>2013-12-18T08:58:12Z</time>
      </trkpt>
      <trkpt lat="48.86509" lon="2.92029">
        <ele>124.15</ele>
        <time>2013-12-18T08:58:27Z</time>
      </trkpt>
      <trkpt lat="48.8652" lon="2.9201">
        <ele>126.07</ele>
        <time>2013-12-18T08:58:42Z</time>
      </trkpt>
      <trkpt lat="48.86534" lon="2.91987">
        <ele>126.55</ele>
        <time>2013-12-18T08:59:00Z</time>
      </trkpt>
      <trkpt lat="48.86549" lon="2.91964">
        <ele>125.59</ele>
        <time>2013-12-18T08:59:19Z</time>
      </trkpt>
      <trkpt lat="48.8656" lon="2.91947">
        <ele>125.11</ele>
        <time>2013-12-18T08:59:33Z</time>
      </trkpt>
      <trkpt lat="48.86562" lon="2.91945">
        <ele>125.59</ele>
        <time>2013-12-18T08:59:35Z</time>
      </trkpt>
      <trkpt lat="48.86571" lon="2.91928">
        <ele>128.47</ele>
        <time>2013-12-18T08:59:49Z</time>
      </trkpt>
      <trkpt lat="48.86582" lon="2.91908">
        <ele>129.43</ele>
        <time>2013-12-18T09:00:04Z</time>
      </trkpt>
      <trkpt lat="48.86593" lon="2.91893">
        <ele>128.47</ele>
        <time>2013-12-18T09:00:19Z</time>
      </trkpt>
      <trkpt lat="48.86598" lon="2.91881">
        <ele>129.43</ele>
        <time>2013-12-18T09:00:29Z</time>
      </trkpt>
      <trkpt lat="48.86614" lon="2.91863">
        <ele>130.88</ele>
        <time>2013-12-18T09:00:45Z</time>
      </trkpt>
      <trkpt lat="48.86627" lon="2.91855">
        <ele>129.92</ele>
        <time>2013-12-18T09:01:00Z</time>
      </trkpt>
      <trkpt lat="48.86631" lon="2.91854">
        <ele>129.43</ele>
        <time>2013-12-18T09:01:09Z</time>
      </trkpt>
      <trkpt lat="48.86651" lon="2.91845">
        <ele>129.43</ele>
        <time>2013-12-18T09:01:25Z</time>
      </trkpt>
      <trkpt lat="48.86659" lon="2.91839">
        <ele>129.92</ele>
        <time>2013-12-18T09:01:33Z</time>
      </trkpt>
      <trkpt lat="48.86662" lon="2.91835">
        <ele>130.88</ele>
        <time>2013-12-18T09:01:47Z</time>
      </trkpt>
      <trkpt lat="48.86663" lon="2.91834">
        <ele>130.88</ele>
        <time>2013-12-18T09:02:05Z</time>
      </trkpt>
      <trkpt lat="48.86663" lon="2.91835">
        <ele>130.88</ele>
        <time>2013-12-18T09:02:20Z</time>
      </trkpt>
      <trkpt lat="48.86674" lon="2.9183">
        <ele>130.4</ele>
        <time>2013-12-18T09:02:34Z</time>
      </trkpt>
      <trkpt lat="48.86682" lon="2.91827">
        <ele>128.47</ele>
        <time>2013-12-18T09:02:42Z</time>
      </trkpt>
      <trkpt lat="48.8671" lon="2.91813">
        <ele>130.88</ele>
        <time>2013-12-18T09:02:59Z</time>
      </trkpt>
      <trkpt lat="48.86725" lon="2.91805">
        <ele>134.72</ele>
        <time>2013-12-18T09:03:10Z</time>
      </trkpt>
      <trkpt lat="48.86728" lon="2.91806">
        <ele>135.68</ele>
        <time>2013-12-18T09:03:16Z</time>
      </trkpt>
      <trkpt lat="48.86748" lon="2.91792">
        <ele>137.13</ele>
        <time>2013-12-18T09:03:30Z</time>
      </trkpt>
      <trkpt lat="48.86755" lon="2.91787">
        <ele>139.53</ele>
        <time>2013-12-18T09:03:41Z</time>
      </trkpt>
      <trkpt lat="48.86761" lon="2.91783">
        <ele>138.57</ele>
        <time>2013-12-18T09:03:50Z</time>
      </trkpt>
      <trkpt lat="48.86771" lon="2.91769">
        <ele>137.13</ele>
        <time>2013-12-18T09:04:04Z</time>
      </trkpt>
      <trkpt lat="48.86786" lon="2.91753">
        <ele>135.68</ele>
        <time>2013-12-18T09:04:21Z</time>
      </trkpt>
      <trkpt lat="48.86806" lon="2.9173">
        <ele>133.28</ele>
        <time>2013-12-18T09:04:43Z</time>
      </trkpt>
      <trkpt lat="48.86826" lon="2.91708">
        <ele>132.8</ele>
        <time>2013-12-18T09:05:05Z</time>
      </trkpt>
      <trkpt lat="48.86849" lon="2.91682">
        <ele>133.28</ele>
        <time>2013-12-18T09:05:30Z</time>
      </trkpt>
      <trkpt lat="48.8685" lon="2.91682">
        <ele>133.28</ele>
        <time>2013-12-18T09:05:31Z</time>
      </trkpt>
      <trkpt lat="48.86874" lon="2.9167">
        <ele>134.72</ele>
        <time>2013-12-18T09:05:53Z</time>
      </trkpt>
      <trkpt lat="48.86875" lon="2.91664">
        <ele>134.24</ele>
        <time>2013-12-18T09:05:57Z</time>
      </trkpt>
      <trkpt lat="48.86876" lon="2.91652">
        <ele>133.28</ele>
        <time>2013-12-18T09:06:11Z</time>
      </trkpt>
      <trkpt lat="48.86884" lon="2.91613">
        <ele>133.28</ele>
        <time>2013-12-18T09:06:32Z</time>
      </trkpt>
      <trkpt lat="48.86885" lon="2.916">
        <ele>133.28</ele>
        <time>2013-12-18T09:06:37Z</time>
      </trkpt>
      <trkpt lat="48.86893" lon="2.91566">
        <ele>136.16</ele>
        <time>2013-12-18T09:06:55Z</time>
      </trkpt>
      <trkpt lat="48.869" lon="2.91543">
        <ele>130.4</ele>
        <time>2013-12-18T09:07:12Z</time>
      </trkpt>
      <trkpt lat="48.8691" lon="2.91508">
        <ele>132.8</ele>
        <time>2013-12-18T09:07:30Z</time>
      </trkpt>
      <trkpt lat="48.86919" lon="2.91478">
        <ele>130.88</ele>
        <time>2013-12-18T09:07:47Z</time>
      </trkpt>
      <trkpt lat="48.8693" lon="2.91445">
        <ele>131.36</ele>
        <time>2013-12-18T09:08:06Z</time>
      </trkpt>
      <trkpt lat="48.86936" lon="2.91416">
        <ele>129.92</ele>
        <time>2013-12-18T09:08:23Z</time>
      </trkpt>
      <trkpt lat="48.86943" lon="2.91388">
        <ele>128.47</ele>
        <time>2013-12-18T09:08:41Z</time>
      </trkpt>
      <trkpt lat="48.8695" lon="2.91357">
        <ele>127.99</ele>
        <time>2013-12-18T09:08:59Z</time>
      </trkpt>
      <trkpt lat="48.86957" lon="2.91319">
        <ele>128.47</ele>
        <time>2013-12-18T09:09:20Z</time>
      </trkpt>
      <trkpt lat="48.86966" lon="2.91284">
        <ele>125.59</ele>
        <time>2013-12-18T09:09:41Z</time>
      </trkpt>
      <trkpt lat="48.86973" lon="2.9125">
        <ele>126.07</ele>
        <time>2013-12-18T09:10:00Z</time>
      </trkpt>
      <trkpt lat="48.86979" lon="2.91216">
        <ele>127.51</ele>
        <time>2013-12-18T09:10:18Z</time>
      </trkpt>
      <trkpt lat="48.86984" lon="2.91186">
        <ele>125.59</ele>
        <time>2013-12-18T09:10:36Z</time>
      </trkpt>
      <trkpt lat="48.8699" lon="2.91156">
        <ele>124.63</ele>
        <time>2013-12-18T09:10:54Z</time>
      </trkpt>
      <trkpt lat="48.86997" lon="2.91126">
        <ele>123.67</ele>
        <time>2013-12-18T09:11:11Z</time>
      </trkpt>
      <trkpt lat="48.86998" lon="2.91119">
        <ele>123.19</ele>
        <time>2013-12-18T09:11:15Z</time>
      </trkpt>
      <trkpt lat="48.87003" lon="2.9109">
        <ele>123.19</ele>
        <time>2013-12-18T09:11:32Z</time>
      </trkpt>
      <trkpt lat="48.87008" lon="2.91066">
        <ele>122.71</ele>
        <time>2013-12-18T09:11:48Z</time>
      </trkpt>
      <trkpt lat="48.87015" lon="2.91039">
        <ele>122.71</ele>
        <time>2013-12-18T09:12:05Z</time>
      </trkpt>
      <trkpt lat="48.87023" lon="2.91008">
        <ele>122.71</ele>
        <time>2013-12-18T09:12:25Z</time>
      </trkpt>
      <trkpt lat="48.87031" lon="2.9097">
        <ele>123.19</ele>
        <time>2013-12-18T09:12:47Z</time>
      </trkpt>
      <trkpt lat="48.87038" lon="2.90943">
        <ele>125.11</ele>
        <time>2013-12-18T09:13:02Z</time>
      </trkpt>
      <trkpt lat="48.87051" lon="2.90919">
        <ele>120.78</ele>
        <time>2013-12-18T09:13:18Z</time>
      </trkpt>
      <trkpt lat="48.87061" lon="2.909">
        <ele>117.42</ele>
        <time>2013-12-18T09:13:33Z</time>
      </trkpt>
      <trkpt lat="48.87068" lon="2.90889">
        <ele>117.9</ele>
        <time>2013-12-18T09:13:41Z</time>
      </trkpt>
      <trkpt lat="48.87071" lon="2.90884">
        <ele>117.42</ele>
        <time>2013-12-18T09:13:45Z</time>
      </trkpt>
      <trkpt lat="48.87082" lon="2.90866">
        <ele>116.46</ele>
        <time>2013-12-18T09:14:01Z</time>
      </trkpt>
      <trkpt lat="48.87082" lon="2.90865">
        <ele>116.46</ele>
        <time>2013-12-18T09:14:02Z</time>
      </trkpt>
      <trkpt lat="48.87086" lon="2.90851">
        <ele>116.94</ele>
        <time>2013-12-18T09:14:18Z</time>
      </trkpt>
      <trkpt lat="48.87085" lon="2.90851">
        <ele>117.42</ele>
        <time>2013-12-18T09:14:31Z</time>
      </trkpt>
      <trkpt lat="48.87078" lon="2.90849">
        <ele>115.98</ele>
        <time>2013-12-18T09:14:42Z</time>
      </trkpt>
      <trkpt lat="48.87068" lon="2.90849">
        <ele>116.94</ele>
        <time>2013-12-18T09:14:55Z</time>
      </trkpt>
      <trkpt lat="48.87065" lon="2.90849">
        <ele>117.42</ele>
        <time>2013-12-18T09:15:00Z</time>
      </trkpt>
      <trkpt lat="48.87054" lon="2.90849">
        <ele>117.9</ele>
        <time>2013-12-18T09:15:13Z</time>
      </trkpt>
      <trkpt lat="48.87041" lon="2.90848">
        <ele>119.34</ele>
        <time>2013-12-18T09:15:27Z</time>
      </trkpt>
      <trkpt lat="48.87028" lon="2.90848">
        <ele>119.82</ele>
        <time>2013-12-18T09:15:41Z</time>
      </trkpt>
      <trkpt lat="48.87023" lon="2.90844">
        <ele>120.3</ele>
        <time>2013-12-18T09:15:48Z</time>
      </trkpt>
      <trkpt lat="48.87021" lon="2.90843">
        <ele>119.82</ele>
        <time>2013-12-18T09:15:50Z</time>
      </trkpt>
      <trkpt lat="48.87017" lon="2.90832">
        <ele>121.26</ele>
        <time>2013-12-18T09:16:01Z</time>
      </trkpt>
      <trkpt lat="48.87016" lon="2.90825">
        <ele>121.26</ele>
        <time>2013-12-18T09:16:06Z</time>
      </trkpt>
      <trkpt lat="48.87016" lon="2.90822">
        <ele>121.74</ele>
        <time>2013-12-18T09:16:08Z</time>
      </trkpt>
      <trkpt lat="48.87016" lon="2.90799">
        <ele>123.19</ele>
        <time>2013-12-18T09:16:23Z</time>
      </trkpt>
      <trkpt lat="48.87018" lon="2.90769">
        <ele>123.67</ele>
        <time>2013-12-18T09:16:40Z</time>
      </trkpt>
      <trkpt lat="48.87018" lon="2.90741">
        <ele>123.19</ele>
        <time>2013-12-18T09:16:55Z</time>
      </trkpt>
      <trkpt lat="48.87021" lon="2.90705">
        <ele>121.74</ele>
        <time>2013-12-18T09:17:15Z</time>
      </trkpt>
      <trkpt lat="48.87022" lon="2.9067">
        <ele>121.26</ele>
        <time>2013-12-18T09:17:35Z</time>
      </trkpt>
      <trkpt lat="48.87023" lon="2.9064">
        <ele>120.78</ele>
        <time>2013-12-18T09:17:53Z</time>
      </trkpt>
      <trkpt lat="48.87028" lon="2.90607">
        <ele>120.3</ele>
        <time>2013-12-18T09:18:11Z</time>
      </trkpt>
      <trkpt lat="48.8703" lon="2.90576">
        <ele>120.3</ele>
        <time>2013-12-18T09:18:29Z</time>
      </trkpt>
      <trkpt lat="48.87034" lon="2.90544">
        <ele>119.82</ele>
        <time>2013-12-18T09:18:47Z</time>
      </trkpt>
      <trkpt lat="48.87036" lon="2.90525">
        <ele>121.26</ele>
        <time>2013-12-18T09:19:01Z</time>
      </trkpt>
      <trkpt lat="48.87035" lon="2.90522">
        <ele>121.74</ele>
        <time>2013-12-18T09:19:04Z</time>
      </trkpt>
      <trkpt lat="48.87035" lon="2.90519">
        <ele>121.74</ele>
        <time>2013-12-18T09:19:07Z</time>
      </trkpt>
      <trkpt lat="48.87038" lon="2.90504">
        <ele>120.78</ele>
        <time>2013-12-18T09:19:17Z</time>
      </trkpt>
      <trkpt lat="48.87038" lon="2.90483">
        <ele>120.3</ele>
        <time>2013-12-18T09:19:30Z</time>
      </trkpt>
      <trkpt lat="48.87037" lon="2.90471">
        <ele>121.74</ele>
        <time>2013-12-18T09:19:36Z</time>
      </trkpt>
      <trkpt lat="48.87041" lon="2.90445">
        <ele>121.26</ele>
        <time>2013-12-18T09:19:52Z</time>
      </trkpt>
      <trkpt lat="48.87047" lon="2.90419">
        <ele>121.26</ele>
        <time>2013-12-18T09:20:07Z</time>
      </trkpt>
      <trkpt lat="48.87053" lon="2.90393">
        <ele>121.26</ele>
        <time>2013-12-18T09:20:22Z</time>
      </trkpt>
      <trkpt lat="48.87058" lon="2.90372">
        <ele>118.86</ele>
        <time>2013-12-18T09:20:36Z</time>
      </trkpt>
      <trkpt lat="48.87059" lon="2.90358">
        <ele>119.82</ele>
        <time>2013-12-18T09:20:45Z</time>
      </trkpt>
      <trkpt lat="48.87065" lon="2.90331">
        <ele>120.3</ele>
        <time>2013-12-18T09:21:01Z</time>
      </trkpt>
      <trkpt lat="48.87065" lon="2.9033">
        <ele>120.3</ele>
        <time>2013-12-18T09:21:02Z</time>
      </trkpt>
      <trkpt lat="48.87067" lon="2.90326">
        <ele>120.3</ele>
        <time>2013-12-18T09:21:05Z</time>
      </trkpt>
      <trkpt lat="48.87071" lon="2.90311">
        <ele>119.34</ele>
        <time>2013-12-18T09:21:16Z</time>
      </trkpt>
      <trkpt lat="48.87081" lon="2.90306">
        <ele>118.86</ele>
        <time>2013-12-18T09:21:27Z</time>
      </trkpt>
      <trkpt lat="48.87086" lon="2.90301">
        <ele>118.86</ele>
        <time>2013-12-18T09:21:33Z</time>
      </trkpt>
      <trkpt lat="48.87091" lon="2.90296">
        <ele>118.38</ele>
        <time>2013-12-18T09:21:38Z</time>
      </trkpt>
      <trkpt lat="48.87093" lon="2.90287">
        <ele>119.34</ele>
        <time>2013-12-18T09:21:45Z</time>
      </trkpt>
      <trkpt lat="48.87095" lon="2.90263">
        <ele>121.26</ele>
        <time>2013-12-18T09:22:00Z</time>
      </trkpt>
      <trkpt lat="48.87097" lon="2.90235">
        <ele>119.82</ele>
        <time>2013-12-18T09:22:18Z</time>
      </trkpt>
      <trkpt lat="48.87099" lon="2.90209">
        <ele>119.82</ele>
        <time>2013-12-18T09:22:32Z</time>
      </trkpt>
      <trkpt lat="48.871" lon="2.90192">
        <ele>119.82</ele>
        <time>2013-12-18T09:22:43Z</time>
      </trkpt>
      <trkpt lat="48.87101" lon="2.90161">
        <ele>119.82</ele>
        <time>2013-12-18T09:23:01Z</time>
      </trkpt>
      <trkpt lat="48.87102" lon="2.90134">
        <ele>120.3</ele>
        <time>2013-12-18T09:23:18Z</time>
      </trkpt>
      <trkpt lat="48.87101" lon="2.90127">
        <ele>120.3</ele>
        <time>2013-12-18T09:23:22Z</time>
      </trkpt>
      <trkpt lat="48.87103" lon="2.90097">
        <ele>120.78</ele>
        <time>2013-12-18T09:23:39Z</time>
      </trkpt>
      <trkpt lat="48.87103" lon="2.90068">
        <ele>122.22</ele>
        <time>2013-12-18T09:23:56Z</time>
      </trkpt>
      <trkpt lat="48.87102" lon="2.90039">
        <ele>121.74</ele>
        <time>2013-12-18T09:24:13Z</time>
      </trkpt>
      <trkpt lat="48.87103" lon="2.90013">
        <ele>122.22</ele>
        <time>2013-12-18T09:24:29Z</time>
      </trkpt>
      <trkpt lat="48.87102" lon="2.89988">
        <ele>123.19</ele>
        <time>2013-12-18T09:24:44Z</time>
      </trkpt>
      <trkpt lat="48.87102" lon="2.8996">
        <ele>122.71</ele>
        <time>2013-12-18T09:25:01Z</time>
      </trkpt>
      <trkpt lat="48.871" lon="2.8993">
        <ele>121.26</ele>
        <time>2013-12-18T09:25:19Z</time>
      </trkpt>
      <trkpt lat="48.87097" lon="2.89905">
        <ele>122.22</ele>
        <time>2013-12-18T09:25:34Z</time>
      </trkpt>
      <trkpt lat="48.87092" lon="2.89877">
        <ele>121.26</ele>
        <time>2013-12-18T09:25:51Z</time>
      </trkpt>
      <trkpt lat="48.87086" lon="2.89851">
        <ele>120.78</ele>
        <time>2013-12-18T09:26:08Z</time>
      </trkpt>
      <trkpt lat="48.87081" lon="2.89825">
        <ele>120.78</ele>
        <time>2013-12-18T09:26:25Z</time>
      </trkpt>
      <trkpt lat="48.87077" lon="2.89798">
        <ele>120.3</ele>
        <time>2013-12-18T09:26:42Z</time>
      </trkpt>
      <trkpt lat="48.87072" lon="2.89766">
        <ele>119.82</ele>
        <time>2013-12-18T09:27:00Z</time>
      </trkpt>
      <trkpt lat="48.87069" lon="2.89734">
        <ele>118.86</ele>
        <time>2013-12-18T09:27:19Z</time>
      </trkpt>
      <trkpt lat="48.87067" lon="2.89704">
        <ele>116.94</ele>
        <time>2013-12-18T09:27:37Z</time>
      </trkpt>
      <trkpt lat="48.87067" lon="2.89701">
        <ele>116.94</ele>
        <time>2013-12-18T09:27:39Z</time>
      </trkpt>
      <trkpt lat="48.87067" lon="2.89667">
        <ele>117.42</ele>
        <time>2013-12-18T09:28:00Z</time>
      </trkpt>
      <trkpt lat="48.87067" lon="2.89656">
        <ele>116.46</ele>
        <time>2013-12-18T09:28:06Z</time>
      </trkpt>
      <trkpt lat="48.87068" lon="2.89629">
        <ele>116.46</ele>
        <time>2013-12-18T09:28:23Z</time>
      </trkpt>
      <trkpt lat="48.87068" lon="2.89606">
        <ele>115.98</ele>
        <time>2013-12-18T09:28:39Z</time>
      </trkpt>
      <trkpt lat="48.87068" lon="2.89592">
        <ele>115.5</ele>
        <time>2013-12-18T09:28:48Z</time>
      </trkpt>
      <trkpt lat="48.87069" lon="2.89587">
        <ele>115.01</ele>
        <time>2013-12-18T09:28:51Z</time>
      </trkpt>
      <trkpt lat="48.87067" lon="2.89559">
        <ele>115.01</ele>
        <time>2013-12-18T09:29:08Z</time>
      </trkpt>
      <trkpt lat="48.87064" lon="2.89536">
        <ele>114.53</ele>
        <time>2013-12-18T09:29:22Z</time>
      </trkpt>
      <trkpt lat="48.87064" lon="2.89513">
        <ele>114.05</ele>
        <time>2013-12-18T09:29:37Z</time>
      </trkpt>
      <trkpt lat="48.87061" lon="2.89495">
        <ele>112.61</ele>
        <time>2013-12-18T09:29:48Z</time>
      </trkpt>
      <trkpt lat="48.8706" lon="2.89472">
        <ele>109.73</ele>
        <time>2013-12-18T09:30:04Z</time>
      </trkpt>
      <trkpt lat="48.87059" lon="2.89465">
        <ele>109.25</ele>
        <time>2013-12-18T09:30:09Z</time>
      </trkpt>
      <trkpt lat="48.87055" lon="2.89437">
        <ele>109.25</ele>
        <time>2013-12-18T09:30:25Z</time>
      </trkpt>
      <trkpt lat="48.87052" lon="2.89421">
        <ele>108.29</ele>
        <time>2013-12-18T09:30:35Z</time>
      </trkpt>
      <trkpt lat="48.87048" lon="2.894">
        <ele>106.84</ele>
        <time>2013-12-18T09:30:49Z</time>
      </trkpt>
      <trkpt lat="48.87044" lon="2.89375">
        <ele>109.73</ele>
        <time>2013-12-18T09:31:03Z</time>
      </trkpt>
      <trkpt lat="48.87042" lon="2.89363">
        <ele>110.21</ele>
        <time>2013-12-18T09:31:11Z</time>
      </trkpt>
      <trkpt lat="48.8704" lon="2.89353">
        <ele>110.21</ele>
        <time>2013-12-18T09:31:17Z</time>
      </trkpt>
      <trkpt lat="48.87036" lon="2.89329">
        <ele>109.73</ele>
        <time>2013-12-18T09:31:33Z</time>
      </trkpt>
      <trkpt lat="48.87032" lon="2.89306">
        <ele>108.77</ele>
        <time>2013-12-18T09:31:48Z</time>
      </trkpt>
      <trkpt lat="48.87029" lon="2.89287">
        <ele>108.77</ele>
        <time>2013-12-18T09:32:01Z</time>
      </trkpt>
      <trkpt lat="48.87023" lon="2.8926">
        <ele>108.29</ele>
        <time>2013-12-18T09:32:19Z</time>
      </trkpt>
      <trkpt lat="48.8702" lon="2.89237">
        <ele>107.81</ele>
        <time>2013-12-18T09:32:36Z</time>
      </trkpt>
      <trkpt lat="48.87013" lon="2.8921">
        <ele>107.81</ele>
        <time>2013-12-18T09:32:54Z</time>
      </trkpt>
      <trkpt lat="48.87008" lon="2.89185">
        <ele>106.84</ele>
        <time>2013-12-18T09:33:10Z</time>
      </trkpt>
      <trkpt lat="48.87002" lon="2.89168">
        <ele>106.36</ele>
        <time>2013-12-18T09:33:22Z</time>
      </trkpt>
      <trkpt lat="48.86992" lon="2.89141">
        <ele>107.81</ele>
        <time>2013-12-18T09:33:40Z</time>
      </trkpt>
      <trkpt lat="48.8698" lon="2.89114">
        <ele>108.77</ele>
        <time>2013-12-18T09:33:59Z</time>
      </trkpt>
      <trkpt lat="48.86965" lon="2.89089">
        <ele>108.77</ele>
        <time>2013-12-18T09:34:19Z</time>
      </trkpt>
      <trkpt lat="48.86951" lon="2.89072">
        <ele>109.25</ele>
        <time>2013-12-18T09:34:35Z</time>
      </trkpt>
      <trkpt lat="48.86938" lon="2.89056">
        <ele>108.77</ele>
        <time>2013-12-18T09:34:51Z</time>
      </trkpt>
      <trkpt lat="48.86924" lon="2.89043">
        <ele>109.73</ele>
        <time>2013-12-18T09:35:06Z</time>
      </trkpt>
      <trkpt lat="48.8691" lon="2.8903">
        <ele>110.69</ele>
        <time>2013-12-18T09:35:22Z</time>
      </trkpt>
      <trkpt lat="48.86896" lon="2.89015">
        <ele>111.65</ele>
        <time>2013-12-18T09:35:37Z</time>
      </trkpt>
      <trkpt lat="48.86889" lon="2.89008">
        <ele>111.17</ele>
        <time>2013-12-18T09:35:44Z</time>
      </trkpt>
      <trkpt lat="48.86873" lon="2.88992">
        <ele>109.73</ele>
        <time>2013-12-18T09:36:02Z</time>
      </trkpt>
      <trkpt lat="48.86859" lon="2.88987">
        <ele>109.25</ele>
        <time>2013-12-18T09:36:17Z</time>
      </trkpt>
      <trkpt lat="48.86844" lon="2.88979">
        <ele>107.32</ele>
        <time>2013-12-18T09:36:32Z</time>
      </trkpt>
      <trkpt lat="48.86828" lon="2.88974">
        <ele>105.4</ele>
        <time>2013-12-18T09:36:47Z</time>
      </trkpt>
      <trkpt lat="48.86811" lon="2.88967">
        <ele>105.4</ele>
        <time>2013-12-18T09:37:02Z</time>
      </trkpt>
      <trkpt lat="48.86793" lon="2.88957">
        <ele>105.88</ele>
        <time>2013-12-18T09:37:19Z</time>
      </trkpt>
      <trkpt lat="48.86784" lon="2.88953">
        <ele>104.92</ele>
        <time>2013-12-18T09:37:27Z</time>
      </trkpt>
      <trkpt lat="48.86768" lon="2.88946">
        <ele>103.48</ele>
        <time>2013-12-18T09:37:42Z</time>
      </trkpt>
      <trkpt lat="48.86753" lon="2.88938">
        <ele>103.96</ele>
        <time>2013-12-18T09:37:57Z</time>
      </trkpt>
      <trkpt lat="48.86736" lon="2.8893">
        <ele>103</ele>
        <time>2013-12-18T09:38:13Z</time>
      </trkpt>
      <trkpt lat="48.86716" lon="2.8892">
        <ele>100.6</ele>
        <time>2013-12-18T09:38:30Z</time>
      </trkpt>
      <trkpt lat="48.867" lon="2.88911">
        <ele>102.04</ele>
        <time>2013-12-18T09:38:45Z</time>
      </trkpt>
      <trkpt lat="48.86685" lon="2.88903">
        <ele>102.04</ele>
        <time>2013-12-18T09:38:59Z</time>
      </trkpt>
      <trkpt lat="48.86685" lon="2.88902">
        <ele>102.52</ele>
        <time>2013-12-18T09:39:00Z</time>
      </trkpt>
      <trkpt lat="48.86663" lon="2.88891">
        <ele>104.92</ele>
        <time>2013-12-18T09:39:18Z</time>
      </trkpt>
      <trkpt lat="48.86643" lon="2.8888">
        <ele>104.44</ele>
        <time>2013-12-18T09:39:37Z</time>
      </trkpt>
      <trkpt lat="48.86625" lon="2.88869">
        <ele>103.96</ele>
        <time>2013-12-18T09:39:54Z</time>
      </trkpt>
      <trkpt lat="48.86607" lon="2.88861">
        <ele>103.96</ele>
        <time>2013-12-18T09:40:11Z</time>
      </trkpt>
      <trkpt lat="48.86605" lon="2.8886">
        <ele>103.48</ele>
        <time>2013-12-18T09:40:13Z</time>
      </trkpt>
      <trkpt lat="48.866" lon="2.88856">
        <ele>103</ele>
        <time>2013-12-18T09:40:18Z</time>
      </trkpt>
      <trkpt lat="48.86578" lon="2.88847">
        <ele>101.08</ele>
        <time>2013-12-18T09:40:37Z</time>
      </trkpt>
      <trkpt lat="48.86559" lon="2.88832">
        <ele>98.67</ele>
        <time>2013-12-18T09:40:55Z</time>
      </trkpt>
      <trkpt lat="48.86541" lon="2.88822">
        <ele>97.23</ele>
        <time>2013-12-18T09:41:11Z</time>
      </trkpt>
      <trkpt lat="48.86524" lon="2.88811">
        <ele>93.87</ele>
        <time>2013-12-18T09:41:27Z</time>
      </trkpt>
      <trkpt lat="48.86507" lon="2.88799">
        <ele>90.98</ele>
        <time>2013-12-18T09:41:41Z</time>
      </trkpt>
      <trkpt lat="48.86487" lon="2.8879">
        <ele>89.06</ele>
        <time>2013-12-18T09:41:56Z</time>
      </trkpt>
      <trkpt lat="48.86469" lon="2.88778">
        <ele>87.14</ele>
        <time>2013-12-18T09:42:11Z</time>
      </trkpt>
      <trkpt lat="48.86453" lon="2.88769">
        <ele>86.18</ele>
        <time>2013-12-18T09:42:25Z</time>
      </trkpt>
      <trkpt lat="48.86445" lon="2.88764">
        <ele>84.73</ele>
        <time>2013-12-18T09:42:31Z</time>
      </trkpt>
      <trkpt lat="48.86443" lon="2.88758">
        <ele>85.69</ele>
        <time>2013-12-18T09:42:35Z</time>
      </trkpt>
      <trkpt lat="48.86445" lon="2.88728">
        <ele>85.69</ele>
        <time>2013-12-18T09:42:52Z</time>
      </trkpt>
      <trkpt lat="48.86449" lon="2.88709">
        <ele>84.73</ele>
        <time>2013-12-18T09:43:04Z</time>
      </trkpt>
      <trkpt lat="48.86456" lon="2.88688">
        <ele>85.69</ele>
        <time>2013-12-18T09:43:19Z</time>
      </trkpt>
      <trkpt lat="48.86456" lon="2.88681">
        <ele>86.66</ele>
        <time>2013-12-18T09:43:31Z</time>
      </trkpt>
      <trkpt lat="48.86454" lon="2.88676">
        <ele>87.62</ele>
        <time>2013-12-18T09:43:43Z</time>
      </trkpt>
      <trkpt lat="48.86454" lon="2.88675">
        <ele>89.06</ele>
        <time>2013-12-18T09:44:03Z</time>
      </trkpt>
      <trkpt lat="48.86454" lon="2.88675">
        <ele>89.54</ele>
        <time>2013-12-18T09:44:18Z</time>
      </trkpt>
      <trkpt lat="48.86455" lon="2.88672">
        <ele>89.06</ele>
        <time>2013-12-18T09:44:34Z</time>
      </trkpt>
      <trkpt lat="48.86455" lon="2.88671">
        <ele>89.54</ele>
        <time>2013-12-18T09:44:47Z</time>
      </trkpt>
      <trkpt lat="48.86455" lon="2.8867">
        <ele>89.54</ele>
        <time>2013-12-18T09:45:02Z</time>
      </trkpt>
      <trkpt lat="48.86455" lon="2.8867">
        <ele>90.02</ele>
        <time>2013-12-18T09:45:18Z</time>
      </trkpt>
      <trkpt lat="48.86455" lon="2.88669">
        <ele>90.02</ele>
        <time>2013-12-18T09:45:33Z</time>
      </trkpt>
      <trkpt lat="48.86455" lon="2.8867">
        <ele>90.02</ele>
        <time>2013-12-18T09:45:49Z</time>
      </trkpt>
      <trkpt lat="48.86455" lon="2.88669">
        <ele>90.02</ele>
        <time>2013-12-18T09:46:06Z</time>
      </trkpt>
      <trkpt lat="48.86455" lon="2.88669">
        <ele>89.54</ele>
        <time>2013-12-18T09:46:32Z</time>
      </trkpt>
      <trkpt lat="48.86454" lon="2.88669">
        <ele>89.06</ele>
        <time>2013-12-18T09:46:50Z</time>
      </trkpt>
      <trkpt lat="48.86455" lon="2.88669">
        <ele>88.58</ele>
        <time>2013-12-18T09:47:14Z</time>
      </trkpt>
      <trkpt lat="48.86454" lon="2.88669">
        <ele>89.06</ele>
        <time>2013-12-18T09:47:38Z</time>
      </trkpt>
      <trkpt lat="48.86455" lon="2.88669">
        <ele>88.58</ele>
        <time>2013-12-18T09:48:07Z</time>
      </trkpt>
      <trkpt lat="48.86455" lon="2.88669">
        <ele>88.58</ele>
        <time>2013-12-18T09:48:30Z</time>
      </trkpt>
      <trkpt lat="48.86455" lon="2.88669">
        <ele>88.58</ele>
        <time>2013-12-18T09:48:53Z</time>
      </trkpt>
      <trkpt lat="48.86455" lon="2.88668">
        <ele>88.58</ele>
        <time>2013-12-18T09:49:18Z</time>
      </trkpt>
      <trkpt lat="48.86455" lon="2.88669">
        <ele>89.06</ele>
        <time>2013-12-18T09:49:48Z</time>
      </trkpt>
      <trkpt lat="48.86455" lon="2.88669">
        <ele>89.54</ele>
        <time>2013-12-18T09:50:19Z</time>
      </trkpt>
      <trkpt lat="48.86455" lon="2.88671">
        <ele>89.06</ele>
        <time>2013-12-18T09:50:40Z</time>
      </trkpt>
      <trkpt lat="48.86455" lon="2.8867">
        <ele>89.06</ele>
        <time>2013-12-18T09:51:00Z</time>
      </trkpt>
      <trkpt lat="48.86456" lon="2.88671">
        <ele>89.06</ele>
        <time>2013-12-18T09:51:22Z</time>
      </trkpt>
      <trkpt lat="48.86456" lon="2.88671">
        <ele>88.58</ele>
        <time>2013-12-18T09:51:46Z</time>
      </trkpt>
      <trkpt lat="48.86457" lon="2.88669">
        <ele>89.06</ele>
        <time>2013-12-18T09:52:11Z</time>
      </trkpt>
      <trkpt lat="48.86457" lon="2.88668">
        <ele>88.58</ele>
        <time>2013-12-18T09:52:31Z</time>
      </trkpt>
      <trkpt lat="48.86456" lon="2.88668">
        <ele>89.06</ele>
        <time>2013-12-18T09:52:42Z</time>
      </trkpt>
      <trkpt lat="48.86457" lon="2.88668">
        <ele>89.54</ele>
        <time>2013-12-18T09:53:09Z</time>
      </trkpt>
      <trkpt lat="48.86457" lon="2.88668">
        <ele>89.06</ele>
        <time>2013-12-18T09:53:32Z</time>
      </trkpt>
      <trkpt lat="48.86456" lon="2.88668">
        <ele>89.06</ele>
        <time>2013-12-18T09:53:58Z</time>
      </trkpt>
      <trkpt lat="48.86456" lon="2.88669">
        <ele>89.06</ele>
        <time>2013-12-18T09:54:18Z</time>
      </trkpt>
      <trkpt lat="48.86456" lon="2.88668">
        <ele>89.54</ele>
        <time>2013-12-18T09:54:29Z</time>
      </trkpt>
      <trkpt lat="48.86456" lon="2.88668">
        <ele>89.54</ele>
        <time>2013-12-18T09:54:58Z</time>
      </trkpt>
      <trkpt lat="48.86455" lon="2.88668">
        <ele>89.54</ele>
        <time>2013-12-18T09:55:26Z</time>
      </trkpt>
      <trkpt lat="48.86455" lon="2.88669">
        <ele>89.54</ele>
        <time>2013-12-18T09:55:39Z</time>
      </trkpt>
      <trkpt lat="48.86457" lon="2.88671">
        <ele>90.02</ele>
        <time>2013-12-18T09:55:55Z</time>
      </trkpt>
      <trkpt lat="48.8645" lon="2.88667">
        <ele>90.98</ele>
        <time>2013-12-18T09:56:08Z</time>
      </trkpt>
      <trkpt lat="48.8644" lon="2.88649">
        <ele>88.58</ele>
        <time>2013-12-18T09:56:27Z</time>
      </trkpt>
      <trkpt lat="48.86425" lon="2.88642">
        <ele>84.73</ele>
        <time>2013-12-18T09:56:45Z</time>
      </trkpt>
      <trkpt lat="48.86417" lon="2.88634">
        <ele>81.85</ele>
        <time>2013-12-18T09:56:54Z</time>
      </trkpt>
      <trkpt lat="48.86397" lon="2.88622">
        <ele>76.08</ele>
        <time>2013-12-18T09:57:15Z</time>
      </trkpt>
      <trkpt lat="48.86398" lon="2.8862">
        <ele>76.08</ele>
        <time>2013-12-18T09:57:28Z</time>
      </trkpt>
      <trkpt lat="48.8639" lon="2.88617">
        <ele>75.12</ele>
        <time>2013-12-18T09:57:47Z</time>
      </trkpt>
      <trkpt lat="48.86377" lon="2.88607">
        <ele>72.72</ele>
        <time>2013-12-18T09:58:06Z</time>
      </trkpt>
      <trkpt lat="48.8636" lon="2.88592">
        <ele>67.91</ele>
        <time>2013-12-18T09:58:27Z</time>
      </trkpt>
      <trkpt lat="48.86347" lon="2.88578">
        <ele>63.58</ele>
        <time>2013-12-18T09:58:43Z</time>
      </trkpt>
      <trkpt lat="48.86331" lon="2.88557">
        <ele>58.3</ele>
        <time>2013-12-18T09:59:02Z</time>
      </trkpt>
      <trkpt lat="48.86318" lon="2.88543">
        <ele>54.93</ele>
        <time>2013-12-18T09:59:18Z</time>
      </trkpt>
      <trkpt lat="48.86316" lon="2.88539">
        <ele>54.93</ele>
        <time>2013-12-18T09:59:21Z</time>
      </trkpt>
      <trkpt lat="48.86311" lon="2.88518">
        <ele>48.2</ele>
        <time>2013-12-18T09:59:36Z</time>
      </trkpt>
      <trkpt lat="48.8631" lon="2.88509">
        <ele>46.76</ele>
        <time>2013-12-18T09:59:49Z</time>
      </trkpt>
      <trkpt lat="48.8631" lon="2.88504">
        <ele>46.28</ele>
        <time>2013-12-18T10:00:02Z</time>
      </trkpt>
      <trkpt lat="48.86309" lon="2.88481">
        <ele>41.47</ele>
        <time>2013-12-18T10:00:17Z</time>
      </trkpt>
      <trkpt lat="48.86311" lon="2.8847">
        <ele>40.99</ele>
        <time>2013-12-18T10:00:24Z</time>
      </trkpt>
      <trkpt lat="48.86316" lon="2.88445">
        <ele>42.44</ele>
        <time>2013-12-18T10:00:41Z</time>
      </trkpt>
      <trkpt lat="48.86317" lon="2.88443">
        <ele>42.44</ele>
        <time>2013-12-18T10:00:42Z</time>
      </trkpt>
      <trkpt lat="48.86322" lon="2.88426">
        <ele>44.36</ele>
        <time>2013-12-18T10:00:55Z</time>
      </trkpt>
      <trkpt lat="48.86326" lon="2.88406">
        <ele>44.84</ele>
        <time>2013-12-18T10:01:10Z</time>
      </trkpt>
      <trkpt lat="48.86326" lon="2.88405">
        <ele>44.84</ele>
        <time>2013-12-18T10:01:11Z</time>
      </trkpt>
      <trkpt lat="48.86333" lon="2.88387">
        <ele>45.8</ele>
        <time>2013-12-18T10:01:26Z</time>
      </trkpt>
      <trkpt lat="48.86333" lon="2.88385">
        <ele>45.8</ele>
        <time>2013-12-18T10:01:30Z</time>
      </trkpt>
      <trkpt lat="48.8632" lon="2.88371">
        <ele>46.76</ele>
        <time>2013-12-18T10:01:41Z</time>
      </trkpt>
      <trkpt lat="48.86319" lon="2.88362">
        <ele>45.8</ele>
        <time>2013-12-18T10:01:47Z</time>
      </trkpt>
      <trkpt lat="48.86307" lon="2.88353">
        <ele>44.36</ele>
        <time>2013-12-18T10:02:05Z</time>
      </trkpt>
      <trkpt lat="48.86302" lon="2.88344">
        <ele>44.36</ele>
        <time>2013-12-18T10:02:23Z</time>
      </trkpt>
      <trkpt lat="48.86289" lon="2.8833">
        <ele>42.92</ele>
        <time>2013-12-18T10:02:38Z</time>
      </trkpt>
      <trkpt lat="48.86274" lon="2.88319">
        <ele>44.36</ele>
        <time>2013-12-18T10:02:52Z</time>
      </trkpt>
      <trkpt lat="48.86265" lon="2.88311">
        <ele>45.32</ele>
        <time>2013-12-18T10:03:08Z</time>
      </trkpt>
      <trkpt lat="48.86255" lon="2.88299">
        <ele>45.32</ele>
        <time>2013-12-18T10:03:21Z</time>
      </trkpt>
      <trkpt lat="48.86249" lon="2.88293">
        <ele>45.8</ele>
        <time>2013-12-18T10:03:35Z</time>
      </trkpt>
      <trkpt lat="48.86241" lon="2.88285">
        <ele>45.8</ele>
        <time>2013-12-18T10:03:51Z</time>
      </trkpt>
      <trkpt lat="48.86228" lon="2.8827">
        <ele>42.92</ele>
        <time>2013-12-18T10:04:06Z</time>
      </trkpt>
      <trkpt lat="48.86211" lon="2.8825">
        <ele>42.44</ele>
        <time>2013-12-18T10:04:24Z</time>
      </trkpt>
      <trkpt lat="48.86195" lon="2.88232">
        <ele>42.44</ele>
        <time>2013-12-18T10:04:40Z</time>
      </trkpt>
      <trkpt lat="48.86191" lon="2.88227">
        <ele>41.47</ele>
        <time>2013-12-18T10:04:45Z</time>
      </trkpt>
      <trkpt lat="48.86173" lon="2.88207">
        <ele>41.95</ele>
        <time>2013-12-18T10:05:03Z</time>
      </trkpt>
      <trkpt lat="48.86169" lon="2.88204">
        <ele>42.44</ele>
        <time>2013-12-18T10:05:08Z</time>
      </trkpt>
      <trkpt lat="48.86152" lon="2.8819">
        <ele>44.36</ele>
        <time>2013-12-18T10:05:24Z</time>
      </trkpt>
      <trkpt lat="48.86138" lon="2.88174">
        <ele>42.92</ele>
        <time>2013-12-18T10:05:40Z</time>
      </trkpt>
      <trkpt lat="48.86123" lon="2.88158">
        <ele>41.47</ele>
        <time>2013-12-18T10:05:55Z</time>
      </trkpt>
      <trkpt lat="48.86116" lon="2.8815">
        <ele>40.51</ele>
        <time>2013-12-18T10:06:09Z</time>
      </trkpt>
      <trkpt lat="48.86112" lon="2.88143">
        <ele>40.99</ele>
        <time>2013-12-18T10:06:24Z</time>
      </trkpt>
      <trkpt lat="48.86111" lon="2.88144">
        <ele>41.47</ele>
        <time>2013-12-18T10:06:41Z</time>
      </trkpt>
      <trkpt lat="48.8611" lon="2.88151">
        <ele>41.95</ele>
        <time>2013-12-18T10:06:48Z</time>
      </trkpt>
      <trkpt lat="48.86094" lon="2.88177">
        <ele>41.47</ele>
        <time>2013-12-18T10:07:07Z</time>
      </trkpt>
      <trkpt lat="48.86088" lon="2.8819">
        <ele>41.47</ele>
        <time>2013-12-18T10:07:15Z</time>
      </trkpt>
      <trkpt lat="48.86077" lon="2.88216">
        <ele>44.84</ele>
        <time>2013-12-18T10:07:34Z</time>
      </trkpt>
      <trkpt lat="48.86064" lon="2.88238">
        <ele>46.28</ele>
        <time>2013-12-18T10:07:55Z</time>
      </trkpt>
      <trkpt lat="48.8606" lon="2.88233">
        <ele>46.76</ele>
        <time>2013-12-18T10:08:00Z</time>
      </trkpt>
      <trkpt lat="48.86053" lon="2.88223">
        <ele>46.28</ele>
        <time>2013-12-18T10:08:15Z</time>
      </trkpt>
      <trkpt lat="48.86038" lon="2.88197">
        <ele>46.76</ele>
        <time>2013-12-18T10:08:33Z</time>
      </trkpt>
      <trkpt lat="48.86024" lon="2.88177">
        <ele>45.8</ele>
        <time>2013-12-18T10:08:50Z</time>
      </trkpt>
      <trkpt lat="48.86008" lon="2.88156">
        <ele>45.8</ele>
        <time>2013-12-18T10:09:07Z</time>
      </trkpt>
      <trkpt lat="48.85991" lon="2.88135">
        <ele>46.76</ele>
        <time>2013-12-18T10:09:28Z</time>
      </trkpt>
      <trkpt lat="48.85978" lon="2.88117">
        <ele>46.28</ele>
        <time>2013-12-18T10:09:44Z</time>
      </trkpt>
      <trkpt lat="48.85977" lon="2.88114">
        <ele>46.28</ele>
        <time>2013-12-18T10:09:46Z</time>
      </trkpt>
      <trkpt lat="48.85968" lon="2.88094">
        <ele>46.76</ele>
        <time>2013-12-18T10:10:04Z</time>
      </trkpt>
      <trkpt lat="48.85959" lon="2.88086">
        <ele>47.24</ele>
        <time>2013-12-18T10:10:19Z</time>
      </trkpt>
      <trkpt lat="48.85943" lon="2.88071">
        <ele>48.2</ele>
        <time>2013-12-18T10:10:35Z</time>
      </trkpt>
      <trkpt lat="48.85931" lon="2.88057">
        <ele>49.16</ele>
        <time>2013-12-18T10:10:50Z</time>
      </trkpt>
      <trkpt lat="48.85917" lon="2.88045">
        <ele>50.61</ele>
        <time>2013-12-18T10:11:05Z</time>
      </trkpt>
      <trkpt lat="48.85903" lon="2.88037">
        <ele>50.13</ele>
        <time>2013-12-18T10:11:21Z</time>
      </trkpt>
      <trkpt lat="48.85898" lon="2.88024">
        <ele>50.61</ele>
        <time>2013-12-18T10:11:39Z</time>
      </trkpt>
      <trkpt lat="48.85892" lon="2.88024">
        <ele>51.09</ele>
        <time>2013-12-18T10:11:59Z</time>
      </trkpt>
      <trkpt lat="48.85873" lon="2.88032">
        <ele>49.16</ele>
        <time>2013-12-18T10:12:18Z</time>
      </trkpt>
      <trkpt lat="48.85865" lon="2.88031">
        <ele>50.13</ele>
        <time>2013-12-18T10:12:25Z</time>
      </trkpt>
      <trkpt lat="48.85845" lon="2.88024">
        <ele>53.01</ele>
        <time>2013-12-18T10:12:45Z</time>
      </trkpt>
      <trkpt lat="48.85827" lon="2.88021">
        <ele>59.26</ele>
        <time>2013-12-18T10:13:01Z</time>
      </trkpt>
      <trkpt lat="48.85812" lon="2.88023">
        <ele>62.14</ele>
        <time>2013-12-18T10:13:19Z</time>
      </trkpt>
      <trkpt lat="48.85814" lon="2.88025">
        <ele>63.1</ele>
        <time>2013-12-18T10:13:35Z</time>
      </trkpt>
      <trkpt lat="48.85804" lon="2.8802">
        <ele>64.07</ele>
        <time>2013-12-18T10:13:48Z</time>
      </trkpt>
      <trkpt lat="48.85786" lon="2.88008">
        <ele>62.62</ele>
        <time>2013-12-18T10:14:04Z</time>
      </trkpt>
      <trkpt lat="48.85772" lon="2.88">
        <ele>62.62</ele>
        <time>2013-12-18T10:14:19Z</time>
      </trkpt>
      <trkpt lat="48.85756" lon="2.87977">
        <ele>66.95</ele>
        <time>2013-12-18T10:14:36Z</time>
      </trkpt>
      <trkpt lat="48.85754" lon="2.87975">
        <ele>66.95</ele>
        <time>2013-12-18T10:14:38Z</time>
      </trkpt>
      <trkpt lat="48.85749" lon="2.87967">
        <ele>66.95</ele>
        <time>2013-12-18T10:14:54Z</time>
      </trkpt>
      <trkpt lat="48.85738" lon="2.87955">
        <ele>67.91</ele>
        <time>2013-12-18T10:15:10Z</time>
      </trkpt>
      <trkpt lat="48.85733" lon="2.87952">
        <ele>68.39</ele>
        <time>2013-12-18T10:15:26Z</time>
      </trkpt>
      <trkpt lat="48.85733" lon="2.87953">
        <ele>68.39</ele>
        <time>2013-12-18T10:15:46Z</time>
      </trkpt>
      <trkpt lat="48.85733" lon="2.87953">
        <ele>68.39</ele>
        <time>2013-12-18T10:16:03Z</time>
      </trkpt>
      <trkpt lat="48.85733" lon="2.87954">
        <ele>68.87</ele>
        <time>2013-12-18T10:16:05Z</time>
      </trkpt>
      <trkpt lat="48.85748" lon="2.87976">
        <ele>68.87</ele>
        <time>2013-12-18T10:16:20Z</time>
      </trkpt>
      <trkpt lat="48.85749" lon="2.87979">
        <ele>69.35</ele>
        <time>2013-12-18T10:16:22Z</time>
      </trkpt>
      <trkpt lat="48.85753" lon="2.87984">
        <ele>68.87</ele>
        <time>2013-12-18T10:16:38Z</time>
      </trkpt>
      <trkpt lat="48.85753" lon="2.87984">
        <ele>69.35</ele>
        <time>2013-12-18T10:17:04Z</time>
      </trkpt>
      <trkpt lat="48.85754" lon="2.87985">
        <ele>68.87</ele>
        <time>2013-12-18T10:17:19Z</time>
      </trkpt>
      <trkpt lat="48.85754" lon="2.87982">
        <ele>68.87</ele>
        <time>2013-12-18T10:17:34Z</time>
      </trkpt>
      <trkpt lat="48.85754" lon="2.87965">
        <ele>67.91</ele>
        <time>2013-12-18T10:17:47Z</time>
      </trkpt>
      <trkpt lat="48.85759" lon="2.87953">
        <ele>65.51</ele>
        <time>2013-12-18T10:18:01Z</time>
      </trkpt>
      <trkpt lat="48.85765" lon="2.8794">
        <ele>61.18</ele>
        <time>2013-12-18T10:18:12Z</time>
      </trkpt>
      <trkpt lat="48.85774" lon="2.87924">
        <ele>54.93</ele>
        <time>2013-12-18T10:18:29Z</time>
      </trkpt>
      <trkpt lat="48.8578" lon="2.87904">
        <ele>49.65</ele>
        <time>2013-12-18T10:18:44Z</time>
      </trkpt>
      <trkpt lat="48.85781" lon="2.8789">
        <ele>47.24</ele>
        <time>2013-12-18T10:19:01Z</time>
      </trkpt>
      <trkpt lat="48.85787" lon="2.87875">
        <ele>47.72</ele>
        <time>2013-12-18T10:19:16Z</time>
      </trkpt>
      <trkpt lat="48.85797" lon="2.87853">
        <ele>49.16</ele>
        <time>2013-12-18T10:19:33Z</time>
      </trkpt>
      <trkpt lat="48.85807" lon="2.87832">
        <ele>58.3</ele>
        <time>2013-12-18T10:19:51Z</time>
      </trkpt>
      <trkpt lat="48.85814" lon="2.87821">
        <ele>60.22</ele>
        <time>2013-12-18T10:20:04Z</time>
      </trkpt>
      <trkpt lat="48.85821" lon="2.87807">
        <ele>62.14</ele>
        <time>2013-12-18T10:20:17Z</time>
      </trkpt>
      <trkpt lat="48.85828" lon="2.87794">
        <ele>62.62</ele>
        <time>2013-12-18T10:20:30Z</time>
      </trkpt>
      <trkpt lat="48.85835" lon="2.87783">
        <ele>63.1</ele>
        <time>2013-12-18T10:20:43Z</time>
      </trkpt>
      <trkpt lat="48.85837" lon="2.87778">
        <ele>62.62</ele>
        <time>2013-12-18T10:20:57Z</time>
      </trkpt>
      <trkpt lat="48.85838" lon="2.87778">
        <ele>63.58</ele>
        <time>2013-12-18T10:21:10Z</time>
      </trkpt>
      <trkpt lat="48.85841" lon="2.87771">
        <ele>64.55</ele>
        <time>2013-12-18T10:21:29Z</time>
      </trkpt>
      <trkpt lat="48.85853" lon="2.87747">
        <ele>65.03</ele>
        <time>2013-12-18T10:21:46Z</time>
      </trkpt>
      <trkpt lat="48.85863" lon="2.87732">
        <ele>66.95</ele>
        <time>2013-12-18T10:22:00Z</time>
      </trkpt>
      <trkpt lat="48.85867" lon="2.87718">
        <ele>69.35</ele>
        <time>2013-12-18T10:22:16Z</time>
      </trkpt>
      <trkpt lat="48.85873" lon="2.87709">
        <ele>70.31</ele>
        <time>2013-12-18T10:22:32Z</time>
      </trkpt>
      <trkpt lat="48.85874" lon="2.87709">
        <ele>70.31</ele>
        <time>2013-12-18T10:22:47Z</time>
      </trkpt>
      <trkpt lat="48.85893" lon="2.87727">
        <ele>68.87</ele>
        <time>2013-12-18T10:23:07Z</time>
      </trkpt>
      <trkpt lat="48.85911" lon="2.87742">
        <ele>67.43</ele>
        <time>2013-12-18T10:23:24Z</time>
      </trkpt>
      <trkpt lat="48.85918" lon="2.8775">
        <ele>65.03</ele>
        <time>2013-12-18T10:23:34Z</time>
      </trkpt>
      <trkpt lat="48.85931" lon="2.87746">
        <ele>62.62</ele>
        <time>2013-12-18T10:23:46Z</time>
      </trkpt>
      <trkpt lat="48.85935" lon="2.87734">
        <ele>63.1</ele>
        <time>2013-12-18T10:23:55Z</time>
      </trkpt>
      <trkpt lat="48.85942" lon="2.87713">
        <ele>62.14</ele>
        <time>2013-12-18T10:24:09Z</time>
      </trkpt>
      <trkpt lat="48.85951" lon="2.87686">
        <ele>64.07</ele>
        <time>2013-12-18T10:24:26Z</time>
      </trkpt>
      <trkpt lat="48.85958" lon="2.87654">
        <ele>65.99</ele>
        <time>2013-12-18T10:24:46Z</time>
      </trkpt>
      <trkpt lat="48.85963" lon="2.8763">
        <ele>65.51</ele>
        <time>2013-12-18T10:25:00Z</time>
      </trkpt>
      <trkpt lat="48.85968" lon="2.87598">
        <ele>65.03</ele>
        <time>2013-12-18T10:25:19Z</time>
      </trkpt>
      <trkpt lat="48.85969" lon="2.87566">
        <ele>65.51</ele>
        <time>2013-12-18T10:25:36Z</time>
      </trkpt>
      <trkpt lat="48.85971" lon="2.87537">
        <ele>66.95</ele>
        <time>2013-12-18T10:25:53Z</time>
      </trkpt>
      <trkpt lat="48.85971" lon="2.87513">
        <ele>68.87</ele>
        <time>2013-12-18T10:26:07Z</time>
      </trkpt>
      <trkpt lat="48.85972" lon="2.87489">
        <ele>72.72</ele>
        <time>2013-12-18T10:26:22Z</time>
      </trkpt>
      <trkpt lat="48.85972" lon="2.87461">
        <ele>76.56</ele>
        <time>2013-12-18T10:26:38Z</time>
      </trkpt>
      <trkpt lat="48.85968" lon="2.87446">
        <ele>77.52</ele>
        <time>2013-12-18T10:26:53Z</time>
      </trkpt>
      <trkpt lat="48.85964" lon="2.87427">
        <ele>79.45</ele>
        <time>2013-12-18T10:27:09Z</time>
      </trkpt>
      <trkpt lat="48.85963" lon="2.87425">
        <ele>79.93</ele>
        <time>2013-12-18T10:27:10Z</time>
      </trkpt>
      <trkpt lat="48.85954" lon="2.87406">
        <ele>84.25</ele>
        <time>2013-12-18T10:27:27Z</time>
      </trkpt>
      <trkpt lat="48.85943" lon="2.87392">
        <ele>92.9</ele>
        <time>2013-12-18T10:27:42Z</time>
      </trkpt>
      <trkpt lat="48.85936" lon="2.87378">
        <ele>95.79</ele>
        <time>2013-12-18T10:27:55Z</time>
      </trkpt>
      <trkpt lat="48.85933" lon="2.87357">
        <ele>99.63</ele>
        <time>2013-12-18T10:28:11Z</time>
      </trkpt>
      <trkpt lat="48.85932" lon="2.87334">
        <ele>103</ele>
        <time>2013-12-18T10:28:26Z</time>
      </trkpt>
      <trkpt lat="48.85929" lon="2.87308">
        <ele>105.4</ele>
        <time>2013-12-18T10:28:41Z</time>
      </trkpt>
      <trkpt lat="48.85929" lon="2.87281">
        <ele>103.96</ele>
        <time>2013-12-18T10:28:56Z</time>
      </trkpt>
      <trkpt lat="48.85925" lon="2.8726">
        <ele>107.32</ele>
        <time>2013-12-18T10:29:10Z</time>
      </trkpt>
      <trkpt lat="48.85915" lon="2.87242">
        <ele>112.13</ele>
        <time>2013-12-18T10:29:26Z</time>
      </trkpt>
      <trkpt lat="48.85915" lon="2.87238">
        <ele>111.17</ele>
        <time>2013-12-18T10:29:39Z</time>
      </trkpt>
      <trkpt lat="48.85906" lon="2.87224">
        <ele>107.32</ele>
        <time>2013-12-18T10:29:54Z</time>
      </trkpt>
      <trkpt lat="48.85907" lon="2.87221">
        <ele>103.96</ele>
        <time>2013-12-18T10:30:10Z</time>
      </trkpt>
      <trkpt lat="48.85906" lon="2.8722">
        <ele>102.04</ele>
        <time>2013-12-18T10:30:32Z</time>
      </trkpt>
      <trkpt lat="48.85906" lon="2.87218">
        <ele>98.67</ele>
        <time>2013-12-18T10:30:51Z</time>
      </trkpt>
      <trkpt lat="48.85906" lon="2.87218">
        <ele>98.19</ele>
        <time>2013-12-18T10:31:15Z</time>
      </trkpt>
      <trkpt lat="48.85906" lon="2.87217">
        <ele>98.19</ele>
        <time>2013-12-18T10:31:34Z</time>
      </trkpt>
      <trkpt lat="48.85906" lon="2.87217">
        <ele>97.71</ele>
        <time>2013-12-18T10:31:51Z</time>
      </trkpt>
      <trkpt lat="48.85906" lon="2.87217">
        <ele>96.27</ele>
        <time>2013-12-18T10:32:02Z</time>
      </trkpt>
      <trkpt lat="48.85906" lon="2.87218">
        <ele>95.79</ele>
        <time>2013-12-18T10:32:15Z</time>
      </trkpt>
      <trkpt lat="48.8591" lon="2.87214">
        <ele>95.79</ele>
        <time>2013-12-18T10:32:19Z</time>
      </trkpt>
      <trkpt lat="48.85923" lon="2.87192">
        <ele>97.71</ele>
        <time>2013-12-18T10:32:36Z</time>
      </trkpt>
      <trkpt lat="48.85938" lon="2.87163">
        <ele>98.19</ele>
        <time>2013-12-18T10:32:57Z</time>
      </trkpt>
      <trkpt lat="48.85949" lon="2.87133">
        <ele>99.15</ele>
        <time>2013-12-18T10:33:17Z</time>
      </trkpt>
      <trkpt lat="48.8596" lon="2.87111">
        <ele>100.11</ele>
        <time>2013-12-18T10:33:33Z</time>
      </trkpt>
      <trkpt lat="48.85965" lon="2.87099">
        <ele>101.56</ele>
        <time>2013-12-18T10:33:42Z</time>
      </trkpt>
      <trkpt lat="48.85978" lon="2.87064">
        <ele>101.08</ele>
        <time>2013-12-18T10:34:04Z</time>
      </trkpt>
      <trkpt lat="48.85989" lon="2.87037">
        <ele>99.63</ele>
        <time>2013-12-18T10:34:22Z</time>
      </trkpt>
      <trkpt lat="48.85996" lon="2.87013">
        <ele>99.63</ele>
        <time>2013-12-18T10:34:38Z</time>
      </trkpt>
      <trkpt lat="48.86005" lon="2.86986">
        <ele>103</ele>
        <time>2013-12-18T10:34:57Z</time>
      </trkpt>
      <trkpt lat="48.86012" lon="2.86964">
        <ele>103.96</ele>
        <time>2013-12-18T10:35:13Z</time>
      </trkpt>
      <trkpt lat="48.86025" lon="2.86929">
        <ele>103</ele>
        <time>2013-12-18T10:35:33Z</time>
      </trkpt>
      <trkpt lat="48.86036" lon="2.86895">
        <ele>101.08</ele>
        <time>2013-12-18T10:35:55Z</time>
      </trkpt>
      <trkpt lat="48.86038" lon="2.86881">
        <ele>103</ele>
        <time>2013-12-18T10:36:04Z</time>
      </trkpt>
      <trkpt lat="48.86037" lon="2.86867">
        <ele>104.92</ele>
        <time>2013-12-18T10:36:13Z</time>
      </trkpt>
      <trkpt lat="48.86033" lon="2.86838">
        <ele>107.81</ele>
        <time>2013-12-18T10:36:33Z</time>
      </trkpt>
      <trkpt lat="48.86044" lon="2.8681">
        <ele>109.25</ele>
        <time>2013-12-18T10:36:52Z</time>
      </trkpt>
      <trkpt lat="48.86056" lon="2.86786">
        <ele>110.69</ele>
        <time>2013-12-18T10:37:10Z</time>
      </trkpt>
      <trkpt lat="48.8606" lon="2.8678">
        <ele>111.17</ele>
        <time>2013-12-18T10:37:15Z</time>
      </trkpt>
      <trkpt lat="48.8607" lon="2.86755">
        <ele>108.77</ele>
        <time>2013-12-18T10:37:33Z</time>
      </trkpt>
      <trkpt lat="48.86077" lon="2.86737">
        <ele>105.88</ele>
        <time>2013-12-18T10:37:48Z</time>
      </trkpt>
      <trkpt lat="48.86079" lon="2.86734">
        <ele>104.44</ele>
        <time>2013-12-18T10:38:07Z</time>
      </trkpt>
      <trkpt lat="48.86081" lon="2.8673">
        <ele>103.96</ele>
        <time>2013-12-18T10:38:24Z</time>
      </trkpt>
      <trkpt lat="48.8608" lon="2.86719">
        <ele>107.81</ele>
        <time>2013-12-18T10:38:42Z</time>
      </trkpt>
      <trkpt lat="48.86081" lon="2.86691">
        <ele>111.17</ele>
        <time>2013-12-18T10:38:57Z</time>
      </trkpt>
      <trkpt lat="48.86074" lon="2.86673">
        <ele>111.65</ele>
        <time>2013-12-18T10:39:14Z</time>
      </trkpt>
      <trkpt lat="48.86071" lon="2.8667">
        <ele>112.13</ele>
        <time>2013-12-18T10:39:36Z</time>
      </trkpt>
      <trkpt lat="48.86059" lon="2.86662">
        <ele>109.25</ele>
        <time>2013-12-18T10:39:51Z</time>
      </trkpt>
      <trkpt lat="48.86049" lon="2.86639">
        <ele>107.81</ele>
        <time>2013-12-18T10:40:09Z</time>
      </trkpt>
      <trkpt lat="48.86032" lon="2.86624">
        <ele>109.73</ele>
        <time>2013-12-18T10:40:29Z</time>
      </trkpt>
      <trkpt lat="48.86009" lon="2.86615">
        <ele>111.17</ele>
        <time>2013-12-18T10:40:48Z</time>
      </trkpt>
      <trkpt lat="48.85994" lon="2.86612">
        <ele>113.09</ele>
        <time>2013-12-18T10:41:06Z</time>
      </trkpt>
      <trkpt lat="48.85985" lon="2.86607">
        <ele>115.98</ele>
        <time>2013-12-18T10:41:22Z</time>
      </trkpt>
      <trkpt lat="48.8597" lon="2.86602">
        <ele>117.42</ele>
        <time>2013-12-18T10:41:41Z</time>
      </trkpt>
      <trkpt lat="48.85953" lon="2.86596">
        <ele>118.38</ele>
        <time>2013-12-18T10:41:57Z</time>
      </trkpt>
      <trkpt lat="48.85935" lon="2.86584">
        <ele>117.42</ele>
        <time>2013-12-18T10:42:15Z</time>
      </trkpt>
      <trkpt lat="48.85906" lon="2.8657">
        <ele>113.57</ele>
        <time>2013-12-18T10:42:34Z</time>
      </trkpt>
      <trkpt lat="48.85892" lon="2.86558">
        <ele>115.01</ele>
        <time>2013-12-18T10:42:53Z</time>
      </trkpt>
      <trkpt lat="48.85883" lon="2.86549">
        <ele>121.74</ele>
        <time>2013-12-18T10:43:10Z</time>
      </trkpt>
      <trkpt lat="48.85862" lon="2.86531">
        <ele>125.11</ele>
        <time>2013-12-18T10:43:29Z</time>
      </trkpt>
      <trkpt lat="48.85854" lon="2.86526">
        <ele>124.63</ele>
        <time>2013-12-18T10:43:47Z</time>
      </trkpt>
      <trkpt lat="48.85852" lon="2.86525">
        <ele>124.15</ele>
        <time>2013-12-18T10:44:06Z</time>
      </trkpt>
      <trkpt lat="48.85848" lon="2.86521">
        <ele>123.67</ele>
        <time>2013-12-18T10:44:30Z</time>
      </trkpt>
      <trkpt lat="48.85841" lon="2.86519">
        <ele>124.15</ele>
        <time>2013-12-18T10:44:56Z</time>
      </trkpt>
      <trkpt lat="48.8583" lon="2.86506">
        <ele>124.63</ele>
        <time>2013-12-18T10:45:16Z</time>
      </trkpt>
      <trkpt lat="48.85814" lon="2.86489">
        <ele>125.11</ele>
        <time>2013-12-18T10:45:35Z</time>
      </trkpt>
      <trkpt lat="48.85808" lon="2.86478">
        <ele>126.55</ele>
        <time>2013-12-18T10:45:54Z</time>
      </trkpt>
      <trkpt lat="48.85794" lon="2.86465">
        <ele>133.28</ele>
        <time>2013-12-18T10:46:13Z</time>
      </trkpt>
      <trkpt lat="48.8579" lon="2.86452">
        <ele>136.16</ele>
        <time>2013-12-18T10:46:31Z</time>
      </trkpt>
      <trkpt lat="48.85788" lon="2.86418">
        <ele>140.01</ele>
        <time>2013-12-18T10:46:50Z</time>
      </trkpt>
      <trkpt lat="48.85777" lon="2.86387">
        <ele>140.97</ele>
        <time>2013-12-18T10:47:09Z</time>
      </trkpt>
      <trkpt lat="48.85766" lon="2.86363">
        <ele>137.13</ele>
        <time>2013-12-18T10:47:24Z</time>
      </trkpt>
      <trkpt lat="48.85756" lon="2.86352">
        <ele>141.45</ele>
        <time>2013-12-18T10:47:42Z</time>
      </trkpt>
      <trkpt lat="48.85749" lon="2.8634">
        <ele>148.66</ele>
        <time>2013-12-18T10:48:01Z</time>
      </trkpt>
      <trkpt lat="48.85727" lon="2.86322">
        <ele>154.43</ele>
        <time>2013-12-18T10:48:19Z</time>
      </trkpt>
      <trkpt lat="48.8571" lon="2.86295">
        <ele>159.24</ele>
        <time>2013-12-18T10:48:40Z</time>
      </trkpt>
      <trkpt lat="48.857" lon="2.86282">
        <ele>157.31</ele>
        <time>2013-12-18T10:48:56Z</time>
      </trkpt>
      <trkpt lat="48.85679" lon="2.8626">
        <ele>153.47</ele>
        <time>2013-12-18T10:49:16Z</time>
      </trkpt>
      <trkpt lat="48.85667" lon="2.86235">
        <ele>135.68</ele>
        <time>2013-12-18T10:49:32Z</time>
      </trkpt>
      <trkpt lat="48.85663" lon="2.86233">
        <ele>131.84</ele>
        <time>2013-12-18T10:49:34Z</time>
      </trkpt>
      <trkpt lat="48.85654" lon="2.86232">
        <ele>126.55</ele>
        <time>2013-12-18T10:49:50Z</time>
      </trkpt>
      <trkpt lat="48.85648" lon="2.86239">
        <ele>124.63</ele>
        <time>2013-12-18T10:50:01Z</time>
      </trkpt>
      <trkpt lat="48.85634" lon="2.86252">
        <ele>121.74</ele>
        <time>2013-12-18T10:50:17Z</time>
      </trkpt>
      <trkpt lat="48.8563" lon="2.86259">
        <ele>122.71</ele>
        <time>2013-12-18T10:50:25Z</time>
      </trkpt>
      <trkpt lat="48.85623" lon="2.86269">
        <ele>126.07</ele>
        <time>2013-12-18T10:50:37Z</time>
      </trkpt>
      <trkpt lat="48.85616" lon="2.86283">
        <ele>127.99</ele>
        <time>2013-12-18T10:50:50Z</time>
      </trkpt>
      <trkpt lat="48.85616" lon="2.86287">
        <ele>127.99</ele>
        <time>2013-12-18T10:50:52Z</time>
      </trkpt>
      <trkpt lat="48.85602" lon="2.86308">
        <ele>132.32</ele>
        <time>2013-12-18T10:51:10Z</time>
      </trkpt>
      <trkpt lat="48.8559" lon="2.86324">
        <ele>140.49</ele>
        <time>2013-12-18T10:51:27Z</time>
      </trkpt>
      <trkpt lat="48.85586" lon="2.86331">
        <ele>143.85</ele>
        <time>2013-12-18T10:51:34Z</time>
      </trkpt>
      <trkpt lat="48.8558" lon="2.8635">
        <ele>148.18</ele>
        <time>2013-12-18T10:51:50Z</time>
      </trkpt>
      <trkpt lat="48.85576" lon="2.86372">
        <ele>146.26</ele>
        <time>2013-12-18T10:52:03Z</time>
      </trkpt>
      <trkpt lat="48.85573" lon="2.86369">
        <ele>146.74</ele>
        <time>2013-12-18T10:52:09Z</time>
      </trkpt>
      <trkpt lat="48.85565" lon="2.86357">
        <ele>149.62</ele>
        <time>2013-12-18T10:52:22Z</time>
      </trkpt>
      <trkpt lat="48.8555" lon="2.86381">
        <ele>144.34</ele>
        <time>2013-12-18T10:52:39Z</time>
      </trkpt>
      <trkpt lat="48.85549" lon="2.86384">
        <ele>143.37</ele>
        <time>2013-12-18T10:52:40Z</time>
      </trkpt>
      <trkpt lat="48.85543" lon="2.86397">
        <ele>137.61</ele>
        <time>2013-12-18T10:52:46Z</time>
      </trkpt>
      <trkpt lat="48.85526" lon="2.8642">
        <ele>135.2</ele>
        <time>2013-12-18T10:53:04Z</time>
      </trkpt>
      <trkpt lat="48.85515" lon="2.86433">
        <ele>140.01</ele>
        <time>2013-12-18T10:53:18Z</time>
      </trkpt>
      <trkpt lat="48.855" lon="2.86441">
        <ele>145.3</ele>
        <time>2013-12-18T10:53:31Z</time>
      </trkpt>
      <trkpt lat="48.85488" lon="2.86458">
        <ele>147.22</ele>
        <time>2013-12-18T10:53:45Z</time>
      </trkpt>
      <trkpt lat="48.85482" lon="2.86486">
        <ele>138.57</ele>
        <time>2013-12-18T10:53:59Z</time>
      </trkpt>
      <trkpt lat="48.85477" lon="2.86503">
        <ele>138.57</ele>
        <time>2013-12-18T10:54:13Z</time>
      </trkpt>
      <trkpt lat="48.8547" lon="2.86519">
        <ele>143.85</ele>
        <time>2013-12-18T10:54:27Z</time>
      </trkpt>
      <trkpt lat="48.85467" lon="2.86536">
        <ele>142.89</ele>
        <time>2013-12-18T10:54:40Z</time>
      </trkpt>
      <trkpt lat="48.85467" lon="2.86541">
        <ele>140.49</ele>
        <time>2013-12-18T10:55:00Z</time>
      </trkpt>
      <trkpt lat="48.85468" lon="2.86549">
        <ele>131.36</ele>
        <time>2013-12-18T10:55:23Z</time>
      </trkpt>
      <trkpt lat="48.85468" lon="2.86551">
        <ele>129.92</ele>
        <time>2013-12-18T10:55:42Z</time>
      </trkpt>
      <trkpt lat="48.85469" lon="2.86553">
        <ele>128.47</ele>
        <time>2013-12-18T10:56:11Z</time>
      </trkpt>
      <trkpt lat="48.8547" lon="2.86554">
        <ele>127.99</ele>
        <time>2013-12-18T10:56:35Z</time>
      </trkpt>
      <trkpt lat="48.8547" lon="2.86554">
        <ele>127.51</ele>
        <time>2013-12-18T10:57:06Z</time>
      </trkpt>
      <trkpt lat="48.8547" lon="2.86554">
        <ele>125.59</ele>
        <time>2013-12-18T10:57:31Z</time>
      </trkpt>
      <trkpt lat="48.85472" lon="2.86555">
        <ele>123.67</ele>
        <time>2013-12-18T10:57:57Z</time>
      </trkpt>
      <trkpt lat="48.85474" lon="2.86556">
        <ele>123.19</ele>
        <time>2013-12-18T10:58:20Z</time>
      </trkpt>
      <trkpt lat="48.85473" lon="2.86561">
        <ele>124.15</ele>
        <time>2013-12-18T10:58:25Z</time>
      </trkpt>
      <trkpt lat="48.85469" lon="2.86577">
        <ele>127.03</ele>
        <time>2013-12-18T10:58:37Z</time>
      </trkpt>
      <trkpt lat="48.85464" lon="2.86597">
        <ele>130.4</ele>
        <time>2013-12-18T10:58:50Z</time>
      </trkpt>
      <trkpt lat="48.85461" lon="2.86618">
        <ele>131.84</ele>
        <time>2013-12-18T10:59:02Z</time>
      </trkpt>
      <trkpt lat="48.85454" lon="2.86644">
        <ele>131.84</ele>
        <time>2013-12-18T10:59:18Z</time>
      </trkpt>
      <trkpt lat="48.85449" lon="2.8667">
        <ele>132.8</ele>
        <time>2013-12-18T10:59:34Z</time>
      </trkpt>
      <trkpt lat="48.85443" lon="2.86697">
        <ele>132.8</ele>
        <time>2013-12-18T10:59:49Z</time>
      </trkpt>
      <trkpt lat="48.85441" lon="2.86731">
        <ele>125.11</ele>
        <time>2013-12-18T11:00:04Z</time>
      </trkpt>
      <trkpt lat="48.85438" lon="2.86761">
        <ele>115.5</ele>
        <time>2013-12-18T11:00:20Z</time>
      </trkpt>
      <trkpt lat="48.85436" lon="2.86775">
        <ele>113.57</ele>
        <time>2013-12-18T11:00:28Z</time>
      </trkpt>
      <trkpt lat="48.85431" lon="2.86802">
        <ele>112.61</ele>
        <time>2013-12-18T11:00:43Z</time>
      </trkpt>
      <trkpt lat="48.8543" lon="2.86811">
        <ele>112.61</ele>
        <time>2013-12-18T11:00:48Z</time>
      </trkpt>
      <trkpt lat="48.85425" lon="2.86837">
        <ele>113.57</ele>
        <time>2013-12-18T11:01:03Z</time>
      </trkpt>
      <trkpt lat="48.85425" lon="2.86849">
        <ele>113.57</ele>
        <time>2013-12-18T11:01:11Z</time>
      </trkpt>
      <trkpt lat="48.85422" lon="2.86877">
        <ele>113.09</ele>
        <time>2013-12-18T11:01:27Z</time>
      </trkpt>
      <trkpt lat="48.85422" lon="2.869">
        <ele>112.61</ele>
        <time>2013-12-18T11:01:41Z</time>
      </trkpt>
      <trkpt lat="48.85422" lon="2.86905">
        <ele>113.09</ele>
        <time>2013-12-18T11:01:44Z</time>
      </trkpt>
      <trkpt lat="48.85422" lon="2.86927">
        <ele>110.69</ele>
        <time>2013-12-18T11:01:55Z</time>
      </trkpt>
      <trkpt lat="48.85423" lon="2.86931">
        <ele>110.21</ele>
        <time>2013-12-18T11:02:12Z</time>
      </trkpt>
      <trkpt lat="48.85424" lon="2.86959">
        <ele>110.69</ele>
        <time>2013-12-18T11:02:28Z</time>
      </trkpt>
      <trkpt lat="48.85422" lon="2.8698">
        <ele>111.17</ele>
        <time>2013-12-18T11:02:42Z</time>
      </trkpt>
      <trkpt lat="48.85422" lon="2.87007">
        <ele>114.05</ele>
        <time>2013-12-18T11:02:59Z</time>
      </trkpt>
      <trkpt lat="48.8542" lon="2.8703">
        <ele>116.94</ele>
        <time>2013-12-18T11:03:14Z</time>
      </trkpt>
      <trkpt lat="48.85417" lon="2.87053">
        <ele>118.86</ele>
        <time>2013-12-18T11:03:30Z</time>
      </trkpt>
      <trkpt lat="48.8542" lon="2.87069">
        <ele>120.78</ele>
        <time>2013-12-18T11:03:44Z</time>
      </trkpt>
      <trkpt lat="48.85426" lon="2.87082">
        <ele>118.86</ele>
        <time>2013-12-18T11:03:51Z</time>
      </trkpt>
      <trkpt lat="48.85445" lon="2.87098">
        <ele>118.86</ele>
        <time>2013-12-18T11:04:10Z</time>
      </trkpt>
      <trkpt lat="48.8546" lon="2.87106">
        <ele>118.38</ele>
        <time>2013-12-18T11:04:26Z</time>
      </trkpt>
      <trkpt lat="48.85467" lon="2.8711">
        <ele>118.86</ele>
        <time>2013-12-18T11:04:41Z</time>
      </trkpt>
      <trkpt lat="48.85476" lon="2.87115">
        <ele>117.9</ele>
        <time>2013-12-18T11:04:50Z</time>
      </trkpt>
      <trkpt lat="48.85495" lon="2.87128">
        <ele>112.61</ele>
        <time>2013-12-18T11:05:06Z</time>
      </trkpt>
      <trkpt lat="48.85513" lon="2.87148">
        <ele>109.25</ele>
        <time>2013-12-18T11:05:22Z</time>
      </trkpt>
      <trkpt lat="48.85522" lon="2.87152">
        <ele>107.81</ele>
        <time>2013-12-18T11:05:36Z</time>
      </trkpt>
      <trkpt lat="48.85522" lon="2.87152">
        <ele>106.84</ele>
        <time>2013-12-18T11:05:44Z</time>
      </trkpt>
      <trkpt lat="48.85526" lon="2.87156">
        <ele>106.84</ele>
        <time>2013-12-18T11:05:49Z</time>
      </trkpt>
      <trkpt lat="48.8554" lon="2.87171">
        <ele>104.44</ele>
        <time>2013-12-18T11:06:02Z</time>
      </trkpt>
      <trkpt lat="48.85558" lon="2.87188">
        <ele>102.52</ele>
        <time>2013-12-18T11:06:20Z</time>
      </trkpt>
      <trkpt lat="48.85573" lon="2.872">
        <ele>103.96</ele>
        <time>2013-12-18T11:06:36Z</time>
      </trkpt>
      <trkpt lat="48.85589" lon="2.87219">
        <ele>102.04</ele>
        <time>2013-12-18T11:06:53Z</time>
      </trkpt>
      <trkpt lat="48.856" lon="2.87229">
        <ele>101.56</ele>
        <time>2013-12-18T11:07:08Z</time>
      </trkpt>
      <trkpt lat="48.85609" lon="2.87239">
        <ele>101.56</ele>
        <time>2013-12-18T11:07:22Z</time>
      </trkpt>
      <trkpt lat="48.85619" lon="2.8725">
        <ele>100.11</ele>
        <time>2013-12-18T11:07:36Z</time>
      </trkpt>
      <trkpt lat="48.85622" lon="2.87253">
        <ele>99.63</ele>
        <time>2013-12-18T11:07:39Z</time>
      </trkpt>
      <trkpt lat="48.85633" lon="2.87265">
        <ele>99.15</ele>
        <time>2013-12-18T11:07:53Z</time>
      </trkpt>
      <trkpt lat="48.85639" lon="2.8727">
        <ele>99.63</ele>
        <time>2013-12-18T11:08:06Z</time>
      </trkpt>
      <trkpt lat="48.8564" lon="2.87271">
        <ele>99.63</ele>
        <time>2013-12-18T11:08:14Z</time>
      </trkpt>
      <trkpt lat="48.85649" lon="2.87286">
        <ele>100.11</ele>
        <time>2013-12-18T11:08:27Z</time>
      </trkpt>
      <trkpt lat="48.85661" lon="2.87302">
        <ele>103</ele>
        <time>2013-12-18T11:08:42Z</time>
      </trkpt>
      <trkpt lat="48.85675" lon="2.87329">
        <ele>101.56</ele>
        <time>2013-12-18T11:08:58Z</time>
      </trkpt>
      <trkpt lat="48.85689" lon="2.8735">
        <ele>99.63</ele>
        <time>2013-12-18T11:09:15Z</time>
      </trkpt>
      <trkpt lat="48.85698" lon="2.87364">
        <ele>97.71</ele>
        <time>2013-12-18T11:09:28Z</time>
      </trkpt>
      <trkpt lat="48.85701" lon="2.87366">
        <ele>96.27</ele>
        <time>2013-12-18T11:09:47Z</time>
      </trkpt>
      <trkpt lat="48.85703" lon="2.87369">
        <ele>95.79</ele>
        <time>2013-12-18T11:10:04Z</time>
      </trkpt>
      <trkpt lat="48.85704" lon="2.87371">
        <ele>94.83</ele>
        <time>2013-12-18T11:10:24Z</time>
      </trkpt>
      <trkpt lat="48.8571" lon="2.87379">
        <ele>94.83</ele>
        <time>2013-12-18T11:10:37Z</time>
      </trkpt>
      <trkpt lat="48.85723" lon="2.87396">
        <ele>95.31</ele>
        <time>2013-12-18T11:10:53Z</time>
      </trkpt>
      <trkpt lat="48.85732" lon="2.87406">
        <ele>93.87</ele>
        <time>2013-12-18T11:11:09Z</time>
      </trkpt>
      <trkpt lat="48.85739" lon="2.87414">
        <ele>93.39</ele>
        <time>2013-12-18T11:11:15Z</time>
      </trkpt>
      <trkpt lat="48.85742" lon="2.87415">
        <ele>93.39</ele>
        <time>2013-12-18T11:11:18Z</time>
      </trkpt>
      <trkpt lat="48.85758" lon="2.87433">
        <ele>91.94</ele>
        <time>2013-12-18T11:11:32Z</time>
      </trkpt>
      <trkpt lat="48.85772" lon="2.87452">
        <ele>89.54</ele>
        <time>2013-12-18T11:11:49Z</time>
      </trkpt>
      <trkpt lat="48.85773" lon="2.87454">
        <ele>89.06</ele>
        <time>2013-12-18T11:11:50Z</time>
      </trkpt>
      <trkpt lat="48.85775" lon="2.87456">
        <ele>88.58</ele>
        <time>2013-12-18T11:11:52Z</time>
      </trkpt>
      <trkpt lat="48.85789" lon="2.87472">
        <ele>87.14</ele>
        <time>2013-12-18T11:12:07Z</time>
      </trkpt>
      <trkpt lat="48.85797" lon="2.87483">
        <ele>86.66</ele>
        <time>2013-12-18T11:12:18Z</time>
      </trkpt>
      <trkpt lat="48.858" lon="2.87487">
        <ele>86.66</ele>
        <time>2013-12-18T11:12:21Z</time>
      </trkpt>
      <trkpt lat="48.85799" lon="2.87496">
        <ele>86.66</ele>
        <time>2013-12-18T11:12:28Z</time>
      </trkpt>
      <trkpt lat="48.85792" lon="2.87516">
        <ele>88.58</ele>
        <time>2013-12-18T11:12:43Z</time>
      </trkpt>
      <trkpt lat="48.85783" lon="2.87543">
        <ele>87.62</ele>
        <time>2013-12-18T11:13:02Z</time>
      </trkpt>
      <trkpt lat="48.85778" lon="2.87562">
        <ele>86.66</ele>
        <time>2013-12-18T11:13:18Z</time>
      </trkpt>
      <trkpt lat="48.85773" lon="2.87581">
        <ele>86.18</ele>
        <time>2013-12-18T11:13:34Z</time>
      </trkpt>
      <trkpt lat="48.85771" lon="2.87589">
        <ele>84.25</ele>
        <time>2013-12-18T11:13:50Z</time>
      </trkpt>
      <trkpt lat="48.85767" lon="2.87602">
        <ele>85.21</ele>
        <time>2013-12-18T11:14:02Z</time>
      </trkpt>
      <trkpt lat="48.85761" lon="2.87616">
        <ele>86.18</ele>
        <time>2013-12-18T11:14:15Z</time>
      </trkpt>
      <trkpt lat="48.85761" lon="2.87617">
        <ele>86.66</ele>
        <time>2013-12-18T11:14:20Z</time>
      </trkpt>
      <trkpt lat="48.85773" lon="2.87625">
        <ele>84.25</ele>
        <time>2013-12-18T11:14:35Z</time>
      </trkpt>
      <trkpt lat="48.85774" lon="2.87628">
        <ele>83.77</ele>
        <time>2013-12-18T11:14:51Z</time>
      </trkpt>
      <trkpt lat="48.85774" lon="2.8763">
        <ele>83.29</ele>
        <time>2013-12-18T11:15:00Z</time>
      </trkpt>
      <trkpt lat="48.85758" lon="2.87622">
        <ele>82.81</ele>
        <time>2013-12-18T11:15:16Z</time>
      </trkpt>
      <trkpt lat="48.8574" lon="2.87614">
        <ele>82.81</ele>
        <time>2013-12-18T11:15:35Z</time>
      </trkpt>
      <trkpt lat="48.85719" lon="2.87604">
        <ele>86.18</ele>
        <time>2013-12-18T11:15:53Z</time>
      </trkpt>
      <trkpt lat="48.85702" lon="2.87591">
        <ele>81.37</ele>
        <time>2013-12-18T11:16:10Z</time>
      </trkpt>
      <trkpt lat="48.85699" lon="2.87591">
        <ele>79.93</ele>
        <time>2013-12-18T11:16:30Z</time>
      </trkpt>
      <trkpt lat="48.85696" lon="2.87598">
        <ele>79.93</ele>
        <time>2013-12-18T11:16:44Z</time>
      </trkpt>
      <trkpt lat="48.85689" lon="2.87612">
        <ele>79.93</ele>
        <time>2013-12-18T11:16:58Z</time>
      </trkpt>
      <trkpt lat="48.85688" lon="2.87615">
        <ele>79.93</ele>
        <time>2013-12-18T11:17:01Z</time>
      </trkpt>
      <trkpt lat="48.85687" lon="2.87622">
        <ele>79.45</ele>
        <time>2013-12-18T11:17:06Z</time>
      </trkpt>
      <trkpt lat="48.85683" lon="2.87629">
        <ele>78.97</ele>
        <time>2013-12-18T11:17:21Z</time>
      </trkpt>
      <trkpt lat="48.85679" lon="2.87634">
        <ele>78.48</ele>
        <time>2013-12-18T11:17:28Z</time>
      </trkpt>
      <trkpt lat="48.85672" lon="2.87648">
        <ele>78.97</ele>
        <time>2013-12-18T11:17:44Z</time>
      </trkpt>
      <trkpt lat="48.85665" lon="2.87662">
        <ele>78.48</ele>
        <time>2013-12-18T11:18:00Z</time>
      </trkpt>
      <trkpt lat="48.8566" lon="2.87676">
        <ele>77.04</ele>
        <time>2013-12-18T11:18:17Z</time>
      </trkpt>
      <trkpt lat="48.85656" lon="2.87687">
        <ele>77.04</ele>
        <time>2013-12-18T11:18:30Z</time>
      </trkpt>
      <trkpt lat="48.85652" lon="2.87692">
        <ele>78.48</ele>
        <time>2013-12-18T11:18:47Z</time>
      </trkpt>
      <trkpt lat="48.8565" lon="2.87693">
        <ele>78.48</ele>
        <time>2013-12-18T11:19:08Z</time>
      </trkpt>
      <trkpt lat="48.85648" lon="2.87695">
        <ele>77.04</ele>
        <time>2013-12-18T11:19:18Z</time>
      </trkpt>
      <trkpt lat="48.85648" lon="2.87698">
        <ele>75.6</ele>
        <time>2013-12-18T11:19:39Z</time>
      </trkpt>
      <trkpt lat="48.85648" lon="2.87699">
        <ele>73.2</ele>
        <time>2013-12-18T11:20:01Z</time>
      </trkpt>
      <trkpt lat="48.85648" lon="2.87701">
        <ele>72.24</ele>
        <time>2013-12-18T11:20:14Z</time>
      </trkpt>
      <trkpt lat="48.8565" lon="2.87708">
        <ele>74.16</ele>
        <time>2013-12-18T11:20:20Z</time>
      </trkpt>
      <trkpt lat="48.85656" lon="2.87727">
        <ele>81.37</ele>
        <time>2013-12-18T11:20:34Z</time>
      </trkpt>
      <trkpt lat="48.85656" lon="2.87735">
        <ele>86.18</ele>
        <time>2013-12-18T11:20:49Z</time>
      </trkpt>
      <trkpt lat="48.85651" lon="2.87746">
        <ele>87.62</ele>
        <time>2013-12-18T11:21:04Z</time>
      </trkpt>
      <trkpt lat="48.8565" lon="2.87768">
        <ele>89.06</ele>
        <time>2013-12-18T11:21:18Z</time>
      </trkpt>
      <trkpt lat="48.85653" lon="2.87782">
        <ele>88.58</ele>
        <time>2013-12-18T11:21:32Z</time>
      </trkpt>
      <trkpt lat="48.85657" lon="2.87804">
        <ele>90.98</ele>
        <time>2013-12-18T11:21:50Z</time>
      </trkpt>
      <trkpt lat="48.85656" lon="2.8781">
        <ele>93.87</ele>
        <time>2013-12-18T11:22:06Z</time>
      </trkpt>
      <trkpt lat="48.85652" lon="2.87837">
        <ele>90.5</ele>
        <time>2013-12-18T11:22:23Z</time>
      </trkpt>
      <trkpt lat="48.85647" lon="2.87837">
        <ele>87.62</ele>
        <time>2013-12-18T11:22:41Z</time>
      </trkpt>
      <trkpt lat="48.85642" lon="2.87834">
        <ele>86.18</ele>
        <time>2013-12-18T11:23:00Z</time>
      </trkpt>
      <trkpt lat="48.85632" lon="2.87827">
        <ele>87.62</ele>
        <time>2013-12-18T11:23:19Z</time>
      </trkpt>
      <trkpt lat="48.85618" lon="2.87809">
        <ele>88.58</ele>
        <time>2013-12-18T11:23:36Z</time>
      </trkpt>
      <trkpt lat="48.85612" lon="2.87789">
        <ele>88.1</ele>
        <time>2013-12-18T11:23:52Z</time>
      </trkpt>
      <trkpt lat="48.85597" lon="2.87777">
        <ele>92.9</ele>
        <time>2013-12-18T11:24:09Z</time>
      </trkpt>
      <trkpt lat="48.85578" lon="2.87758">
        <ele>92.42</ele>
        <time>2013-12-18T11:24:28Z</time>
      </trkpt>
      <trkpt lat="48.85564" lon="2.87736">
        <ele>95.79</ele>
        <time>2013-12-18T11:24:47Z</time>
      </trkpt>
      <trkpt lat="48.85553" lon="2.87729">
        <ele>99.15</ele>
        <time>2013-12-18T11:25:04Z</time>
      </trkpt>
      <trkpt lat="48.85552" lon="2.8772">
        <ele>100.11</ele>
        <time>2013-12-18T11:25:20Z</time>
      </trkpt>
      <trkpt lat="48.85548" lon="2.87715">
        <ele>100.11</ele>
        <time>2013-12-18T11:25:40Z</time>
      </trkpt>
      <trkpt lat="48.85531" lon="2.877">
        <ele>104.92</ele>
        <time>2013-12-18T11:25:56Z</time>
      </trkpt>
      <trkpt lat="48.85516" lon="2.87683">
        <ele>106.84</ele>
        <time>2013-12-18T11:26:13Z</time>
      </trkpt>
      <trkpt lat="48.85506" lon="2.87672">
        <ele>106.36</ele>
        <time>2013-12-18T11:26:32Z</time>
      </trkpt>
      <trkpt lat="48.85488" lon="2.87654">
        <ele>104.44</ele>
        <time>2013-12-18T11:26:48Z</time>
      </trkpt>
      <trkpt lat="48.85485" lon="2.87649">
        <ele>104.44</ele>
        <time>2013-12-18T11:26:51Z</time>
      </trkpt>
      <trkpt lat="48.85483" lon="2.87651">
        <ele>103.48</ele>
        <time>2013-12-18T11:27:10Z</time>
      </trkpt>
      <trkpt lat="48.85481" lon="2.87652">
        <ele>102.52</ele>
        <time>2013-12-18T11:27:35Z</time>
      </trkpt>
      <trkpt lat="48.85478" lon="2.87652">
        <ele>100.6</ele>
        <time>2013-12-18T11:27:50Z</time>
      </trkpt>
      <trkpt lat="48.85468" lon="2.87639">
        <ele>96.75</ele>
        <time>2013-12-18T11:28:04Z</time>
      </trkpt>
      <trkpt lat="48.85462" lon="2.87633">
        <ele>96.27</ele>
        <time>2013-12-18T11:28:11Z</time>
      </trkpt>
      <trkpt lat="48.85451" lon="2.87623">
        <ele>96.75</ele>
        <time>2013-12-18T11:28:27Z</time>
      </trkpt>
      <trkpt lat="48.8544" lon="2.87608">
        <ele>101.08</ele>
        <time>2013-12-18T11:28:45Z</time>
      </trkpt>
      <trkpt lat="48.85431" lon="2.87594">
        <ele>104.44</ele>
        <time>2013-12-18T11:29:01Z</time>
      </trkpt>
      <trkpt lat="48.8542" lon="2.87586">
        <ele>103.48</ele>
        <time>2013-12-18T11:29:16Z</time>
      </trkpt>
      <trkpt lat="48.85408" lon="2.87573">
        <ele>103.96</ele>
        <time>2013-12-18T11:29:32Z</time>
      </trkpt>
      <trkpt lat="48.85405" lon="2.87575">
        <ele>102.52</ele>
        <time>2013-12-18T11:29:52Z</time>
      </trkpt>
      <trkpt lat="48.85404" lon="2.87576">
        <ele>101.56</ele>
        <time>2013-12-18T11:30:15Z</time>
      </trkpt>
      <trkpt lat="48.85404" lon="2.87577">
        <ele>101.08</ele>
        <time>2013-12-18T11:30:39Z</time>
      </trkpt>
      <trkpt lat="48.854" lon="2.87579">
        <ele>100.6</ele>
        <time>2013-12-18T11:30:55Z</time>
      </trkpt>
      <trkpt lat="48.85396" lon="2.87579">
        <ele>99.63</ele>
        <time>2013-12-18T11:31:08Z</time>
      </trkpt>
      <trkpt lat="48.85394" lon="2.87583">
        <ele>102.04</ele>
        <time>2013-12-18T11:31:20Z</time>
      </trkpt>
      <trkpt lat="48.8539" lon="2.87602">
        <ele>107.81</ele>
        <time>2013-12-18T11:31:37Z</time>
      </trkpt>
      <trkpt lat="48.85384" lon="2.87624">
        <ele>111.65</ele>
        <time>2013-12-18T11:31:52Z</time>
      </trkpt>
      <trkpt lat="48.85379" lon="2.8765">
        <ele>113.57</ele>
        <time>2013-12-18T11:32:10Z</time>
      </trkpt>
      <trkpt lat="48.85376" lon="2.87666">
        <ele>115.98</ele>
        <time>2013-12-18T11:32:23Z</time>
      </trkpt>
      <trkpt lat="48.85372" lon="2.87691">
        <ele>118.38</ele>
        <time>2013-12-18T11:32:40Z</time>
      </trkpt>
      <trkpt lat="48.85371" lon="2.87694">
        <ele>118.86</ele>
        <time>2013-12-18T11:32:42Z</time>
      </trkpt>
      <trkpt lat="48.85368" lon="2.87715">
        <ele>119.82</ele>
        <time>2013-12-18T11:32:55Z</time>
      </trkpt>
      <trkpt lat="48.85366" lon="2.8772">
        <ele>119.34</ele>
        <time>2013-12-18T11:32:58Z</time>
      </trkpt>
      <trkpt lat="48.8536" lon="2.87744">
        <ele>115.01</ele>
        <time>2013-12-18T11:33:12Z</time>
      </trkpt>
      <trkpt lat="48.85357" lon="2.87767">
        <ele>111.65</ele>
        <time>2013-12-18T11:33:27Z</time>
      </trkpt>
      <trkpt lat="48.85352" lon="2.87795">
        <ele>108.77</ele>
        <time>2013-12-18T11:33:44Z</time>
      </trkpt>
      <trkpt lat="48.85351" lon="2.87809">
        <ele>109.25</ele>
        <time>2013-12-18T11:33:53Z</time>
      </trkpt>
      <trkpt lat="48.85347" lon="2.87832">
        <ele>111.65</ele>
        <time>2013-12-18T11:34:08Z</time>
      </trkpt>
      <trkpt lat="48.85345" lon="2.87858">
        <ele>111.17</ele>
        <time>2013-12-18T11:34:22Z</time>
      </trkpt>
      <trkpt lat="48.85344" lon="2.87863">
        <ele>111.17</ele>
        <time>2013-12-18T11:34:25Z</time>
      </trkpt>
      <trkpt lat="48.85344" lon="2.87877">
        <ele>111.17</ele>
        <time>2013-12-18T11:34:34Z</time>
      </trkpt>
      <trkpt lat="48.85338" lon="2.87898">
        <ele>110.21</ele>
        <time>2013-12-18T11:34:47Z</time>
      </trkpt>
      <trkpt lat="48.85335" lon="2.87918">
        <ele>112.61</ele>
        <time>2013-12-18T11:35:01Z</time>
      </trkpt>
      <trkpt lat="48.85333" lon="2.87927">
        <ele>113.57</ele>
        <time>2013-12-18T11:35:06Z</time>
      </trkpt>
      <trkpt lat="48.85328" lon="2.87954">
        <ele>114.53</ele>
        <time>2013-12-18T11:35:23Z</time>
      </trkpt>
      <trkpt lat="48.85321" lon="2.87979">
        <ele>112.61</ele>
        <time>2013-12-18T11:35:39Z</time>
      </trkpt>
      <trkpt lat="48.8532" lon="2.87993">
        <ele>110.21</ele>
        <time>2013-12-18T11:35:52Z</time>
      </trkpt>
      <trkpt lat="48.85318" lon="2.88">
        <ele>109.73</ele>
        <time>2013-12-18T11:36:05Z</time>
      </trkpt>
      <trkpt lat="48.85315" lon="2.88016">
        <ele>109.73</ele>
        <time>2013-12-18T11:36:21Z</time>
      </trkpt>
      <trkpt lat="48.85315" lon="2.88025">
        <ele>109.73</ele>
        <time>2013-12-18T11:36:34Z</time>
      </trkpt>
      <trkpt lat="48.85316" lon="2.88038">
        <ele>109.73</ele>
        <time>2013-12-18T11:36:48Z</time>
      </trkpt>
      <trkpt lat="48.85311" lon="2.88056">
        <ele>113.57</ele>
        <time>2013-12-18T11:37:06Z</time>
      </trkpt>
      <trkpt lat="48.85311" lon="2.88061">
        <ele>112.13</ele>
        <time>2013-12-18T11:37:20Z</time>
      </trkpt>
      <trkpt lat="48.85312" lon="2.88062">
        <ele>112.61</ele>
        <time>2013-12-18T11:37:45Z</time>
      </trkpt>
      <trkpt lat="48.85297" lon="2.88093">
        <ele>99.15</ele>
        <time>2013-12-18T12:27:44Z</time>
      </trkpt>
      <trkpt lat="48.85292" lon="2.88101">
        <ele>101.08</ele>
        <time>2013-12-18T12:28:00Z</time>
      </trkpt>
      <trkpt lat="48.85284" lon="2.88104">
        <ele>101.08</ele>
        <time>2013-12-18T12:28:15Z</time>
      </trkpt>
      <trkpt lat="48.85282" lon="2.88104">
        <ele>101.08</ele>
        <time>2013-12-18T12:28:17Z</time>
      </trkpt>
      <trkpt lat="48.85267" lon="2.881">
        <ele>102.52</ele>
        <time>2013-12-18T12:28:35Z</time>
      </trkpt>
      <trkpt lat="48.85253" lon="2.88094">
        <ele>102.52</ele>
        <time>2013-12-18T12:28:52Z</time>
      </trkpt>
      <trkpt lat="48.85248" lon="2.88092">
        <ele>102.52</ele>
        <time>2013-12-18T12:28:58Z</time>
      </trkpt>
      <trkpt lat="48.85233" lon="2.88087">
        <ele>102.52</ele>
        <time>2013-12-18T12:29:14Z</time>
      </trkpt>
      <trkpt lat="48.85215" lon="2.88084">
        <ele>104.92</ele>
        <time>2013-12-18T12:29:32Z</time>
      </trkpt>
      <trkpt lat="48.852" lon="2.88078">
        <ele>106.84</ele>
        <time>2013-12-18T12:29:48Z</time>
      </trkpt>
      <trkpt lat="48.85183" lon="2.88075">
        <ele>109.25</ele>
        <time>2013-12-18T12:30:06Z</time>
      </trkpt>
      <trkpt lat="48.85161" lon="2.88073">
        <ele>110.69</ele>
        <time>2013-12-18T12:30:27Z</time>
      </trkpt>
      <trkpt lat="48.85141" lon="2.88067">
        <ele>112.13</ele>
        <time>2013-12-18T12:30:45Z</time>
      </trkpt>
      <trkpt lat="48.85125" lon="2.88065">
        <ele>113.57</ele>
        <time>2013-12-18T12:31:00Z</time>
      </trkpt>
      <trkpt lat="48.85109" lon="2.88066">
        <ele>115.98</ele>
        <time>2013-12-18T12:31:16Z</time>
      </trkpt>
      <trkpt lat="48.85087" lon="2.8807">
        <ele>117.9</ele>
        <time>2013-12-18T12:31:35Z</time>
      </trkpt>
      <trkpt lat="48.85084" lon="2.88071">
        <ele>117.42</ele>
        <time>2013-12-18T12:31:39Z</time>
      </trkpt>
      <trkpt lat="48.85083" lon="2.88073">
        <ele>117.42</ele>
        <time>2013-12-18T12:31:41Z</time>
      </trkpt>
      <trkpt lat="48.85082" lon="2.88091">
        <ele>117.42</ele>
        <time>2013-12-18T12:31:53Z</time>
      </trkpt>
      <trkpt lat="48.85086" lon="2.8812">
        <ele>115.5</ele>
        <time>2013-12-18T12:32:11Z</time>
      </trkpt>
      <trkpt lat="48.8509" lon="2.88158">
        <ele>113.57</ele>
        <time>2013-12-18T12:32:34Z</time>
      </trkpt>
      <trkpt lat="48.85091" lon="2.88191">
        <ele>112.61</ele>
        <time>2013-12-18T12:32:53Z</time>
      </trkpt>
      <trkpt lat="48.85093" lon="2.88231">
        <ele>113.57</ele>
        <time>2013-12-18T12:33:15Z</time>
      </trkpt>
      <trkpt lat="48.85093" lon="2.88276">
        <ele>112.61</ele>
        <time>2013-12-18T12:33:39Z</time>
      </trkpt>
      <trkpt lat="48.85093" lon="2.88307">
        <ele>109.73</ele>
        <time>2013-12-18T12:33:58Z</time>
      </trkpt>
      <trkpt lat="48.85092" lon="2.88355">
        <ele>110.69</ele>
        <time>2013-12-18T12:34:24Z</time>
      </trkpt>
      <trkpt lat="48.8509" lon="2.88387">
        <ele>112.13</ele>
        <time>2013-12-18T12:34:41Z</time>
      </trkpt>
      <trkpt lat="48.85083" lon="2.88423">
        <ele>113.57</ele>
        <time>2013-12-18T12:35:01Z</time>
      </trkpt>
      <trkpt lat="48.85076" lon="2.88466">
        <ele>114.53</ele>
        <time>2013-12-18T12:35:24Z</time>
      </trkpt>
      <trkpt lat="48.85065" lon="2.88505">
        <ele>115.5</ele>
        <time>2013-12-18T12:35:44Z</time>
      </trkpt>
      <trkpt lat="48.85053" lon="2.88546">
        <ele>117.42</ele>
        <time>2013-12-18T12:36:07Z</time>
      </trkpt>
      <trkpt lat="48.85042" lon="2.88575">
        <ele>117.9</ele>
        <time>2013-12-18T12:36:27Z</time>
      </trkpt>
      <trkpt lat="48.85029" lon="2.8861">
        <ele>118.38</ele>
        <time>2013-12-18T12:36:47Z</time>
      </trkpt>
      <trkpt lat="48.85014" lon="2.88643">
        <ele>116.94</ele>
        <time>2013-12-18T12:37:07Z</time>
      </trkpt>
      <trkpt lat="48.85001" lon="2.88682">
        <ele>115.98</ele>
        <time>2013-12-18T12:37:29Z</time>
      </trkpt>
      <trkpt lat="48.84991" lon="2.88723">
        <ele>116.46</ele>
        <time>2013-12-18T12:37:51Z</time>
      </trkpt>
      <trkpt lat="48.8498" lon="2.8876">
        <ele>116.46</ele>
        <time>2013-12-18T12:38:11Z</time>
      </trkpt>
      <trkpt lat="48.84977" lon="2.88772">
        <ele>116.94</ele>
        <time>2013-12-18T12:38:23Z</time>
      </trkpt>
      <trkpt lat="48.84959" lon="2.88763">
        <ele>115.98</ele>
        <time>2013-12-18T12:38:40Z</time>
      </trkpt>
      <trkpt lat="48.84934" lon="2.88749">
        <ele>116.94</ele>
        <time>2013-12-18T12:39:03Z</time>
      </trkpt>
      <trkpt lat="48.84908" lon="2.88733">
        <ele>120.3</ele>
        <time>2013-12-18T12:39:26Z</time>
      </trkpt>
      <trkpt lat="48.84878" lon="2.88723">
        <ele>121.26</ele>
        <time>2013-12-18T12:39:50Z</time>
      </trkpt>
      <trkpt lat="48.84845" lon="2.8871">
        <ele>121.26</ele>
        <time>2013-12-18T12:40:17Z</time>
      </trkpt>
      <trkpt lat="48.84837" lon="2.88709">
        <ele>120.78</ele>
        <time>2013-12-18T12:40:23Z</time>
      </trkpt>
      <trkpt lat="48.84832" lon="2.88714">
        <ele>120.78</ele>
        <time>2013-12-18T12:40:28Z</time>
      </trkpt>
      <trkpt lat="48.8483" lon="2.88754">
        <ele>119.34</ele>
        <time>2013-12-18T12:40:48Z</time>
      </trkpt>
      <trkpt lat="48.84832" lon="2.88794">
        <ele>116.46</ele>
        <time>2013-12-18T12:41:12Z</time>
      </trkpt>
      <trkpt lat="48.84823" lon="2.88834">
        <ele>116.46</ele>
        <time>2013-12-18T12:41:34Z</time>
      </trkpt>
      <trkpt lat="48.84814" lon="2.8887">
        <ele>118.86</ele>
        <time>2013-12-18T12:41:53Z</time>
      </trkpt>
      <trkpt lat="48.84805" lon="2.88904">
        <ele>119.34</ele>
        <time>2013-12-18T12:42:13Z</time>
      </trkpt>
      <trkpt lat="48.84804" lon="2.8892">
        <ele>119.34</ele>
        <time>2013-12-18T12:42:29Z</time>
      </trkpt>
      <trkpt lat="48.84815" lon="2.88926">
        <ele>116.46</ele>
        <time>2013-12-18T12:42:42Z</time>
      </trkpt>
      <trkpt lat="48.84832" lon="2.88954">
        <ele>115.98</ele>
        <time>2013-12-18T12:43:05Z</time>
      </trkpt>
      <trkpt lat="48.84831" lon="2.88958">
        <ele>116.46</ele>
        <time>2013-12-18T12:43:07Z</time>
      </trkpt>
      <trkpt lat="48.84818" lon="2.88996">
        <ele>116.46</ele>
        <time>2013-12-18T12:43:29Z</time>
      </trkpt>
      <trkpt lat="48.84809" lon="2.89023">
        <ele>117.42</ele>
        <time>2013-12-18T12:43:46Z</time>
      </trkpt>
      <trkpt lat="48.84799" lon="2.89061">
        <ele>116.46</ele>
        <time>2013-12-18T12:44:08Z</time>
      </trkpt>
      <trkpt lat="48.84786" lon="2.891">
        <ele>116.46</ele>
        <time>2013-12-18T12:44:29Z</time>
      </trkpt>
      <trkpt lat="48.84778" lon="2.89131">
        <ele>114.05</ele>
        <time>2013-12-18T12:44:48Z</time>
      </trkpt>
      <trkpt lat="48.84769" lon="2.89164">
        <ele>112.61</ele>
        <time>2013-12-18T12:45:08Z</time>
      </trkpt>
      <trkpt lat="48.8476" lon="2.89203">
        <ele>112.61</ele>
        <time>2013-12-18T12:45:29Z</time>
      </trkpt>
      <trkpt lat="48.84754" lon="2.89235">
        <ele>111.17</ele>
        <time>2013-12-18T12:45:47Z</time>
      </trkpt>
      <trkpt lat="48.84744" lon="2.89268">
        <ele>110.21</ele>
        <time>2013-12-18T12:46:06Z</time>
      </trkpt>
      <trkpt lat="48.84737" lon="2.89303">
        <ele>107.32</ele>
        <time>2013-12-18T12:46:25Z</time>
      </trkpt>
      <trkpt lat="48.84734" lon="2.89312">
        <ele>106.84</ele>
        <time>2013-12-18T12:46:30Z</time>
      </trkpt>
      <trkpt lat="48.84726" lon="2.8934">
        <ele>107.32</ele>
        <time>2013-12-18T12:46:46Z</time>
      </trkpt>
      <trkpt lat="48.84719" lon="2.89378">
        <ele>109.73</ele>
        <time>2013-12-18T12:47:05Z</time>
      </trkpt>
      <trkpt lat="48.84713" lon="2.89402">
        <ele>111.65</ele>
        <time>2013-12-18T12:47:22Z</time>
      </trkpt>
      <trkpt lat="48.84705" lon="2.89424">
        <ele>112.13</ele>
        <time>2013-12-18T12:47:36Z</time>
      </trkpt>
      <trkpt lat="48.84694" lon="2.89452">
        <ele>114.53</ele>
        <time>2013-12-18T12:47:53Z</time>
      </trkpt>
      <trkpt lat="48.84691" lon="2.8946">
        <ele>115.01</ele>
        <time>2013-12-18T12:47:58Z</time>
      </trkpt>
      <trkpt lat="48.84687" lon="2.89466">
        <ele>115.5</ele>
        <time>2013-12-18T12:48:02Z</time>
      </trkpt>
      <trkpt lat="48.84681" lon="2.89477">
        <ele>117.9</ele>
        <time>2013-12-18T12:48:17Z</time>
      </trkpt>
      <trkpt lat="48.84681" lon="2.89476">
        <ele>118.38</ele>
        <time>2013-12-18T12:48:36Z</time>
      </trkpt>
      <trkpt lat="48.84681" lon="2.89476">
        <ele>117.9</ele>
        <time>2013-12-18T12:48:53Z</time>
      </trkpt>
      <trkpt lat="48.84682" lon="2.89477">
        <ele>116.46</ele>
        <time>2013-12-18T12:49:23Z</time>
      </trkpt>
      <trkpt lat="48.84682" lon="2.89477">
        <ele>115.98</ele>
        <time>2013-12-18T12:49:46Z</time>
      </trkpt>
      <trkpt lat="48.84682" lon="2.89477">
        <ele>115.5</ele>
        <time>2013-12-18T12:50:14Z</time>
      </trkpt>
      <trkpt lat="48.84682" lon="2.89477">
        <ele>115.5</ele>
        <time>2013-12-18T12:50:21Z</time>
      </trkpt>
      <trkpt lat="48.84664" lon="2.89493">
        <ele>115.98</ele>
        <time>2013-12-18T12:50:41Z</time>
      </trkpt>
      <trkpt lat="48.84644" lon="2.8951">
        <ele>116.46</ele>
        <time>2013-12-18T12:51:01Z</time>
      </trkpt>
      <trkpt lat="48.84624" lon="2.89519">
        <ele>116.46</ele>
        <time>2013-12-18T12:51:20Z</time>
      </trkpt>
      <trkpt lat="48.84601" lon="2.89519">
        <ele>115.98</ele>
        <time>2013-12-18T12:51:41Z</time>
      </trkpt>
      <trkpt lat="48.84587" lon="2.89524">
        <ele>117.9</ele>
        <time>2013-12-18T12:51:57Z</time>
      </trkpt>
      <trkpt lat="48.84586" lon="2.89525">
        <ele>117.42</ele>
        <time>2013-12-18T12:52:18Z</time>
      </trkpt>
      <trkpt lat="48.84588" lon="2.89527">
        <ele>116.46</ele>
        <time>2013-12-18T12:52:41Z</time>
      </trkpt>
      <trkpt lat="48.84588" lon="2.89528">
        <ele>116.94</ele>
        <time>2013-12-18T12:53:12Z</time>
      </trkpt>
      <trkpt lat="48.84588" lon="2.89528">
        <ele>116.94</ele>
        <time>2013-12-18T12:53:37Z</time>
      </trkpt>
      <trkpt lat="48.84589" lon="2.89528">
        <ele>117.42</ele>
        <time>2013-12-18T12:54:08Z</time>
      </trkpt>
      <trkpt lat="48.8459" lon="2.89528">
        <ele>117.9</ele>
        <time>2013-12-18T12:54:40Z</time>
      </trkpt>
      <trkpt lat="48.84589" lon="2.8954">
        <ele>118.38</ele>
        <time>2013-12-18T12:55:00Z</time>
      </trkpt>
      <trkpt lat="48.84589" lon="2.89555">
        <ele>117.9</ele>
        <time>2013-12-18T12:55:10Z</time>
      </trkpt>
      <trkpt lat="48.8459" lon="2.89588">
        <ele>116.46</ele>
        <time>2013-12-18T12:55:30Z</time>
      </trkpt>
      <trkpt lat="48.84587" lon="2.89603">
        <ele>115.01</ele>
        <time>2013-12-18T12:55:47Z</time>
      </trkpt>
      <trkpt lat="48.84587" lon="2.89603">
        <ele>115.98</ele>
        <time>2013-12-18T12:56:09Z</time>
      </trkpt>
      <trkpt lat="48.84587" lon="2.89604">
        <ele>116.46</ele>
        <time>2013-12-18T12:56:32Z</time>
      </trkpt>
      <trkpt lat="48.84586" lon="2.89604">
        <ele>117.42</ele>
        <time>2013-12-18T12:56:54Z</time>
      </trkpt>
      <trkpt lat="48.84586" lon="2.89605">
        <ele>117.42</ele>
        <time>2013-12-18T12:57:16Z</time>
      </trkpt>
      <trkpt lat="48.84586" lon="2.89606">
        <ele>117.9</ele>
        <time>2013-12-18T12:57:37Z</time>
      </trkpt>
      <trkpt lat="48.84584" lon="2.89614">
        <ele>118.86</ele>
        <time>2013-12-18T12:57:47Z</time>
      </trkpt>
      <trkpt lat="48.84578" lon="2.89632">
        <ele>120.78</ele>
        <time>2013-12-18T12:58:03Z</time>
      </trkpt>
      <trkpt lat="48.84573" lon="2.89646">
        <ele>122.22</ele>
        <time>2013-12-18T12:58:19Z</time>
      </trkpt>
      <trkpt lat="48.84567" lon="2.89662">
        <ele>123.67</ele>
        <time>2013-12-18T12:58:36Z</time>
      </trkpt>
      <trkpt lat="48.84561" lon="2.89692">
        <ele>122.22</ele>
        <time>2013-12-18T12:58:55Z</time>
      </trkpt>
      <trkpt lat="48.84555" lon="2.89719">
        <ele>120.3</ele>
        <time>2013-12-18T12:59:12Z</time>
      </trkpt>
      <trkpt lat="48.84553" lon="2.89747">
        <ele>117.9</ele>
        <time>2013-12-18T12:59:30Z</time>
      </trkpt>
      <trkpt lat="48.84551" lon="2.89773">
        <ele>118.86</ele>
        <time>2013-12-18T12:59:46Z</time>
      </trkpt>
      <trkpt lat="48.84551" lon="2.89792">
        <ele>120.3</ele>
        <time>2013-12-18T13:00:01Z</time>
      </trkpt>
      <trkpt lat="48.84552" lon="2.89828">
        <ele>118.86</ele>
        <time>2013-12-18T13:00:22Z</time>
      </trkpt>
      <trkpt lat="48.84551" lon="2.89857">
        <ele>116.94</ele>
        <time>2013-12-18T13:00:40Z</time>
      </trkpt>
      <trkpt lat="48.84551" lon="2.89882">
        <ele>116.94</ele>
        <time>2013-12-18T13:00:57Z</time>
      </trkpt>
      <trkpt lat="48.84551" lon="2.89907">
        <ele>118.38</ele>
        <time>2013-12-18T13:01:13Z</time>
      </trkpt>
      <trkpt lat="48.84551" lon="2.8994">
        <ele>118.38</ele>
        <time>2013-12-18T13:01:33Z</time>
      </trkpt>
      <trkpt lat="48.84553" lon="2.89968">
        <ele>115.5</ele>
        <time>2013-12-18T13:01:51Z</time>
      </trkpt>
      <trkpt lat="48.8456" lon="2.89998">
        <ele>115.98</ele>
        <time>2013-12-18T13:02:10Z</time>
      </trkpt>
      <trkpt lat="48.84567" lon="2.90036">
        <ele>118.86</ele>
        <time>2013-12-18T13:02:31Z</time>
      </trkpt>
      <trkpt lat="48.84577" lon="2.90063">
        <ele>118.86</ele>
        <time>2013-12-18T13:02:51Z</time>
      </trkpt>
      <trkpt lat="48.84587" lon="2.90087">
        <ele>119.34</ele>
        <time>2013-12-18T13:03:09Z</time>
      </trkpt>
      <trkpt lat="48.84602" lon="2.90115">
        <ele>121.26</ele>
        <time>2013-12-18T13:03:29Z</time>
      </trkpt>
      <trkpt lat="48.84607" lon="2.90126">
        <ele>120.3</ele>
        <time>2013-12-18T13:03:42Z</time>
      </trkpt>
      <trkpt lat="48.84617" lon="2.90149">
        <ele>118.86</ele>
        <time>2013-12-18T13:03:58Z</time>
      </trkpt>
      <trkpt lat="48.8463" lon="2.90173">
        <ele>116.94</ele>
        <time>2013-12-18T13:04:16Z</time>
      </trkpt>
      <trkpt lat="48.84643" lon="2.90195">
        <ele>116.46</ele>
        <time>2013-12-18T13:04:33Z</time>
      </trkpt>
      <trkpt lat="48.84656" lon="2.90216">
        <ele>111.17</ele>
        <time>2013-12-18T13:04:53Z</time>
      </trkpt>
      <trkpt lat="48.84667" lon="2.90248">
        <ele>108.77</ele>
        <time>2013-12-18T13:05:13Z</time>
      </trkpt>
      <trkpt lat="48.84677" lon="2.90279">
        <ele>111.17</ele>
        <time>2013-12-18T13:05:32Z</time>
      </trkpt>
      <trkpt lat="48.84682" lon="2.90318">
        <ele>112.61</ele>
        <time>2013-12-18T13:05:53Z</time>
      </trkpt>
      <trkpt lat="48.84682" lon="2.90331">
        <ele>112.61</ele>
        <time>2013-12-18T13:06:01Z</time>
      </trkpt>
      <trkpt lat="48.84674" lon="2.90367">
        <ele>115.01</ele>
        <time>2013-12-18T13:06:19Z</time>
      </trkpt>
      <trkpt lat="48.84662" lon="2.90395">
        <ele>115.98</ele>
        <time>2013-12-18T13:06:36Z</time>
      </trkpt>
      <trkpt lat="48.84671" lon="2.90416">
        <ele>115.01</ele>
        <time>2013-12-18T13:06:52Z</time>
      </trkpt>
      <trkpt lat="48.84683" lon="2.90431">
        <ele>112.61</ele>
        <time>2013-12-18T13:07:05Z</time>
      </trkpt>
      <trkpt lat="48.84707" lon="2.90456">
        <ele>109.73</ele>
        <time>2013-12-18T13:07:28Z</time>
      </trkpt>
      <trkpt lat="48.8473" lon="2.90486">
        <ele>108.29</ele>
        <time>2013-12-18T13:07:51Z</time>
      </trkpt>
      <trkpt lat="48.84727" lon="2.90504">
        <ele>109.25</ele>
        <time>2013-12-18T13:08:04Z</time>
      </trkpt>
      <trkpt lat="48.8471" lon="2.90528">
        <ele>111.65</ele>
        <time>2013-12-18T13:08:23Z</time>
      </trkpt>
      <trkpt lat="48.84697" lon="2.90547">
        <ele>111.17</ele>
        <time>2013-12-18T13:08:41Z</time>
      </trkpt>
      <trkpt lat="48.84689" lon="2.90558">
        <ele>110.21</ele>
        <time>2013-12-18T13:08:56Z</time>
      </trkpt>
      <trkpt lat="48.84676" lon="2.90573">
        <ele>110.21</ele>
        <time>2013-12-18T13:09:16Z</time>
      </trkpt>
      <trkpt lat="48.84667" lon="2.90585">
        <ele>109.25</ele>
        <time>2013-12-18T13:09:34Z</time>
      </trkpt>
      <trkpt lat="48.84658" lon="2.90597">
        <ele>107.32</ele>
        <time>2013-12-18T13:09:48Z</time>
      </trkpt>
      <trkpt lat="48.8465" lon="2.90602">
        <ele>105.88</ele>
        <time>2013-12-18T13:10:06Z</time>
      </trkpt>
      <trkpt lat="48.84636" lon="2.9061">
        <ele>103.48</ele>
        <time>2013-12-18T13:10:26Z</time>
      </trkpt>
      <trkpt lat="48.84626" lon="2.90618">
        <ele>102.52</ele>
        <time>2013-12-18T13:10:47Z</time>
      </trkpt>
      <trkpt lat="48.84615" lon="2.90624">
        <ele>100.6</ele>
        <time>2013-12-18T13:11:07Z</time>
      </trkpt>
      <trkpt lat="48.84592" lon="2.90632">
        <ele>97.23</ele>
        <time>2013-12-18T13:11:27Z</time>
      </trkpt>
      <trkpt lat="48.84583" lon="2.90635">
        <ele>95.31</ele>
        <time>2013-12-18T13:11:48Z</time>
      </trkpt>
      <trkpt lat="48.84581" lon="2.90635">
        <ele>95.31</ele>
        <time>2013-12-18T13:12:11Z</time>
      </trkpt>
      <trkpt lat="48.8458" lon="2.90635">
        <ele>95.79</ele>
        <time>2013-12-18T13:12:38Z</time>
      </trkpt>
      <trkpt lat="48.8458" lon="2.90635">
        <ele>95.31</ele>
        <time>2013-12-18T13:13:04Z</time>
      </trkpt>
      <trkpt lat="48.84569" lon="2.90625">
        <ele>95.79</ele>
        <time>2013-12-18T13:13:25Z</time>
      </trkpt>
      <trkpt lat="48.84545" lon="2.90609">
        <ele>94.83</ele>
        <time>2013-12-18T13:13:47Z</time>
      </trkpt>
      <trkpt lat="48.84523" lon="2.90595">
        <ele>93.87</ele>
        <time>2013-12-18T13:14:08Z</time>
      </trkpt>
      <trkpt lat="48.84506" lon="2.90584">
        <ele>91.94</ele>
        <time>2013-12-18T13:14:30Z</time>
      </trkpt>
      <trkpt lat="48.84493" lon="2.90598">
        <ele>90.98</ele>
        <time>2013-12-18T13:14:51Z</time>
      </trkpt>
      <trkpt lat="48.84481" lon="2.90619">
        <ele>89.54</ele>
        <time>2013-12-18T13:15:10Z</time>
      </trkpt>
      <trkpt lat="48.84471" lon="2.90639">
        <ele>85.21</ele>
        <time>2013-12-18T13:15:31Z</time>
      </trkpt>
      <trkpt lat="48.84456" lon="2.90651">
        <ele>80.89</ele>
        <time>2013-12-18T13:15:50Z</time>
      </trkpt>
      <trkpt lat="48.84442" lon="2.90669">
        <ele>76.56</ele>
        <time>2013-12-18T13:16:11Z</time>
      </trkpt>
      <trkpt lat="48.84438" lon="2.90672">
        <ele>75.6</ele>
        <time>2013-12-18T13:16:29Z</time>
      </trkpt>
      <trkpt lat="48.84435" lon="2.90674">
        <ele>74.64</ele>
        <time>2013-12-18T13:16:55Z</time>
      </trkpt>
      <trkpt lat="48.8443" lon="2.90683">
        <ele>73.68</ele>
        <time>2013-12-18T13:17:12Z</time>
      </trkpt>
      <trkpt lat="48.84424" lon="2.90694">
        <ele>73.2</ele>
        <time>2013-12-18T13:17:30Z</time>
      </trkpt>
      <trkpt lat="48.84436" lon="2.90704">
        <ele>70.31</ele>
        <time>2013-12-18T13:17:48Z</time>
      </trkpt>
      <trkpt lat="48.84462" lon="2.90715">
        <ele>66.95</ele>
        <time>2013-12-18T13:18:11Z</time>
      </trkpt>
      <trkpt lat="48.84474" lon="2.90737">
        <ele>66.47</ele>
        <time>2013-12-18T13:18:33Z</time>
      </trkpt>
      <trkpt lat="48.84476" lon="2.90748">
        <ele>65.99</ele>
        <time>2013-12-18T13:18:53Z</time>
      </trkpt>
      <trkpt lat="48.84482" lon="2.90767">
        <ele>63.1</ele>
        <time>2013-12-18T13:19:13Z</time>
      </trkpt>
      <trkpt lat="48.8448" lon="2.90791">
        <ele>60.22</ele>
        <time>2013-12-18T13:19:33Z</time>
      </trkpt>
      <trkpt lat="48.84487" lon="2.90813">
        <ele>55.41</ele>
        <time>2013-12-18T13:19:52Z</time>
      </trkpt>
      <trkpt lat="48.84498" lon="2.90837">
        <ele>51.57</ele>
        <time>2013-12-18T13:20:12Z</time>
      </trkpt>
      <trkpt lat="48.84505" lon="2.90847">
        <ele>50.61</ele>
        <time>2013-12-18T13:20:30Z</time>
      </trkpt>
      <trkpt lat="48.8451" lon="2.90859">
        <ele>48.68</ele>
        <time>2013-12-18T13:20:48Z</time>
      </trkpt>
      <trkpt lat="48.84512" lon="2.90863">
        <ele>48.2</ele>
        <time>2013-12-18T13:21:10Z</time>
      </trkpt>
      <trkpt lat="48.84521" lon="2.90867">
        <ele>49.65</ele>
        <time>2013-12-18T13:21:26Z</time>
      </trkpt>
      <trkpt lat="48.84529" lon="2.90867">
        <ele>55.89</ele>
        <time>2013-12-18T13:21:52Z</time>
      </trkpt>
      <trkpt lat="48.8453" lon="2.90867">
        <ele>56.86</ele>
        <time>2013-12-18T13:22:12Z</time>
      </trkpt>
      <trkpt lat="48.84528" lon="2.9087">
        <ele>57.82</ele>
        <time>2013-12-18T13:22:33Z</time>
      </trkpt>
      <trkpt lat="48.84524" lon="2.90883">
        <ele>59.26</ele>
        <time>2013-12-18T13:22:50Z</time>
      </trkpt>
      <trkpt lat="48.84528" lon="2.90905">
        <ele>56.86</ele>
        <time>2013-12-18T13:23:10Z</time>
      </trkpt>
      <trkpt lat="48.84533" lon="2.9093">
        <ele>53.01</ele>
        <time>2013-12-18T13:23:28Z</time>
      </trkpt>
      <trkpt lat="48.84533" lon="2.90936">
        <ele>52.05</ele>
        <time>2013-12-18T13:23:50Z</time>
      </trkpt>
      <trkpt lat="48.84534" lon="2.90945">
        <ele>51.09</ele>
        <time>2013-12-18T13:24:11Z</time>
      </trkpt>
      <trkpt lat="48.84542" lon="2.90974">
        <ele>49.65</ele>
        <time>2013-12-18T13:24:31Z</time>
      </trkpt>
      <trkpt lat="48.84546" lon="2.91002">
        <ele>48.2</ele>
        <time>2013-12-18T13:24:51Z</time>
      </trkpt>
      <trkpt lat="48.84551" lon="2.91029">
        <ele>46.76</ele>
        <time>2013-12-18T13:25:09Z</time>
      </trkpt>
      <trkpt lat="48.84558" lon="2.91056">
        <ele>45.8</ele>
        <time>2013-12-18T13:25:28Z</time>
      </trkpt>
      <trkpt lat="48.84558" lon="2.91057">
        <ele>45.8</ele>
        <time>2013-12-18T13:25:29Z</time>
      </trkpt>
      <trkpt lat="48.84561" lon="2.9109">
        <ele>44.36</ele>
        <time>2013-12-18T13:25:48Z</time>
      </trkpt>
      <trkpt lat="48.8456" lon="2.91111">
        <ele>41.95</ele>
        <time>2013-12-18T13:26:06Z</time>
      </trkpt>
      <trkpt lat="48.8456" lon="2.91112">
        <ele>43.4</ele>
        <time>2013-12-18T13:26:31Z</time>
      </trkpt>
      <trkpt lat="48.8456" lon="2.91112">
        <ele>43.88</ele>
        <time>2013-12-18T13:27:01Z</time>
      </trkpt>
      <trkpt lat="48.84559" lon="2.91113">
        <ele>42.92</ele>
        <time>2013-12-18T13:27:27Z</time>
      </trkpt>
      <trkpt lat="48.84561" lon="2.91114">
        <ele>40.99</ele>
        <time>2013-12-18T13:27:56Z</time>
      </trkpt>
      <trkpt lat="48.84561" lon="2.91113">
        <ele>40.99</ele>
        <time>2013-12-18T13:28:25Z</time>
      </trkpt>
      <trkpt lat="48.84571" lon="2.91124">
        <ele>40.51</ele>
        <time>2013-12-18T13:28:46Z</time>
      </trkpt>
      <trkpt lat="48.84583" lon="2.91145">
        <ele>39.55</ele>
        <time>2013-12-18T13:29:06Z</time>
      </trkpt>
      <trkpt lat="48.84595" lon="2.91164">
        <ele>38.11</ele>
        <time>2013-12-18T13:29:25Z</time>
      </trkpt>
      <trkpt lat="48.84608" lon="2.91188">
        <ele>37.63</ele>
        <time>2013-12-18T13:29:45Z</time>
      </trkpt>
      <trkpt lat="48.84623" lon="2.91214">
        <ele>35.23</ele>
        <time>2013-12-18T13:30:07Z</time>
      </trkpt>
      <trkpt lat="48.84635" lon="2.91243">
        <ele>33.78</ele>
        <time>2013-12-18T13:30:29Z</time>
      </trkpt>
      <trkpt lat="48.84642" lon="2.91281">
        <ele>40.03</ele>
        <time>2013-12-18T13:30:50Z</time>
      </trkpt>
      <trkpt lat="48.84636" lon="2.91296">
        <ele>42.92</ele>
        <time>2013-12-18T13:31:08Z</time>
      </trkpt>
      <trkpt lat="48.8463" lon="2.913">
        <ele>43.4</ele>
        <time>2013-12-18T13:31:16Z</time>
      </trkpt>
      <trkpt lat="48.84619" lon="2.91305">
        <ele>43.4</ele>
        <time>2013-12-18T13:31:32Z</time>
      </trkpt>
      <trkpt lat="48.84607" lon="2.91311">
        <ele>43.4</ele>
        <time>2013-12-18T13:31:47Z</time>
      </trkpt>
      <trkpt lat="48.84593" lon="2.91315">
        <ele>42.44</ele>
        <time>2013-12-18T13:32:04Z</time>
      </trkpt>
      <trkpt lat="48.84577" lon="2.91315">
        <ele>41.95</ele>
        <time>2013-12-18T13:32:20Z</time>
      </trkpt>
      <trkpt lat="48.84568" lon="2.9131">
        <ele>41.47</ele>
        <time>2013-12-18T13:32:29Z</time>
      </trkpt>
      <trkpt lat="48.84549" lon="2.91293">
        <ele>40.99</ele>
        <time>2013-12-18T13:32:49Z</time>
      </trkpt>
      <trkpt lat="48.84531" lon="2.91274">
        <ele>40.03</ele>
        <time>2013-12-18T13:33:10Z</time>
      </trkpt>
      <trkpt lat="48.8451" lon="2.91262">
        <ele>39.07</ele>
        <time>2013-12-18T13:33:31Z</time>
      </trkpt>
      <trkpt lat="48.845" lon="2.91263">
        <ele>39.07</ele>
        <time>2013-12-18T13:33:49Z</time>
      </trkpt>
      <trkpt lat="48.84499" lon="2.91262">
        <ele>40.99</ele>
        <time>2013-12-18T13:34:20Z</time>
      </trkpt>
      <trkpt lat="48.84495" lon="2.91254">
        <ele>40.51</ele>
        <time>2013-12-18T13:34:36Z</time>
      </trkpt>
      <trkpt lat="48.84491" lon="2.91249">
        <ele>40.51</ele>
        <time>2013-12-18T13:34:40Z</time>
      </trkpt>
      <trkpt lat="48.84481" lon="2.91223">
        <ele>39.55</ele>
        <time>2013-12-18T13:34:58Z</time>
      </trkpt>
      <trkpt lat="48.8447" lon="2.912">
        <ele>39.55</ele>
        <time>2013-12-18T13:35:16Z</time>
      </trkpt>
      <trkpt lat="48.84453" lon="2.91192">
        <ele>38.11</ele>
        <time>2013-12-18T13:35:34Z</time>
      </trkpt>
      <trkpt lat="48.84434" lon="2.9119">
        <ele>38.59</ele>
        <time>2013-12-18T13:35:53Z</time>
      </trkpt>
      <trkpt lat="48.84413" lon="2.91188">
        <ele>37.63</ele>
        <time>2013-12-18T13:36:15Z</time>
      </trkpt>
      <trkpt lat="48.84405" lon="2.91187">
        <ele>37.63</ele>
        <time>2013-12-18T13:36:33Z</time>
      </trkpt>
      <trkpt lat="48.84405" lon="2.91188">
        <ele>37.63</ele>
        <time>2013-12-18T13:36:56Z</time>
      </trkpt>
      <trkpt lat="48.844" lon="2.91188">
        <ele>39.07</ele>
        <time>2013-12-18T13:37:27Z</time>
      </trkpt>
      <trkpt lat="48.8439" lon="2.91188">
        <ele>40.03</ele>
        <time>2013-12-18T13:37:44Z</time>
      </trkpt>
      <trkpt lat="48.84382" lon="2.91187">
        <ele>40.03</ele>
        <time>2013-12-18T13:38:01Z</time>
      </trkpt>
      <trkpt lat="48.84379" lon="2.91187">
        <ele>39.07</ele>
        <time>2013-12-18T13:38:16Z</time>
      </trkpt>
      <trkpt lat="48.84359" lon="2.91182">
        <ele>38.11</ele>
        <time>2013-12-18T13:38:33Z</time>
      </trkpt>
      <trkpt lat="48.84341" lon="2.9118">
        <ele>37.15</ele>
        <time>2013-12-18T13:38:51Z</time>
      </trkpt>
      <trkpt lat="48.84319" lon="2.91179">
        <ele>34.74</ele>
        <time>2013-12-18T13:39:10Z</time>
      </trkpt>
      <trkpt lat="48.84305" lon="2.91181">
        <ele>33.78</ele>
        <time>2013-12-18T13:39:29Z</time>
      </trkpt>
      <trkpt lat="48.84285" lon="2.91172">
        <ele>30.9</ele>
        <time>2013-12-18T13:39:48Z</time>
      </trkpt>
      <trkpt lat="48.84271" lon="2.91165">
        <ele>31.86</ele>
        <time>2013-12-18T13:40:10Z</time>
      </trkpt>
      <trkpt lat="48.84258" lon="2.91158">
        <ele>34.74</ele>
        <time>2013-12-18T13:40:26Z</time>
      </trkpt>
      <trkpt lat="48.84239" lon="2.91147">
        <ele>34.74</ele>
        <time>2013-12-18T13:40:44Z</time>
      </trkpt>
      <trkpt lat="48.84228" lon="2.91137">
        <ele>35.23</ele>
        <time>2013-12-18T13:41:05Z</time>
      </trkpt>
      <trkpt lat="48.8421" lon="2.91128">
        <ele>36.19</ele>
        <time>2013-12-18T13:41:23Z</time>
      </trkpt>
      <trkpt lat="48.84204" lon="2.91144">
        <ele>36.67</ele>
        <time>2013-12-18T13:41:38Z</time>
      </trkpt>
      <trkpt lat="48.84202" lon="2.91158">
        <ele>39.55</ele>
        <time>2013-12-18T13:41:55Z</time>
      </trkpt>
      <trkpt lat="48.84201" lon="2.9118">
        <ele>41.47</ele>
        <time>2013-12-18T13:42:14Z</time>
      </trkpt>
      <trkpt lat="48.84202" lon="2.91203">
        <ele>42.92</ele>
        <time>2013-12-18T13:42:31Z</time>
      </trkpt>
      <trkpt lat="48.84201" lon="2.91224">
        <ele>43.88</ele>
        <time>2013-12-18T13:42:50Z</time>
      </trkpt>
      <trkpt lat="48.84201" lon="2.91225">
        <ele>43.88</ele>
        <time>2013-12-18T13:43:16Z</time>
      </trkpt>
      <trkpt lat="48.84199" lon="2.91239">
        <ele>44.84</ele>
        <time>2013-12-18T13:43:31Z</time>
      </trkpt>
      <trkpt lat="48.84197" lon="2.91256">
        <ele>44.36</ele>
        <time>2013-12-18T13:43:43Z</time>
      </trkpt>
      <trkpt lat="48.84193" lon="2.91289">
        <ele>43.88</ele>
        <time>2013-12-18T13:44:05Z</time>
      </trkpt>
      <trkpt lat="48.84189" lon="2.91321">
        <ele>47.24</ele>
        <time>2013-12-18T13:44:26Z</time>
      </trkpt>
      <trkpt lat="48.84193" lon="2.91337">
        <ele>45.32</ele>
        <time>2013-12-18T13:44:44Z</time>
      </trkpt>
      <trkpt lat="48.84197" lon="2.91339">
        <ele>45.32</ele>
        <time>2013-12-18T13:45:01Z</time>
      </trkpt>
      <trkpt lat="48.84219" lon="2.91344">
        <ele>45.8</ele>
        <time>2013-12-18T13:45:23Z</time>
      </trkpt>
      <trkpt lat="48.84229" lon="2.91345">
        <ele>45.8</ele>
        <time>2013-12-18T13:45:31Z</time>
      </trkpt>
      <trkpt lat="48.84225" lon="2.91374">
        <ele>48.2</ele>
        <time>2013-12-18T13:45:47Z</time>
      </trkpt>
      <trkpt lat="48.84214" lon="2.91412">
        <ele>50.13</ele>
        <time>2013-12-18T13:46:11Z</time>
      </trkpt>
      <trkpt lat="48.84203" lon="2.9145">
        <ele>50.13</ele>
        <time>2013-12-18T13:46:35Z</time>
      </trkpt>
      <trkpt lat="48.84193" lon="2.91476">
        <ele>50.13</ele>
        <time>2013-12-18T13:46:53Z</time>
      </trkpt>
      <trkpt lat="48.84182" lon="2.91506">
        <ele>53.01</ele>
        <time>2013-12-18T13:47:12Z</time>
      </trkpt>
      <trkpt lat="48.84176" lon="2.91531">
        <ele>49.16</ele>
        <time>2013-12-18T13:47:31Z</time>
      </trkpt>
      <trkpt lat="48.84173" lon="2.91562">
        <ele>47.72</ele>
        <time>2013-12-18T13:47:50Z</time>
      </trkpt>
      <trkpt lat="48.84161" lon="2.91584">
        <ele>49.65</ele>
        <time>2013-12-18T13:48:07Z</time>
      </trkpt>
      <trkpt lat="48.84155" lon="2.9159">
        <ele>49.65</ele>
        <time>2013-12-18T13:48:14Z</time>
      </trkpt>
      <trkpt lat="48.84142" lon="2.91604">
        <ele>51.09</ele>
        <time>2013-12-18T13:48:30Z</time>
      </trkpt>
      <trkpt lat="48.84127" lon="2.91607">
        <ele>51.09</ele>
        <time>2013-12-18T13:48:46Z</time>
      </trkpt>
      <trkpt lat="48.84114" lon="2.91605">
        <ele>50.13</ele>
        <time>2013-12-18T13:49:00Z</time>
      </trkpt>
      <trkpt lat="48.84107" lon="2.91601">
        <ele>51.09</ele>
        <time>2013-12-18T13:49:14Z</time>
      </trkpt>
      <trkpt lat="48.84102" lon="2.91606">
        <ele>50.61</ele>
        <time>2013-12-18T13:49:31Z</time>
      </trkpt>
      <trkpt lat="48.84099" lon="2.91606">
        <ele>51.09</ele>
        <time>2013-12-18T13:49:45Z</time>
      </trkpt>
      <trkpt lat="48.84104" lon="2.91604">
        <ele>51.57</ele>
        <time>2013-12-18T13:50:08Z</time>
      </trkpt>
      <trkpt lat="48.84105" lon="2.91604">
        <ele>53.01</ele>
        <time>2013-12-18T13:50:36Z</time>
      </trkpt>
      <trkpt lat="48.84105" lon="2.91603">
        <ele>53.01</ele>
        <time>2013-12-18T13:51:02Z</time>
      </trkpt>
      <trkpt lat="48.84106" lon="2.91601">
        <ele>53.97</ele>
        <time>2013-12-18T13:51:35Z</time>
      </trkpt>
      <trkpt lat="48.84106" lon="2.91601">
        <ele>53.97</ele>
        <time>2013-12-18T13:52:02Z</time>
      </trkpt>
      <trkpt lat="48.84106" lon="2.91601">
        <ele>53.97</ele>
        <time>2013-12-18T13:52:33Z</time>
      </trkpt>
      <trkpt lat="48.84106" lon="2.91601">
        <ele>53.97</ele>
        <time>2013-12-18T13:53:03Z</time>
      </trkpt>
      <trkpt lat="48.84106" lon="2.916">
        <ele>53.49</ele>
        <time>2013-12-18T13:53:28Z</time>
      </trkpt>
      <trkpt lat="48.84116" lon="2.91607">
        <ele>52.05</ele>
        <time>2013-12-18T13:53:48Z</time>
      </trkpt>
      <trkpt lat="48.84127" lon="2.91607">
        <ele>52.05</ele>
        <time>2013-12-18T13:53:58Z</time>
      </trkpt>
      <trkpt lat="48.84149" lon="2.91598">
        <ele>50.61</ele>
        <time>2013-12-18T13:54:22Z</time>
      </trkpt>
      <trkpt lat="48.84171" lon="2.91567">
        <ele>48.68</ele>
        <time>2013-12-18T13:54:49Z</time>
      </trkpt>
      <trkpt lat="48.84175" lon="2.91547">
        <ele>48.68</ele>
        <time>2013-12-18T13:55:00Z</time>
      </trkpt>
      <trkpt lat="48.84182" lon="2.91509">
        <ele>50.13</ele>
        <time>2013-12-18T13:55:22Z</time>
      </trkpt>
      <trkpt lat="48.84192" lon="2.91478">
        <ele>50.61</ele>
        <time>2013-12-18T13:55:42Z</time>
      </trkpt>
      <trkpt lat="48.84206" lon="2.91443">
        <ele>47.72</ele>
        <time>2013-12-18T13:56:05Z</time>
      </trkpt>
      <trkpt lat="48.84217" lon="2.91405">
        <ele>45.8</ele>
        <time>2013-12-18T13:56:27Z</time>
      </trkpt>
      <trkpt lat="48.84225" lon="2.91371">
        <ele>43.88</ele>
        <time>2013-12-18T13:56:49Z</time>
      </trkpt>
      <trkpt lat="48.84231" lon="2.91346">
        <ele>44.84</ele>
        <time>2013-12-18T13:57:07Z</time>
      </trkpt>
      <trkpt lat="48.84245" lon="2.91335">
        <ele>40.99</ele>
        <time>2013-12-18T13:57:29Z</time>
      </trkpt>
      <trkpt lat="48.84257" lon="2.91327">
        <ele>40.99</ele>
        <time>2013-12-18T13:57:41Z</time>
      </trkpt>
      <trkpt lat="48.84285" lon="2.91316">
        <ele>40.99</ele>
        <time>2013-12-18T13:58:07Z</time>
      </trkpt>
      <trkpt lat="48.84311" lon="2.91315">
        <ele>39.07</ele>
        <time>2013-12-18T13:58:30Z</time>
      </trkpt>
      <trkpt lat="48.84318" lon="2.91315">
        <ele>39.55</ele>
        <time>2013-12-18T13:58:37Z</time>
      </trkpt>
      <trkpt lat="48.8435" lon="2.91319">
        <ele>39.55</ele>
        <time>2013-12-18T13:59:04Z</time>
      </trkpt>
      <trkpt lat="48.84371" lon="2.91316">
        <ele>40.03</ele>
        <time>2013-12-18T13:59:24Z</time>
      </trkpt>
      <trkpt lat="48.84392" lon="2.9131">
        <ele>40.03</ele>
        <time>2013-12-18T13:59:45Z</time>
      </trkpt>
      <trkpt lat="48.84418" lon="2.91301">
        <ele>40.51</ele>
        <time>2013-12-18T14:00:08Z</time>
      </trkpt>
      <trkpt lat="48.84445" lon="2.9129">
        <ele>40.51</ele>
        <time>2013-12-18T14:00:32Z</time>
      </trkpt>
      <trkpt lat="48.84461" lon="2.91281">
        <ele>40.03</ele>
        <time>2013-12-18T14:00:49Z</time>
      </trkpt>
      <trkpt lat="48.84478" lon="2.91273">
        <ele>37.63</ele>
        <time>2013-12-18T14:01:10Z</time>
      </trkpt>
      <trkpt lat="48.845" lon="2.91266">
        <ele>37.15</ele>
        <time>2013-12-18T14:01:29Z</time>
      </trkpt>
      <trkpt lat="48.84516" lon="2.91266">
        <ele>36.67</ele>
        <time>2013-12-18T14:01:43Z</time>
      </trkpt>
      <trkpt lat="48.84534" lon="2.91279">
        <ele>37.15</ele>
        <time>2013-12-18T14:02:02Z</time>
      </trkpt>
      <trkpt lat="48.84556" lon="2.91302">
        <ele>40.03</ele>
        <time>2013-12-18T14:02:23Z</time>
      </trkpt>
      <trkpt lat="48.84583" lon="2.91317">
        <ele>38.59</ele>
        <time>2013-12-18T14:02:48Z</time>
      </trkpt>
      <trkpt lat="48.84605" lon="2.91318">
        <ele>39.07</ele>
        <time>2013-12-18T14:03:09Z</time>
      </trkpt>
      <trkpt lat="48.84619" lon="2.91309">
        <ele>39.07</ele>
        <time>2013-12-18T14:03:25Z</time>
      </trkpt>
      <trkpt lat="48.84633" lon="2.913">
        <ele>39.07</ele>
        <time>2013-12-18T14:03:42Z</time>
      </trkpt>
      <trkpt lat="48.84639" lon="2.91301">
        <ele>39.55</ele>
        <time>2013-12-18T14:03:50Z</time>
      </trkpt>
      <trkpt lat="48.84654" lon="2.91334">
        <ele>38.11</ele>
        <time>2013-12-18T14:04:14Z</time>
      </trkpt>
      <trkpt lat="48.84659" lon="2.91369">
        <ele>41.47</ele>
        <time>2013-12-18T14:04:32Z</time>
      </trkpt>
      <trkpt lat="48.84665" lon="2.91404">
        <ele>40.51</ele>
        <time>2013-12-18T14:04:55Z</time>
      </trkpt>
      <trkpt lat="48.84672" lon="2.91439">
        <ele>41.95</ele>
        <time>2013-12-18T14:05:17Z</time>
      </trkpt>
      <trkpt lat="48.84671" lon="2.91444">
        <ele>41.47</ele>
        <time>2013-12-18T14:05:36Z</time>
      </trkpt>
      <trkpt lat="48.84666" lon="2.91479">
        <ele>40.51</ele>
        <time>2013-12-18T14:05:58Z</time>
      </trkpt>
      <trkpt lat="48.84666" lon="2.91482">
        <ele>40.99</ele>
        <time>2013-12-18T14:05:59Z</time>
      </trkpt>
      <trkpt lat="48.8467" lon="2.91518">
        <ele>40.03</ele>
        <time>2013-12-18T14:06:20Z</time>
      </trkpt>
      <trkpt lat="48.84673" lon="2.91547">
        <ele>39.55</ele>
        <time>2013-12-18T14:06:38Z</time>
      </trkpt>
      <trkpt lat="48.84676" lon="2.91593">
        <ele>38.59</ele>
        <time>2013-12-18T14:07:02Z</time>
      </trkpt>
      <trkpt lat="48.84678" lon="2.91637">
        <ele>37.63</ele>
        <time>2013-12-18T14:07:29Z</time>
      </trkpt>
      <trkpt lat="48.84678" lon="2.91673">
        <ele>39.55</ele>
        <time>2013-12-18T14:07:52Z</time>
      </trkpt>
      <trkpt lat="48.8468" lon="2.91704">
        <ele>40.99</ele>
        <time>2013-12-18T14:08:12Z</time>
      </trkpt>
      <trkpt lat="48.84681" lon="2.91739">
        <ele>41.47</ele>
        <time>2013-12-18T14:08:34Z</time>
      </trkpt>
      <trkpt lat="48.84681" lon="2.91774">
        <ele>40.99</ele>
        <time>2013-12-18T14:08:55Z</time>
      </trkpt>
      <trkpt lat="48.84684" lon="2.91812">
        <ele>41.47</ele>
        <time>2013-12-18T14:09:18Z</time>
      </trkpt>
      <trkpt lat="48.84686" lon="2.91848">
        <ele>40.99</ele>
        <time>2013-12-18T14:09:40Z</time>
      </trkpt>
      <trkpt lat="48.8469" lon="2.91888">
        <ele>40.51</ele>
        <time>2013-12-18T14:10:04Z</time>
      </trkpt>
      <trkpt lat="48.84694" lon="2.91923">
        <ele>39.07</ele>
        <time>2013-12-18T14:10:26Z</time>
      </trkpt>
      <trkpt lat="48.84698" lon="2.91954">
        <ele>39.07</ele>
        <time>2013-12-18T14:10:47Z</time>
      </trkpt>
      <trkpt lat="48.84701" lon="2.9198">
        <ele>38.11</ele>
        <time>2013-12-18T14:11:04Z</time>
      </trkpt>
      <trkpt lat="48.84708" lon="2.92024">
        <ele>39.07</ele>
        <time>2013-12-18T14:11:29Z</time>
      </trkpt>
      <trkpt lat="48.84716" lon="2.92062">
        <ele>38.11</ele>
        <time>2013-12-18T14:11:51Z</time>
      </trkpt>
      <trkpt lat="48.84723" lon="2.92095">
        <ele>38.11</ele>
        <time>2013-12-18T14:12:11Z</time>
      </trkpt>
      <trkpt lat="48.8473" lon="2.92129">
        <ele>39.07</ele>
        <time>2013-12-18T14:12:33Z</time>
      </trkpt>
      <trkpt lat="48.84739" lon="2.92159">
        <ele>38.59</ele>
        <time>2013-12-18T14:12:53Z</time>
      </trkpt>
      <trkpt lat="48.84746" lon="2.92174">
        <ele>38.59</ele>
        <time>2013-12-18T14:13:04Z</time>
      </trkpt>
      <trkpt lat="48.84752" lon="2.92188">
        <ele>39.07</ele>
        <time>2013-12-18T14:13:21Z</time>
      </trkpt>
      <trkpt lat="48.84755" lon="2.92199">
        <ele>38.59</ele>
        <time>2013-12-18T14:13:35Z</time>
      </trkpt>
      <trkpt lat="48.84767" lon="2.92235">
        <ele>38.11</ele>
        <time>2013-12-18T14:13:55Z</time>
      </trkpt>
      <trkpt lat="48.8477" lon="2.92265">
        <ele>36.19</ele>
        <time>2013-12-18T14:14:15Z</time>
      </trkpt>
      <trkpt lat="48.84772" lon="2.9229">
        <ele>36.19</ele>
        <time>2013-12-18T14:14:30Z</time>
      </trkpt>
      <trkpt lat="48.84774" lon="2.92323">
        <ele>34.26</ele>
        <time>2013-12-18T14:14:50Z</time>
      </trkpt>
      <trkpt lat="48.84775" lon="2.92337">
        <ele>33.78</ele>
        <time>2013-12-18T14:15:04Z</time>
      </trkpt>
      <trkpt lat="48.84779" lon="2.92372">
        <ele>35.23</ele>
        <time>2013-12-18T14:15:24Z</time>
      </trkpt>
      <trkpt lat="48.84787" lon="2.92405">
        <ele>38.11</ele>
        <time>2013-12-18T14:15:45Z</time>
      </trkpt>
      <trkpt lat="48.8479" lon="2.92411">
        <ele>38.59</ele>
        <time>2013-12-18T14:15:49Z</time>
      </trkpt>
      <trkpt lat="48.84804" lon="2.9244">
        <ele>39.55</ele>
        <time>2013-12-18T14:16:10Z</time>
      </trkpt>
      <trkpt lat="48.8482" lon="2.92464">
        <ele>39.07</ele>
        <time>2013-12-18T14:16:30Z</time>
      </trkpt>
      <trkpt lat="48.84841" lon="2.92484">
        <ele>40.03</ele>
        <time>2013-12-18T14:16:54Z</time>
      </trkpt>
      <trkpt lat="48.84866" lon="2.92495">
        <ele>40.03</ele>
        <time>2013-12-18T14:17:17Z</time>
      </trkpt>
      <trkpt lat="48.8489" lon="2.92505">
        <ele>39.55</ele>
        <time>2013-12-18T14:17:40Z</time>
      </trkpt>
      <trkpt lat="48.84913" lon="2.92523">
        <ele>38.11</ele>
        <time>2013-12-18T14:18:06Z</time>
      </trkpt>
      <trkpt lat="48.84918" lon="2.92524">
        <ele>38.11</ele>
        <time>2013-12-18T14:18:24Z</time>
      </trkpt>
      <trkpt lat="48.84931" lon="2.9254">
        <ele>38.11</ele>
        <time>2013-12-18T14:18:41Z</time>
      </trkpt>
      <trkpt lat="48.84949" lon="2.92561">
        <ele>35.71</ele>
        <time>2013-12-18T14:18:59Z</time>
      </trkpt>
      <trkpt lat="48.84973" lon="2.92589">
        <ele>34.26</ele>
        <time>2013-12-18T14:19:23Z</time>
      </trkpt>
      <trkpt lat="48.84984" lon="2.92598">
        <ele>34.26</ele>
        <time>2013-12-18T14:19:33Z</time>
      </trkpt>
      <trkpt lat="48.85006" lon="2.92626">
        <ele>33.3</ele>
        <time>2013-12-18T14:19:55Z</time>
      </trkpt>
      <trkpt lat="48.85021" lon="2.92652">
        <ele>34.26</ele>
        <time>2013-12-18T14:20:14Z</time>
      </trkpt>
      <trkpt lat="48.85041" lon="2.92675">
        <ele>34.74</ele>
        <time>2013-12-18T14:20:36Z</time>
      </trkpt>
      <trkpt lat="48.85065" lon="2.92691">
        <ele>36.67</ele>
        <time>2013-12-18T14:20:58Z</time>
      </trkpt>
      <trkpt lat="48.85088" lon="2.92706">
        <ele>37.15</ele>
        <time>2013-12-18T14:21:20Z</time>
      </trkpt>
      <trkpt lat="48.85114" lon="2.92717">
        <ele>38.11</ele>
        <time>2013-12-18T14:21:43Z</time>
      </trkpt>
      <trkpt lat="48.85141" lon="2.92729">
        <ele>38.59</ele>
        <time>2013-12-18T14:22:07Z</time>
      </trkpt>
      <trkpt lat="48.85166" lon="2.92742">
        <ele>38.11</ele>
        <time>2013-12-18T14:22:31Z</time>
      </trkpt>
      <trkpt lat="48.85191" lon="2.92751">
        <ele>38.11</ele>
        <time>2013-12-18T14:22:53Z</time>
      </trkpt>
      <trkpt lat="48.85215" lon="2.9275">
        <ele>39.55</ele>
        <time>2013-12-18T14:23:13Z</time>
      </trkpt>
      <trkpt lat="48.85237" lon="2.92739">
        <ele>40.03</ele>
        <time>2013-12-18T14:23:33Z</time>
      </trkpt>
      <trkpt lat="48.85258" lon="2.92724">
        <ele>40.03</ele>
        <time>2013-12-18T14:23:54Z</time>
      </trkpt>
      <trkpt lat="48.85279" lon="2.92708">
        <ele>39.55</ele>
        <time>2013-12-18T14:24:15Z</time>
      </trkpt>
      <trkpt lat="48.85299" lon="2.92696">
        <ele>40.03</ele>
        <time>2013-12-18T14:24:35Z</time>
      </trkpt>
      <trkpt lat="48.85318" lon="2.92687">
        <ele>40.03</ele>
        <time>2013-12-18T14:24:53Z</time>
      </trkpt>
      <trkpt lat="48.85338" lon="2.92683">
        <ele>40.51</ele>
        <time>2013-12-18T14:25:13Z</time>
      </trkpt>
      <trkpt lat="48.85359" lon="2.92686">
        <ele>40.51</ele>
        <time>2013-12-18T14:25:34Z</time>
      </trkpt>
      <trkpt lat="48.85361" lon="2.92688">
        <ele>40.51</ele>
        <time>2013-12-18T14:25:36Z</time>
      </trkpt>
      <trkpt lat="48.85393" lon="2.92693">
        <ele>39.55</ele>
        <time>2013-12-18T14:26:03Z</time>
      </trkpt>
      <trkpt lat="48.85396" lon="2.92693">
        <ele>39.55</ele>
        <time>2013-12-18T14:26:06Z</time>
      </trkpt>
      <trkpt lat="48.8542" lon="2.92693">
        <ele>39.55</ele>
        <time>2013-12-18T14:26:29Z</time>
      </trkpt>
      <trkpt lat="48.8544" lon="2.92693">
        <ele>40.03</ele>
        <time>2013-12-18T14:26:47Z</time>
      </trkpt>
      <trkpt lat="48.85459" lon="2.92695">
        <ele>37.63</ele>
        <time>2013-12-18T14:27:05Z</time>
      </trkpt>
      <trkpt lat="48.85477" lon="2.92696">
        <ele>36.67</ele>
        <time>2013-12-18T14:27:24Z</time>
      </trkpt>
      <trkpt lat="48.85504" lon="2.92694">
        <ele>39.07</ele>
        <time>2013-12-18T14:27:48Z</time>
      </trkpt>
      <trkpt lat="48.85518" lon="2.92687">
        <ele>39.07</ele>
        <time>2013-12-18T14:28:03Z</time>
      </trkpt>
      <trkpt lat="48.85532" lon="2.92672">
        <ele>40.51</ele>
        <time>2013-12-18T14:28:20Z</time>
      </trkpt>
      <trkpt lat="48.85548" lon="2.92656">
        <ele>40.03</ele>
        <time>2013-12-18T14:28:36Z</time>
      </trkpt>
      <trkpt lat="48.85557" lon="2.92639">
        <ele>38.59</ele>
        <time>2013-12-18T14:28:53Z</time>
      </trkpt>
      <trkpt lat="48.85566" lon="2.92624">
        <ele>39.55</ele>
        <time>2013-12-18T14:29:09Z</time>
      </trkpt>
      <trkpt lat="48.85568" lon="2.92619">
        <ele>40.03</ele>
        <time>2013-12-18T14:29:17Z</time>
      </trkpt>
      <trkpt lat="48.85571" lon="2.92608">
        <ele>40.51</ele>
        <time>2013-12-18T14:29:24Z</time>
      </trkpt>
      <trkpt lat="48.85573" lon="2.92602">
        <ele>40.03</ele>
        <time>2013-12-18T14:29:39Z</time>
      </trkpt>
      <trkpt lat="48.85572" lon="2.92599">
        <ele>40.99</ele>
        <time>2013-12-18T14:29:46Z</time>
      </trkpt>
      <trkpt lat="48.85566" lon="2.92572">
        <ele>40.99</ele>
        <time>2013-12-18T14:30:03Z</time>
      </trkpt>
      <trkpt lat="48.85563" lon="2.92548">
        <ele>40.51</ele>
        <time>2013-12-18T14:30:19Z</time>
      </trkpt>
      <trkpt lat="48.8556" lon="2.92522">
        <ele>39.55</ele>
        <time>2013-12-18T14:30:35Z</time>
      </trkpt>
      <trkpt lat="48.85564" lon="2.92501">
        <ele>38.11</ele>
        <time>2013-12-18T14:30:51Z</time>
      </trkpt>
      <trkpt lat="48.85571" lon="2.9249">
        <ele>37.15</ele>
        <time>2013-12-18T14:31:01Z</time>
      </trkpt>
      <trkpt lat="48.85572" lon="2.92487">
        <ele>36.67</ele>
        <time>2013-12-18T14:31:03Z</time>
      </trkpt>
      <trkpt lat="48.8558" lon="2.92467">
        <ele>36.19</ele>
        <time>2013-12-18T14:31:18Z</time>
      </trkpt>
      <trkpt lat="48.85586" lon="2.92451">
        <ele>36.67</ele>
        <time>2013-12-18T14:31:29Z</time>
      </trkpt>
      <trkpt lat="48.85592" lon="2.92434">
        <ele>36.67</ele>
        <time>2013-12-18T14:31:44Z</time>
      </trkpt>
      <trkpt lat="48.85595" lon="2.92421">
        <ele>37.15</ele>
        <time>2013-12-18T14:31:53Z</time>
      </trkpt>
      <trkpt lat="48.85597" lon="2.9241">
        <ele>38.59</ele>
        <time>2013-12-18T14:32:04Z</time>
      </trkpt>
      <trkpt lat="48.85601" lon="2.92388">
        <ele>38.59</ele>
        <time>2013-12-18T14:32:20Z</time>
      </trkpt>
      <trkpt lat="48.85603" lon="2.92367">
        <ele>39.07</ele>
        <time>2013-12-18T14:32:36Z</time>
      </trkpt>
      <trkpt lat="48.85606" lon="2.92349">
        <ele>38.59</ele>
        <time>2013-12-18T14:32:49Z</time>
      </trkpt>
      <trkpt lat="48.85609" lon="2.92342">
        <ele>38.11</ele>
        <time>2013-12-18T14:33:12Z</time>
      </trkpt>
      <trkpt lat="48.85611" lon="2.92341">
        <ele>38.59</ele>
        <time>2013-12-18T14:33:39Z</time>
      </trkpt>
      <trkpt lat="48.85619" lon="2.92312">
        <ele>37.63</ele>
        <time>2013-12-18T14:33:54Z</time>
      </trkpt>
      <trkpt lat="48.85632" lon="2.92287">
        <ele>34.74</ele>
        <time>2013-12-18T14:34:09Z</time>
      </trkpt>
      <trkpt lat="48.85649" lon="2.92258">
        <ele>37.63</ele>
        <time>2013-12-18T14:34:31Z</time>
      </trkpt>
      <trkpt lat="48.85672" lon="2.92241">
        <ele>38.11</ele>
        <time>2013-12-18T14:34:51Z</time>
      </trkpt>
      <trkpt lat="48.85687" lon="2.92248">
        <ele>36.67</ele>
        <time>2013-12-18T14:35:09Z</time>
      </trkpt>
      <trkpt lat="48.85702" lon="2.92256">
        <ele>36.19</ele>
        <time>2013-12-18T14:35:22Z</time>
      </trkpt>
      <trkpt lat="48.85704" lon="2.92256">
        <ele>36.19</ele>
        <time>2013-12-18T14:35:24Z</time>
      </trkpt>
      <trkpt lat="48.85718" lon="2.92231">
        <ele>36.19</ele>
        <time>2013-12-18T14:35:40Z</time>
      </trkpt>
      <trkpt lat="48.85722" lon="2.92213">
        <ele>36.19</ele>
        <time>2013-12-18T14:35:54Z</time>
      </trkpt>
      <trkpt lat="48.85723" lon="2.9221">
        <ele>36.19</ele>
        <time>2013-12-18T14:35:56Z</time>
      </trkpt>
      <trkpt lat="48.85726" lon="2.92196">
        <ele>37.63</ele>
        <time>2013-12-18T14:36:03Z</time>
      </trkpt>
      <trkpt lat="48.8573" lon="2.92183">
        <ele>38.59</ele>
        <time>2013-12-18T14:36:17Z</time>
      </trkpt>
      <trkpt lat="48.85739" lon="2.92147">
        <ele>38.59</ele>
        <time>2013-12-18T14:36:35Z</time>
      </trkpt>
      <trkpt lat="48.85749" lon="2.92114">
        <ele>40.03</ele>
        <time>2013-12-18T14:36:52Z</time>
      </trkpt>
      <trkpt lat="48.85756" lon="2.92094">
        <ele>40.99</ele>
        <time>2013-12-18T14:37:08Z</time>
      </trkpt>
      <trkpt lat="48.85761" lon="2.9207">
        <ele>40.51</ele>
        <time>2013-12-18T14:37:23Z</time>
      </trkpt>
      <trkpt lat="48.85765" lon="2.92055">
        <ele>40.03</ele>
        <time>2013-12-18T14:37:38Z</time>
      </trkpt>
      <trkpt lat="48.85769" lon="2.92034">
        <ele>39.07</ele>
        <time>2013-12-18T14:37:52Z</time>
      </trkpt>
      <trkpt lat="48.85772" lon="2.92005">
        <ele>40.03</ele>
        <time>2013-12-18T14:38:10Z</time>
      </trkpt>
      <trkpt lat="48.85776" lon="2.91979">
        <ele>40.51</ele>
        <time>2013-12-18T14:38:27Z</time>
      </trkpt>
      <trkpt lat="48.85783" lon="2.91951">
        <ele>41.47</ele>
        <time>2013-12-18T14:38:46Z</time>
      </trkpt>
      <trkpt lat="48.85789" lon="2.91923">
        <ele>41.95</ele>
        <time>2013-12-18T14:39:05Z</time>
      </trkpt>
      <trkpt lat="48.85793" lon="2.91902">
        <ele>41.95</ele>
        <time>2013-12-18T14:39:21Z</time>
      </trkpt>
      <trkpt lat="48.85792" lon="2.91894">
        <ele>41.47</ele>
        <time>2013-12-18T14:39:26Z</time>
      </trkpt>
      <trkpt lat="48.85794" lon="2.91878">
        <ele>40.99</ele>
        <time>2013-12-18T14:39:37Z</time>
      </trkpt>
      <trkpt lat="48.85796" lon="2.91845">
        <ele>41.95</ele>
        <time>2013-12-18T14:39:57Z</time>
      </trkpt>
      <trkpt lat="48.85794" lon="2.9182">
        <ele>41.47</ele>
        <time>2013-12-18T14:40:14Z</time>
      </trkpt>
      <trkpt lat="48.85787" lon="2.91793">
        <ele>41.95</ele>
        <time>2013-12-18T14:40:33Z</time>
      </trkpt>
      <trkpt lat="48.85781" lon="2.9177">
        <ele>40.99</ele>
        <time>2013-12-18T14:40:49Z</time>
      </trkpt>
      <trkpt lat="48.85779" lon="2.91738">
        <ele>40.99</ele>
        <time>2013-12-18T14:41:09Z</time>
      </trkpt>
      <trkpt lat="48.8578" lon="2.91707">
        <ele>40.99</ele>
        <time>2013-12-18T14:41:29Z</time>
      </trkpt>
      <trkpt lat="48.8578" lon="2.91697">
        <ele>40.03</ele>
        <time>2013-12-18T14:41:36Z</time>
      </trkpt>
      <trkpt lat="48.85779" lon="2.91684">
        <ele>40.51</ele>
        <time>2013-12-18T14:41:45Z</time>
      </trkpt>
      <trkpt lat="48.85777" lon="2.91656">
        <ele>40.99</ele>
        <time>2013-12-18T14:42:05Z</time>
      </trkpt>
      <trkpt lat="48.8577" lon="2.91634">
        <ele>42.44</ele>
        <time>2013-12-18T14:42:22Z</time>
      </trkpt>
      <trkpt lat="48.8576" lon="2.91608">
        <ele>44.84</ele>
        <time>2013-12-18T14:42:41Z</time>
      </trkpt>
      <trkpt lat="48.8575" lon="2.91583">
        <ele>45.8</ele>
        <time>2013-12-18T14:43:00Z</time>
      </trkpt>
      <trkpt lat="48.8574" lon="2.91556">
        <ele>45.8</ele>
        <time>2013-12-18T14:43:17Z</time>
      </trkpt>
      <trkpt lat="48.85731" lon="2.91529">
        <ele>44.84</ele>
        <time>2013-12-18T14:43:35Z</time>
      </trkpt>
      <trkpt lat="48.85727" lon="2.91507">
        <ele>44.36</ele>
        <time>2013-12-18T14:43:55Z</time>
      </trkpt>
      <trkpt lat="48.85723" lon="2.91492">
        <ele>44.84</ele>
        <time>2013-12-18T14:44:09Z</time>
      </trkpt>
      <trkpt lat="48.85711" lon="2.91452">
        <ele>42.44</ele>
        <time>2013-12-18T14:44:29Z</time>
      </trkpt>
      <trkpt lat="48.85698" lon="2.91432">
        <ele>41.95</ele>
        <time>2013-12-18T14:44:47Z</time>
      </trkpt>
      <trkpt lat="48.85689" lon="2.9142">
        <ele>41.95</ele>
        <time>2013-12-18T14:45:04Z</time>
      </trkpt>
      <trkpt lat="48.8567" lon="2.91408">
        <ele>41.95</ele>
        <time>2013-12-18T14:45:20Z</time>
      </trkpt>
      <trkpt lat="48.8565" lon="2.91407">
        <ele>40.51</ele>
        <time>2013-12-18T14:45:36Z</time>
      </trkpt>
      <trkpt lat="48.85639" lon="2.91406">
        <ele>39.55</ele>
        <time>2013-12-18T14:45:54Z</time>
      </trkpt>
      <trkpt lat="48.85617" lon="2.91402">
        <ele>40.03</ele>
        <time>2013-12-18T14:46:10Z</time>
      </trkpt>
      <trkpt lat="48.856" lon="2.91388">
        <ele>39.55</ele>
        <time>2013-12-18T14:46:27Z</time>
      </trkpt>
      <trkpt lat="48.85588" lon="2.9138">
        <ele>39.55</ele>
        <time>2013-12-18T14:46:43Z</time>
      </trkpt>
      <trkpt lat="48.85571" lon="2.91366">
        <ele>36.67</ele>
        <time>2013-12-18T14:47:03Z</time>
      </trkpt>
      <trkpt lat="48.85565" lon="2.91363">
        <ele>36.19</ele>
        <time>2013-12-18T14:47:18Z</time>
      </trkpt>
      <trkpt lat="48.85563" lon="2.91362">
        <ele>36.19</ele>
        <time>2013-12-18T14:47:48Z</time>
      </trkpt>
      <trkpt lat="48.85563" lon="2.91361">
        <ele>34.74</ele>
        <time>2013-12-18T14:48:16Z</time>
      </trkpt>
      <trkpt lat="48.85563" lon="2.91362">
        <ele>34.26</ele>
        <time>2013-12-18T14:48:37Z</time>
      </trkpt>
      <trkpt lat="48.85565" lon="2.9136">
        <ele>34.26</ele>
        <time>2013-12-18T14:49:11Z</time>
      </trkpt>
      <trkpt lat="48.85565" lon="2.91361">
        <ele>33.3</ele>
        <time>2013-12-18T14:49:30Z</time>
      </trkpt>
      <trkpt lat="48.85558" lon="2.91354">
        <ele>34.26</ele>
        <time>2013-12-18T14:49:46Z</time>
      </trkpt>
      <trkpt lat="48.85541" lon="2.91337">
        <ele>36.67</ele>
        <time>2013-12-18T14:50:03Z</time>
      </trkpt>
      <trkpt lat="48.85525" lon="2.9132">
        <ele>35.71</ele>
        <time>2013-12-18T14:50:22Z</time>
      </trkpt>
      <trkpt lat="48.85511" lon="2.91301">
        <ele>35.23</ele>
        <time>2013-12-18T14:50:40Z</time>
      </trkpt>
      <trkpt lat="48.85505" lon="2.91293">
        <ele>36.19</ele>
        <time>2013-12-18T14:50:54Z</time>
      </trkpt>
      <trkpt lat="48.85495" lon="2.91281">
        <ele>35.71</ele>
        <time>2013-12-18T14:51:08Z</time>
      </trkpt>
      <trkpt lat="48.85484" lon="2.91269">
        <ele>37.15</ele>
        <time>2013-12-18T14:51:23Z</time>
      </trkpt>
      <trkpt lat="48.85479" lon="2.91268">
        <ele>37.63</ele>
        <time>2013-12-18T14:51:38Z</time>
      </trkpt>
      <trkpt lat="48.8548" lon="2.91267">
        <ele>38.11</ele>
        <time>2013-12-18T14:51:57Z</time>
      </trkpt>
      <trkpt lat="48.85479" lon="2.91265">
        <ele>39.07</ele>
        <time>2013-12-18T14:52:19Z</time>
      </trkpt>
      <trkpt lat="48.85476" lon="2.91263">
        <ele>39.55</ele>
        <time>2013-12-18T14:52:38Z</time>
      </trkpt>
      <trkpt lat="48.85471" lon="2.91259">
        <ele>39.07</ele>
        <time>2013-12-18T14:52:54Z</time>
      </trkpt>
      <trkpt lat="48.85461" lon="2.91258">
        <ele>39.55</ele>
        <time>2013-12-18T14:53:07Z</time>
      </trkpt>
      <trkpt lat="48.85451" lon="2.9124">
        <ele>41.47</ele>
        <time>2013-12-18T14:53:25Z</time>
      </trkpt>
      <trkpt lat="48.85446" lon="2.91221">
        <ele>40.51</ele>
        <time>2013-12-18T14:53:38Z</time>
      </trkpt>
      <trkpt lat="48.85433" lon="2.91188">
        <ele>40.03</ele>
        <time>2013-12-18T14:53:57Z</time>
      </trkpt>
      <trkpt lat="48.85433" lon="2.91168">
        <ele>41.95</ele>
        <time>2013-12-18T14:54:12Z</time>
      </trkpt>
      <trkpt lat="48.85433" lon="2.91153">
        <ele>41.47</ele>
        <time>2013-12-18T14:54:25Z</time>
      </trkpt>
      <trkpt lat="48.85438" lon="2.91133">
        <ele>40.99</ele>
        <time>2013-12-18T14:54:39Z</time>
      </trkpt>
      <trkpt lat="48.85442" lon="2.91108">
        <ele>38.11</ele>
        <time>2013-12-18T14:54:55Z</time>
      </trkpt>
      <trkpt lat="48.85443" lon="2.91105">
        <ele>38.59</ele>
        <time>2013-12-18T14:55:02Z</time>
      </trkpt>
      <trkpt lat="48.85449" lon="2.91078">
        <ele>40.51</ele>
        <time>2013-12-18T14:55:18Z</time>
      </trkpt>
      <trkpt lat="48.85451" lon="2.91058">
        <ele>39.55</ele>
        <time>2013-12-18T14:55:34Z</time>
      </trkpt>
      <trkpt lat="48.85451" lon="2.91025">
        <ele>39.55</ele>
        <time>2013-12-18T14:55:53Z</time>
      </trkpt>
      <trkpt lat="48.85462" lon="2.91009">
        <ele>38.59</ele>
        <time>2013-12-18T14:56:09Z</time>
      </trkpt>
      <trkpt lat="48.85466" lon="2.91005">
        <ele>38.11</ele>
        <time>2013-12-18T14:56:15Z</time>
      </trkpt>
      <trkpt lat="48.85478" lon="2.90998">
        <ele>38.59</ele>
        <time>2013-12-18T14:56:26Z</time>
      </trkpt>
      <trkpt lat="48.85493" lon="2.90996">
        <ele>38.59</ele>
        <time>2013-12-18T14:56:40Z</time>
      </trkpt>
      <trkpt lat="48.85509" lon="2.90992">
        <ele>40.51</ele>
        <time>2013-12-18T14:56:57Z</time>
      </trkpt>
      <trkpt lat="48.85516" lon="2.90982">
        <ele>41.47</ele>
        <time>2013-12-18T14:57:10Z</time>
      </trkpt>
      <trkpt lat="48.85522" lon="2.90982">
        <ele>41.47</ele>
        <time>2013-12-18T14:57:27Z</time>
      </trkpt>
      <trkpt lat="48.85532" lon="2.90982">
        <ele>40.51</ele>
        <time>2013-12-18T14:57:42Z</time>
      </trkpt>
      <trkpt lat="48.85552" lon="2.90989">
        <ele>38.11</ele>
        <time>2013-12-18T14:58:01Z</time>
      </trkpt>
      <trkpt lat="48.85555" lon="2.90987">
        <ele>37.63</ele>
        <time>2013-12-18T14:58:18Z</time>
      </trkpt>
      <trkpt lat="48.85555" lon="2.90985">
        <ele>38.11</ele>
        <time>2013-12-18T14:58:34Z</time>
      </trkpt>
      <trkpt lat="48.85555" lon="2.90985">
        <ele>38.11</ele>
        <time>2013-12-18T14:58:41Z</time>
      </trkpt>
      <trkpt lat="48.85555" lon="2.90986">
        <ele>38.11</ele>
        <time>2013-12-18T14:58:54Z</time>
      </trkpt>
      <trkpt lat="48.85555" lon="2.90984">
        <ele>37.63</ele>
        <time>2013-12-18T14:59:15Z</time>
      </trkpt>
      <trkpt lat="48.85555" lon="2.90977">
        <ele>37.15</ele>
        <time>2013-12-18T14:59:37Z</time>
      </trkpt>
      <trkpt lat="48.85554" lon="2.90973">
        <ele>38.11</ele>
        <time>2013-12-18T14:59:40Z</time>
      </trkpt>
      <trkpt lat="48.85558" lon="2.90959">
        <ele>39.55</ele>
        <time>2013-12-18T14:59:49Z</time>
      </trkpt>
      <trkpt lat="48.85569" lon="2.90949">
        <ele>44.36</ele>
        <time>2013-12-18T15:00:05Z</time>
      </trkpt>
      <trkpt lat="48.85568" lon="2.90941">
        <ele>45.32</ele>
        <time>2013-12-18T15:00:23Z</time>
      </trkpt>
      <trkpt lat="48.85567" lon="2.90941">
        <ele>44.84</ele>
        <time>2013-12-18T15:00:26Z</time>
      </trkpt>
      <trkpt lat="48.85558" lon="2.90937">
        <ele>44.84</ele>
        <time>2013-12-18T15:00:32Z</time>
      </trkpt>
      <trkpt lat="48.8556" lon="2.90924">
        <ele>45.8</ele>
        <time>2013-12-18T15:00:40Z</time>
      </trkpt>
      <trkpt lat="48.85562" lon="2.90916">
        <ele>45.8</ele>
        <time>2013-12-18T15:00:45Z</time>
      </trkpt>
      <trkpt lat="48.85559" lon="2.90904">
        <ele>44.36</ele>
        <time>2013-12-18T15:01:01Z</time>
      </trkpt>
      <trkpt lat="48.8556" lon="2.90903">
        <ele>44.36</ele>
        <time>2013-12-18T15:01:02Z</time>
      </trkpt>
      <trkpt lat="48.85561" lon="2.90902">
        <ele>44.36</ele>
        <time>2013-12-18T15:01:05Z</time>
      </trkpt>
      <trkpt lat="48.85569" lon="2.90904">
        <ele>43.88</ele>
        <time>2013-12-18T15:01:18Z</time>
      </trkpt>
      <trkpt lat="48.85573" lon="2.90903">
        <ele>44.36</ele>
        <time>2013-12-18T15:01:32Z</time>
      </trkpt>
      <trkpt lat="48.85577" lon="2.90906">
        <ele>44.36</ele>
        <time>2013-12-18T15:01:43Z</time>
      </trkpt>
      <trkpt lat="48.85583" lon="2.90906">
        <ele>43.4</ele>
        <time>2013-12-18T15:02:03Z</time>
      </trkpt>
      <trkpt lat="48.85596" lon="2.90883">
        <ele>37.15</ele>
        <time>2013-12-18T15:02:18Z</time>
      </trkpt>
      <trkpt lat="48.85601" lon="2.90862">
        <ele>31.86</ele>
        <time>2013-12-18T15:02:31Z</time>
      </trkpt>
      <trkpt lat="48.85607" lon="2.90838">
        <ele>30.42</ele>
        <time>2013-12-18T15:02:43Z</time>
      </trkpt>
      <trkpt lat="48.8561" lon="2.90828">
        <ele>30.9</ele>
        <time>2013-12-18T15:02:48Z</time>
      </trkpt>
      <trkpt lat="48.85615" lon="2.90824">
        <ele>30.9</ele>
        <time>2013-12-18T15:02:55Z</time>
      </trkpt>
      <trkpt lat="48.85625" lon="2.90804">
        <ele>33.3</ele>
        <time>2013-12-18T15:03:05Z</time>
      </trkpt>
      <trkpt lat="48.85627" lon="2.908">
        <ele>34.74</ele>
        <time>2013-12-18T15:03:07Z</time>
      </trkpt>
      <trkpt lat="48.85632" lon="2.90786">
        <ele>36.19</ele>
        <time>2013-12-18T15:03:14Z</time>
      </trkpt>
      <trkpt lat="48.85634" lon="2.90774">
        <ele>37.63</ele>
        <time>2013-12-18T15:03:20Z</time>
      </trkpt>
      <trkpt lat="48.85656" lon="2.90766">
        <ele>33.78</ele>
        <time>2013-12-18T15:03:35Z</time>
      </trkpt>
      <trkpt lat="48.85673" lon="2.90773">
        <ele>30.42</ele>
        <time>2013-12-18T15:03:50Z</time>
      </trkpt>
      <trkpt lat="48.85679" lon="2.90784">
        <ele>29.94</ele>
        <time>2013-12-18T15:04:05Z</time>
      </trkpt>
      <trkpt lat="48.85693" lon="2.90791">
        <ele>32.34</ele>
        <time>2013-12-18T15:04:19Z</time>
      </trkpt>
      <trkpt lat="48.85701" lon="2.90795">
        <ele>31.38</ele>
        <time>2013-12-18T15:04:34Z</time>
      </trkpt>
      <trkpt lat="48.85719" lon="2.90806">
        <ele>30.9</ele>
        <time>2013-12-18T15:04:45Z</time>
      </trkpt>
      <trkpt lat="48.85733" lon="2.90809">
        <ele>35.71</ele>
        <time>2013-12-18T15:04:55Z</time>
      </trkpt>
      <trkpt lat="48.85754" lon="2.90816">
        <ele>40.51</ele>
        <time>2013-12-18T15:05:08Z</time>
      </trkpt>
      <trkpt lat="48.85765" lon="2.90819">
        <ele>39.55</ele>
        <time>2013-12-18T15:05:22Z</time>
      </trkpt>
      <trkpt lat="48.85767" lon="2.90817">
        <ele>37.15</ele>
        <time>2013-12-18T15:05:32Z</time>
      </trkpt>
      <trkpt lat="48.85767" lon="2.90815">
        <ele>36.67</ele>
        <time>2013-12-18T15:05:37Z</time>
      </trkpt>
      <trkpt lat="48.85767" lon="2.90812">
        <ele>35.71</ele>
        <time>2013-12-18T15:05:39Z</time>
      </trkpt>
      <trkpt lat="48.85766" lon="2.90804">
        <ele>35.23</ele>
        <time>2013-12-18T15:05:44Z</time>
      </trkpt>
      <trkpt lat="48.85768" lon="2.90794">
        <ele>33.3</ele>
        <time>2013-12-18T15:05:57Z</time>
      </trkpt>
      <trkpt lat="48.85769" lon="2.90791">
        <ele>31.38</ele>
        <time>2013-12-18T15:06:01Z</time>
      </trkpt>
      <trkpt lat="48.85771" lon="2.90785">
        <ele>28.98</ele>
        <time>2013-12-18T15:06:06Z</time>
      </trkpt>
      <trkpt lat="48.85776" lon="2.90776">
        <ele>27.53</ele>
        <time>2013-12-18T15:06:14Z</time>
      </trkpt>
      <trkpt lat="48.85778" lon="2.90773">
        <ele>27.53</ele>
        <time>2013-12-18T15:06:23Z</time>
      </trkpt>
      <trkpt lat="48.85789" lon="2.90759">
        <ele>26.57</ele>
        <time>2013-12-18T15:06:37Z</time>
      </trkpt>
      <trkpt lat="48.85795" lon="2.90756">
        <ele>27.53</ele>
        <time>2013-12-18T15:06:45Z</time>
      </trkpt>
      <trkpt lat="48.85802" lon="2.90754">
        <ele>30.42</ele>
        <time>2013-12-18T15:06:57Z</time>
      </trkpt>
      <trkpt lat="48.85802" lon="2.90754">
        <ele>30.9</ele>
        <time>2013-12-18T15:07:02Z</time>
      </trkpt>
      <trkpt lat="48.85804" lon="2.90753">
        <ele>32.82</ele>
        <time>2013-12-18T15:07:04Z</time>
      </trkpt>
      <trkpt lat="48.85809" lon="2.9075">
        <ele>35.23</ele>
        <time>2013-12-18T15:07:08Z</time>
      </trkpt>
      <trkpt lat="48.85816" lon="2.9074">
        <ele>37.63</ele>
        <time>2013-12-18T15:07:18Z</time>
      </trkpt>
      <trkpt lat="48.85819" lon="2.90738">
        <ele>38.11</ele>
        <time>2013-12-18T15:07:29Z</time>
      </trkpt>
      <trkpt lat="48.85834" lon="2.90737">
        <ele>36.19</ele>
        <time>2013-12-18T15:07:42Z</time>
      </trkpt>
      <trkpt lat="48.85849" lon="2.90731">
        <ele>37.15</ele>
        <time>2013-12-18T15:07:54Z</time>
      </trkpt>
      <trkpt lat="48.85862" lon="2.90729">
        <ele>38.11</ele>
        <time>2013-12-18T15:08:06Z</time>
      </trkpt>
      <trkpt lat="48.85871" lon="2.90726">
        <ele>37.63</ele>
        <time>2013-12-18T15:08:17Z</time>
      </trkpt>
      <trkpt lat="48.85872" lon="2.90725">
        <ele>37.63</ele>
        <time>2013-12-18T15:08:18Z</time>
      </trkpt>
      <trkpt lat="48.85877" lon="2.90722">
        <ele>37.63</ele>
        <time>2013-12-18T15:08:23Z</time>
      </trkpt>
      <trkpt lat="48.85882" lon="2.90728">
        <ele>36.67</ele>
        <time>2013-12-18T15:08:29Z</time>
      </trkpt>
      <trkpt lat="48.85891" lon="2.90726">
        <ele>37.15</ele>
        <time>2013-12-18T15:08:37Z</time>
      </trkpt>
      <trkpt lat="48.85894" lon="2.90716">
        <ele>39.55</ele>
        <time>2013-12-18T15:08:44Z</time>
      </trkpt>
      <trkpt lat="48.85904" lon="2.90702">
        <ele>37.63</ele>
        <time>2013-12-18T15:08:59Z</time>
      </trkpt>
      <trkpt lat="48.85908" lon="2.90683">
        <ele>33.78</ele>
        <time>2013-12-18T15:09:12Z</time>
      </trkpt>
      <trkpt lat="48.85919" lon="2.90682">
        <ele>36.19</ele>
        <time>2013-12-18T15:09:22Z</time>
      </trkpt>
      <trkpt lat="48.85923" lon="2.90681">
        <ele>38.59</ele>
        <time>2013-12-18T15:09:32Z</time>
      </trkpt>
      <trkpt lat="48.85924" lon="2.90678">
        <ele>40.99</ele>
        <time>2013-12-18T15:09:43Z</time>
      </trkpt>
      <trkpt lat="48.85925" lon="2.90679">
        <ele>42.44</ele>
        <time>2013-12-18T15:09:56Z</time>
      </trkpt>
      <trkpt lat="48.85922" lon="2.90679">
        <ele>41.95</ele>
        <time>2013-12-18T15:10:00Z</time>
      </trkpt>
      <trkpt lat="48.8592" lon="2.90664">
        <ele>41.95</ele>
        <time>2013-12-18T15:10:10Z</time>
      </trkpt>
      <trkpt lat="48.85922" lon="2.9066">
        <ele>42.92</ele>
        <time>2013-12-18T15:10:13Z</time>
      </trkpt>
      <trkpt lat="48.85926" lon="2.90657">
        <ele>45.8</ele>
        <time>2013-12-18T15:10:17Z</time>
      </trkpt>
      <trkpt lat="48.85927" lon="2.90632">
        <ele>47.72</ele>
        <time>2013-12-18T15:10:30Z</time>
      </trkpt>
      <trkpt lat="48.85926" lon="2.90629">
        <ele>47.24</ele>
        <time>2013-12-18T15:10:32Z</time>
      </trkpt>
      <trkpt lat="48.85929" lon="2.90622">
        <ele>46.28</ele>
        <time>2013-12-18T15:10:37Z</time>
      </trkpt>
      <trkpt lat="48.85933" lon="2.90617">
        <ele>45.32</ele>
        <time>2013-12-18T15:10:41Z</time>
      </trkpt>
      <trkpt lat="48.85942" lon="2.90609">
        <ele>43.88</ele>
        <time>2013-12-18T15:10:53Z</time>
      </trkpt>
      <trkpt lat="48.85945" lon="2.90608">
        <ele>43.4</ele>
        <time>2013-12-18T15:10:55Z</time>
      </trkpt>
      <trkpt lat="48.85947" lon="2.906">
        <ele>43.4</ele>
        <time>2013-12-18T15:11:00Z</time>
      </trkpt>
      <trkpt lat="48.85947" lon="2.90586">
        <ele>43.4</ele>
        <time>2013-12-18T15:11:07Z</time>
      </trkpt>
      <trkpt lat="48.85948" lon="2.90571">
        <ele>41.95</ele>
        <time>2013-12-18T15:11:16Z</time>
      </trkpt>
      <trkpt lat="48.85949" lon="2.90565">
        <ele>44.36</ele>
        <time>2013-12-18T15:11:31Z</time>
      </trkpt>
      <trkpt lat="48.8595" lon="2.90565">
        <ele>44.84</ele>
        <time>2013-12-18T15:11:42Z</time>
      </trkpt>
      <trkpt lat="48.85951" lon="2.90565">
        <ele>44.84</ele>
        <time>2013-12-18T15:12:03Z</time>
      </trkpt>
    </trkseg>
  </trk>
</gpx>